<?xml version="1.0" encoding="UTF-8" standalone="no" ?>
<gpx xmlns="http://www.topografix.com/GPX/1/1" xmlns:xsi="http://www.w3.org/2001/XMLSchema-instance" xsi:schemaLocation="http://www.topografix.com/GPX/1/1 http://www.topografix.com/GPX/1/1/gpx.xsd" version="1.1" creator="VisuGPX - https://www.visugpx.com">
  <metadata>
    <name>Balade de 9km à St sauveur le vicomte </name>
  </metadata>
  <trk>
    <name><![CDATA[Balade de 9km à St sauveur le vicomte _1]]></name>
    <trkseg>
      <trkpt lat="49.37614" lon="-1.59367">
        <ele>49.5</ele>
        <time>2021-12-27T13:55:52Z</time>
      </trkpt>
      <trkpt lat="49.37622" lon="-1.5935">
        <ele>44.2</ele>
        <time>2021-12-27T13:55:55Z</time>
      </trkpt>
      <trkpt lat="49.37625" lon="-1.59344">
        <ele>48.3</ele>
        <time>2021-12-27T13:55:56Z</time>
      </trkpt>
      <trkpt lat="49.37627" lon="-1.59354">
        <ele>55.5</ele>
        <time>2021-12-27T13:56:03Z</time>
      </trkpt>
      <trkpt lat="49.37632" lon="-1.59351">
        <ele>56.7</ele>
        <time>2021-12-27T13:56:18Z</time>
      </trkpt>
      <trkpt lat="49.37637" lon="-1.59352">
        <ele>56</ele>
        <time>2021-12-27T13:56:25Z</time>
      </trkpt>
      <trkpt lat="49.37642" lon="-1.59352">
        <ele>55.7</ele>
        <time>2021-12-27T13:56:30Z</time>
      </trkpt>
      <trkpt lat="49.37647" lon="-1.59354">
        <ele>55.1</ele>
        <time>2021-12-27T13:56:35Z</time>
      </trkpt>
      <trkpt lat="49.37652" lon="-1.59353">
        <ele>55</ele>
        <time>2021-12-27T13:56:39Z</time>
      </trkpt>
      <trkpt lat="49.37657" lon="-1.59353">
        <ele>55.3</ele>
        <time>2021-12-27T13:56:49Z</time>
      </trkpt>
      <trkpt lat="49.37663" lon="-1.59351">
        <ele>54.6</ele>
        <time>2021-12-27T13:57:02Z</time>
      </trkpt>
      <trkpt lat="49.37668" lon="-1.59351">
        <ele>54.3</ele>
        <time>2021-12-27T13:57:04Z</time>
      </trkpt>
      <trkpt lat="49.37674" lon="-1.5935">
        <ele>53.6</ele>
        <time>2021-12-27T13:57:07Z</time>
      </trkpt>
      <trkpt lat="49.3768" lon="-1.59352">
        <ele>52.7</ele>
        <time>2021-12-27T13:57:11Z</time>
      </trkpt>
      <trkpt lat="49.37685" lon="-1.59352">
        <ele>51.8</ele>
        <time>2021-12-27T13:57:15Z</time>
      </trkpt>
      <trkpt lat="49.37691" lon="-1.59353">
        <ele>51.1</ele>
        <time>2021-12-27T13:57:19Z</time>
      </trkpt>
      <trkpt lat="49.37697" lon="-1.59357">
        <ele>50</ele>
        <time>2021-12-27T13:57:23Z</time>
      </trkpt>
      <trkpt lat="49.37703" lon="-1.59359">
        <ele>49.6</ele>
        <time>2021-12-27T13:57:27Z</time>
      </trkpt>
      <trkpt lat="49.37708" lon="-1.59358">
        <ele>50</ele>
        <time>2021-12-27T13:57:34Z</time>
      </trkpt>
      <trkpt lat="49.37713" lon="-1.59357">
        <ele>50.3</ele>
        <time>2021-12-27T13:57:39Z</time>
      </trkpt>
      <trkpt lat="49.37718" lon="-1.59356">
        <ele>50.2</ele>
        <time>2021-12-27T13:57:44Z</time>
      </trkpt>
      <trkpt lat="49.37722" lon="-1.59356">
        <ele>49.9</ele>
        <time>2021-12-27T13:57:54Z</time>
      </trkpt>
      <trkpt lat="49.37727" lon="-1.59355">
        <ele>49.9</ele>
        <time>2021-12-27T13:58:00Z</time>
      </trkpt>
      <trkpt lat="49.37732" lon="-1.59355">
        <ele>50.3</ele>
        <time>2021-12-27T13:58:06Z</time>
      </trkpt>
      <trkpt lat="49.37737" lon="-1.59354">
        <ele>50.5</ele>
        <time>2021-12-27T13:58:12Z</time>
      </trkpt>
      <trkpt lat="49.37741" lon="-1.59354">
        <ele>50.7</ele>
        <time>2021-12-27T13:58:15Z</time>
      </trkpt>
      <trkpt lat="49.3775" lon="-1.59355">
        <ele>51</ele>
        <time>2021-12-27T13:58:18Z</time>
      </trkpt>
      <trkpt lat="49.37754" lon="-1.59355">
        <ele>51.5</ele>
        <time>2021-12-27T13:58:20Z</time>
      </trkpt>
      <trkpt lat="49.3776" lon="-1.59354">
        <ele>52.3</ele>
        <time>2021-12-27T13:58:24Z</time>
      </trkpt>
      <trkpt lat="49.37766" lon="-1.59351">
        <ele>53.9</ele>
        <time>2021-12-27T13:58:28Z</time>
      </trkpt>
      <trkpt lat="49.3777" lon="-1.59349">
        <ele>55.8</ele>
        <time>2021-12-27T13:58:33Z</time>
      </trkpt>
      <trkpt lat="49.37777" lon="-1.59348">
        <ele>57.5</ele>
        <time>2021-12-27T13:58:38Z</time>
      </trkpt>
      <trkpt lat="49.37781" lon="-1.5935">
        <ele>58.1</ele>
        <time>2021-12-27T13:58:42Z</time>
      </trkpt>
      <trkpt lat="49.37788" lon="-1.59352">
        <ele>58.6</ele>
        <time>2021-12-27T13:58:48Z</time>
      </trkpt>
      <trkpt lat="49.37795" lon="-1.59352">
        <ele>58.9</ele>
        <time>2021-12-27T13:58:54Z</time>
      </trkpt>
      <trkpt lat="49.378" lon="-1.59352">
        <ele>58.5</ele>
        <time>2021-12-27T13:58:58Z</time>
      </trkpt>
      <trkpt lat="49.37805" lon="-1.59352">
        <ele>57.6</ele>
        <time>2021-12-27T13:59:03Z</time>
      </trkpt>
      <trkpt lat="49.37811" lon="-1.59353">
        <ele>56.7</ele>
        <time>2021-12-27T13:59:10Z</time>
      </trkpt>
      <trkpt lat="49.37816" lon="-1.59355">
        <ele>56.6</ele>
        <time>2021-12-27T13:59:15Z</time>
      </trkpt>
      <trkpt lat="49.37821" lon="-1.59354">
        <ele>56.6</ele>
        <time>2021-12-27T13:59:20Z</time>
      </trkpt>
      <trkpt lat="49.37825" lon="-1.59351">
        <ele>56.7</ele>
        <time>2021-12-27T13:59:25Z</time>
      </trkpt>
      <trkpt lat="49.37831" lon="-1.59352">
        <ele>56.9</ele>
        <time>2021-12-27T13:59:29Z</time>
      </trkpt>
      <trkpt lat="49.37836" lon="-1.59355">
        <ele>57.3</ele>
        <time>2021-12-27T13:59:34Z</time>
      </trkpt>
      <trkpt lat="49.37843" lon="-1.59355">
        <ele>57.5</ele>
        <time>2021-12-27T13:59:39Z</time>
      </trkpt>
      <trkpt lat="49.37847" lon="-1.59353">
        <ele>57.7</ele>
        <time>2021-12-27T13:59:43Z</time>
      </trkpt>
      <trkpt lat="49.37853" lon="-1.59352">
        <ele>57.4</ele>
        <time>2021-12-27T13:59:48Z</time>
      </trkpt>
      <trkpt lat="49.37855" lon="-1.59346">
        <ele>57.1</ele>
        <time>2021-12-27T13:59:53Z</time>
      </trkpt>
      <trkpt lat="49.37854" lon="-1.59339">
        <ele>56.5</ele>
        <time>2021-12-27T14:00:00Z</time>
      </trkpt>
      <trkpt lat="49.37857" lon="-1.5933">
        <ele>56.4</ele>
        <time>2021-12-27T14:00:04Z</time>
      </trkpt>
      <trkpt lat="49.37858" lon="-1.59321">
        <ele>56.7</ele>
        <time>2021-12-27T14:00:08Z</time>
      </trkpt>
      <trkpt lat="49.3786" lon="-1.59312">
        <ele>56.9</ele>
        <time>2021-12-27T14:00:13Z</time>
      </trkpt>
      <trkpt lat="49.37867" lon="-1.59312">
        <ele>57</ele>
        <time>2021-12-27T14:00:18Z</time>
      </trkpt>
      <trkpt lat="49.37871" lon="-1.59309">
        <ele>57</ele>
        <time>2021-12-27T14:00:22Z</time>
      </trkpt>
      <trkpt lat="49.37874" lon="-1.59302">
        <ele>57.1</ele>
        <time>2021-12-27T14:00:26Z</time>
      </trkpt>
      <trkpt lat="49.37878" lon="-1.59295">
        <ele>57.1</ele>
        <time>2021-12-27T14:00:31Z</time>
      </trkpt>
      <trkpt lat="49.37881" lon="-1.5929">
        <ele>57.2</ele>
        <time>2021-12-27T14:00:37Z</time>
      </trkpt>
      <trkpt lat="49.37886" lon="-1.59287">
        <ele>57</ele>
        <time>2021-12-27T14:00:44Z</time>
      </trkpt>
      <trkpt lat="49.37891" lon="-1.59284">
        <ele>56.7</ele>
        <time>2021-12-27T14:00:51Z</time>
      </trkpt>
      <trkpt lat="49.37894" lon="-1.59278">
        <ele>57.1</ele>
        <time>2021-12-27T14:00:58Z</time>
      </trkpt>
      <trkpt lat="49.37899" lon="-1.59272">
        <ele>56.9</ele>
        <time>2021-12-27T14:01:04Z</time>
      </trkpt>
      <trkpt lat="49.37903" lon="-1.59265">
        <ele>56.2</ele>
        <time>2021-12-27T14:01:08Z</time>
      </trkpt>
      <trkpt lat="49.37907" lon="-1.5926">
        <ele>55.9</ele>
        <time>2021-12-27T14:01:12Z</time>
      </trkpt>
      <trkpt lat="49.37921" lon="-1.59235">
        <ele>52.9</ele>
        <time>2021-12-27T14:01:22Z</time>
      </trkpt>
      <trkpt lat="49.37924" lon="-1.5923">
        <ele>52.3</ele>
        <time>2021-12-27T14:01:27Z</time>
      </trkpt>
      <trkpt lat="49.37928" lon="-1.59225">
        <ele>52.8</ele>
        <time>2021-12-27T14:01:31Z</time>
      </trkpt>
      <trkpt lat="49.37931" lon="-1.59219">
        <ele>53.6</ele>
        <time>2021-12-27T14:01:37Z</time>
      </trkpt>
      <trkpt lat="49.37934" lon="-1.59213">
        <ele>53.8</ele>
        <time>2021-12-27T14:01:54Z</time>
      </trkpt>
      <trkpt lat="49.37936" lon="-1.59207">
        <ele>53</ele>
        <time>2021-12-27T14:02:04Z</time>
      </trkpt>
      <trkpt lat="49.37936" lon="-1.592">
        <ele>51.6</ele>
        <time>2021-12-27T14:02:18Z</time>
      </trkpt>
      <trkpt lat="49.37937" lon="-1.59193">
        <ele>50.9</ele>
        <time>2021-12-27T14:02:22Z</time>
      </trkpt>
      <trkpt lat="49.37939" lon="-1.59186">
        <ele>50.3</ele>
        <time>2021-12-27T14:02:30Z</time>
      </trkpt>
      <trkpt lat="49.3794" lon="-1.59178">
        <ele>50.2</ele>
        <time>2021-12-27T14:02:34Z</time>
      </trkpt>
      <trkpt lat="49.37944" lon="-1.59173">
        <ele>50.7</ele>
        <time>2021-12-27T14:02:46Z</time>
      </trkpt>
      <trkpt lat="49.37941" lon="-1.59178">
        <ele>50.2</ele>
        <time>2021-12-27T14:02:58Z</time>
      </trkpt>
      <trkpt lat="49.37937" lon="-1.59174">
        <ele>51</ele>
        <time>2021-12-27T14:03:12Z</time>
      </trkpt>
      <trkpt lat="49.37941" lon="-1.59166">
        <ele>51</ele>
        <time>2021-12-27T14:03:32Z</time>
      </trkpt>
      <trkpt lat="49.37943" lon="-1.59159">
        <ele>50.7</ele>
        <time>2021-12-27T14:03:36Z</time>
      </trkpt>
      <trkpt lat="49.37946" lon="-1.59154">
        <ele>50.7</ele>
        <time>2021-12-27T14:03:51Z</time>
      </trkpt>
      <trkpt lat="49.37949" lon="-1.59148">
        <ele>50.8</ele>
        <time>2021-12-27T14:03:55Z</time>
      </trkpt>
      <trkpt lat="49.37952" lon="-1.59142">
        <ele>50.8</ele>
        <time>2021-12-27T14:04:02Z</time>
      </trkpt>
      <trkpt lat="49.37956" lon="-1.59138">
        <ele>51.7</ele>
        <time>2021-12-27T14:04:10Z</time>
      </trkpt>
      <trkpt lat="49.3796" lon="-1.59133">
        <ele>52.9</ele>
        <time>2021-12-27T14:04:17Z</time>
      </trkpt>
      <trkpt lat="49.37963" lon="-1.59128">
        <ele>53.4</ele>
        <time>2021-12-27T14:04:22Z</time>
      </trkpt>
      <trkpt lat="49.37969" lon="-1.59127">
        <ele>53.3</ele>
        <time>2021-12-27T14:04:37Z</time>
      </trkpt>
      <trkpt lat="49.37974" lon="-1.5913">
        <ele>53.2</ele>
        <time>2021-12-27T14:04:40Z</time>
      </trkpt>
      <trkpt lat="49.37979" lon="-1.59131">
        <ele>53.2</ele>
        <time>2021-12-27T14:04:44Z</time>
      </trkpt>
      <trkpt lat="49.37984" lon="-1.59132">
        <ele>53.3</ele>
        <time>2021-12-27T14:04:49Z</time>
      </trkpt>
      <trkpt lat="49.37989" lon="-1.59135">
        <ele>53.2</ele>
        <time>2021-12-27T14:04:53Z</time>
      </trkpt>
      <trkpt lat="49.37992" lon="-1.59141">
        <ele>55</ele>
        <time>2021-12-27T14:05:21Z</time>
      </trkpt>
      <trkpt lat="49.37996" lon="-1.59145">
        <ele>55.3</ele>
        <time>2021-12-27T14:05:25Z</time>
      </trkpt>
      <trkpt lat="49.38" lon="-1.5915">
        <ele>55.6</ele>
        <time>2021-12-27T14:05:30Z</time>
      </trkpt>
      <trkpt lat="49.38005" lon="-1.59146">
        <ele>55.5</ele>
        <time>2021-12-27T14:05:36Z</time>
      </trkpt>
      <trkpt lat="49.3801" lon="-1.59142">
        <ele>55.6</ele>
        <time>2021-12-27T14:05:40Z</time>
      </trkpt>
      <trkpt lat="49.38016" lon="-1.59135">
        <ele>55.8</ele>
        <time>2021-12-27T14:05:44Z</time>
      </trkpt>
      <trkpt lat="49.38021" lon="-1.59133">
        <ele>55.7</ele>
        <time>2021-12-27T14:05:48Z</time>
      </trkpt>
      <trkpt lat="49.38025" lon="-1.59129">
        <ele>55.8</ele>
        <time>2021-12-27T14:05:52Z</time>
      </trkpt>
      <trkpt lat="49.38029" lon="-1.59122">
        <ele>56.3</ele>
        <time>2021-12-27T14:05:57Z</time>
      </trkpt>
      <trkpt lat="49.38032" lon="-1.59115">
        <ele>57.6</ele>
        <time>2021-12-27T14:06:01Z</time>
      </trkpt>
      <trkpt lat="49.38036" lon="-1.59107">
        <ele>58.6</ele>
        <time>2021-12-27T14:06:05Z</time>
      </trkpt>
      <trkpt lat="49.38039" lon="-1.591">
        <ele>59.6</ele>
        <time>2021-12-27T14:06:10Z</time>
      </trkpt>
      <trkpt lat="49.38044" lon="-1.59096">
        <ele>59.9</ele>
        <time>2021-12-27T14:06:14Z</time>
      </trkpt>
      <trkpt lat="49.38048" lon="-1.59093">
        <ele>60.2</ele>
        <time>2021-12-27T14:06:23Z</time>
      </trkpt>
      <trkpt lat="49.38051" lon="-1.59088">
        <ele>60.1</ele>
        <time>2021-12-27T14:06:29Z</time>
      </trkpt>
      <trkpt lat="49.38054" lon="-1.59079">
        <ele>59.8</ele>
        <time>2021-12-27T14:06:32Z</time>
      </trkpt>
      <trkpt lat="49.38058" lon="-1.59071">
        <ele>59.3</ele>
        <time>2021-12-27T14:06:37Z</time>
      </trkpt>
      <trkpt lat="49.38059" lon="-1.59064">
        <ele>59.3</ele>
        <time>2021-12-27T14:06:42Z</time>
      </trkpt>
      <trkpt lat="49.38061" lon="-1.59057">
        <ele>60.3</ele>
        <time>2021-12-27T14:06:57Z</time>
      </trkpt>
      <trkpt lat="49.38064" lon="-1.59051">
        <ele>60.3</ele>
        <time>2021-12-27T14:07:04Z</time>
      </trkpt>
      <trkpt lat="49.38067" lon="-1.59043">
        <ele>60.1</ele>
        <time>2021-12-27T14:07:11Z</time>
      </trkpt>
      <trkpt lat="49.3807" lon="-1.59035">
        <ele>59.7</ele>
        <time>2021-12-27T14:07:15Z</time>
      </trkpt>
      <trkpt lat="49.38072" lon="-1.59029">
        <ele>59.4</ele>
        <time>2021-12-27T14:07:18Z</time>
      </trkpt>
      <trkpt lat="49.38075" lon="-1.59021">
        <ele>59.1</ele>
        <time>2021-12-27T14:07:20Z</time>
      </trkpt>
      <trkpt lat="49.38079" lon="-1.5901">
        <ele>58.5</ele>
        <time>2021-12-27T14:07:24Z</time>
      </trkpt>
      <trkpt lat="49.38081" lon="-1.59004">
        <ele>57.7</ele>
        <time>2021-12-27T14:07:27Z</time>
      </trkpt>
      <trkpt lat="49.38084" lon="-1.58996">
        <ele>56.7</ele>
        <time>2021-12-27T14:07:31Z</time>
      </trkpt>
      <trkpt lat="49.38087" lon="-1.58989">
        <ele>56.4</ele>
        <time>2021-12-27T14:07:34Z</time>
      </trkpt>
      <trkpt lat="49.38092" lon="-1.58984">
        <ele>56.2</ele>
        <time>2021-12-27T14:07:38Z</time>
      </trkpt>
      <trkpt lat="49.38096" lon="-1.58981">
        <ele>56.5</ele>
        <time>2021-12-27T14:07:42Z</time>
      </trkpt>
      <trkpt lat="49.381" lon="-1.58974">
        <ele>56.4</ele>
        <time>2021-12-27T14:07:47Z</time>
      </trkpt>
      <trkpt lat="49.38103" lon="-1.58969">
        <ele>56.1</ele>
        <time>2021-12-27T14:07:50Z</time>
      </trkpt>
      <trkpt lat="49.38106" lon="-1.58963">
        <ele>55.8</ele>
        <time>2021-12-27T14:07:54Z</time>
      </trkpt>
      <trkpt lat="49.38109" lon="-1.58956">
        <ele>55.3</ele>
        <time>2021-12-27T14:07:59Z</time>
      </trkpt>
      <trkpt lat="49.38113" lon="-1.5895">
        <ele>55.3</ele>
        <time>2021-12-27T14:08:03Z</time>
      </trkpt>
      <trkpt lat="49.38117" lon="-1.58944">
        <ele>55.7</ele>
        <time>2021-12-27T14:08:07Z</time>
      </trkpt>
      <trkpt lat="49.3812" lon="-1.58938">
        <ele>56.4</ele>
        <time>2021-12-27T14:08:11Z</time>
      </trkpt>
      <trkpt lat="49.38124" lon="-1.5893">
        <ele>56.8</ele>
        <time>2021-12-27T14:08:14Z</time>
      </trkpt>
      <trkpt lat="49.38127" lon="-1.58925">
        <ele>56.9</ele>
        <time>2021-12-27T14:08:19Z</time>
      </trkpt>
      <trkpt lat="49.38131" lon="-1.58923">
        <ele>56.4</ele>
        <time>2021-12-27T14:08:34Z</time>
      </trkpt>
      <trkpt lat="49.38136" lon="-1.58926">
        <ele>55.1</ele>
        <time>2021-12-27T14:08:44Z</time>
      </trkpt>
      <trkpt lat="49.38141" lon="-1.58929">
        <ele>54.8</ele>
        <time>2021-12-27T14:08:50Z</time>
      </trkpt>
      <trkpt lat="49.38146" lon="-1.58932">
        <ele>54.6</ele>
        <time>2021-12-27T14:08:54Z</time>
      </trkpt>
      <trkpt lat="49.38151" lon="-1.58934">
        <ele>54.5</ele>
        <time>2021-12-27T14:08:58Z</time>
      </trkpt>
      <trkpt lat="49.38156" lon="-1.58936">
        <ele>54.4</ele>
        <time>2021-12-27T14:09:02Z</time>
      </trkpt>
      <trkpt lat="49.3816" lon="-1.58939">
        <ele>55</ele>
        <time>2021-12-27T14:09:07Z</time>
      </trkpt>
      <trkpt lat="49.38165" lon="-1.58944">
        <ele>56.6</ele>
        <time>2021-12-27T14:09:20Z</time>
      </trkpt>
      <trkpt lat="49.3817" lon="-1.58949">
        <ele>57</ele>
        <time>2021-12-27T14:09:24Z</time>
      </trkpt>
      <trkpt lat="49.38174" lon="-1.58953">
        <ele>57.4</ele>
        <time>2021-12-27T14:09:28Z</time>
      </trkpt>
      <trkpt lat="49.38179" lon="-1.58956">
        <ele>57.5</ele>
        <time>2021-12-27T14:09:32Z</time>
      </trkpt>
      <trkpt lat="49.38184" lon="-1.5896">
        <ele>57.6</ele>
        <time>2021-12-27T14:09:36Z</time>
      </trkpt>
      <trkpt lat="49.38188" lon="-1.58963">
        <ele>57.8</ele>
        <time>2021-12-27T14:09:40Z</time>
      </trkpt>
      <trkpt lat="49.38193" lon="-1.58964">
        <ele>58.1</ele>
        <time>2021-12-27T14:09:45Z</time>
      </trkpt>
      <trkpt lat="49.38198" lon="-1.58967">
        <ele>58.3</ele>
        <time>2021-12-27T14:09:49Z</time>
      </trkpt>
      <trkpt lat="49.38203" lon="-1.5897">
        <ele>58</ele>
        <time>2021-12-27T14:09:58Z</time>
      </trkpt>
      <trkpt lat="49.38207" lon="-1.58975">
        <ele>57.5</ele>
        <time>2021-12-27T14:10:01Z</time>
      </trkpt>
      <trkpt lat="49.38212" lon="-1.58978">
        <ele>57.2</ele>
        <time>2021-12-27T14:10:06Z</time>
      </trkpt>
      <trkpt lat="49.38215" lon="-1.58983">
        <ele>57</ele>
        <time>2021-12-27T14:10:09Z</time>
      </trkpt>
      <trkpt lat="49.38219" lon="-1.58988">
        <ele>56.9</ele>
        <time>2021-12-27T14:10:14Z</time>
      </trkpt>
      <trkpt lat="49.38222" lon="-1.58993">
        <ele>56.4</ele>
        <time>2021-12-27T14:10:19Z</time>
      </trkpt>
      <trkpt lat="49.38226" lon="-1.58998">
        <ele>55.8</ele>
        <time>2021-12-27T14:10:32Z</time>
      </trkpt>
      <trkpt lat="49.38229" lon="-1.59002">
        <ele>55.5</ele>
        <time>2021-12-27T14:10:38Z</time>
      </trkpt>
      <trkpt lat="49.38233" lon="-1.59006">
        <ele>55.2</ele>
        <time>2021-12-27T14:10:45Z</time>
      </trkpt>
      <trkpt lat="49.38238" lon="-1.5901">
        <ele>54.3</ele>
        <time>2021-12-27T14:10:52Z</time>
      </trkpt>
      <trkpt lat="49.38244" lon="-1.59015">
        <ele>52.8</ele>
        <time>2021-12-27T14:11:03Z</time>
      </trkpt>
      <trkpt lat="49.38249" lon="-1.59017">
        <ele>52.5</ele>
        <time>2021-12-27T14:11:07Z</time>
      </trkpt>
      <trkpt lat="49.38254" lon="-1.5902">
        <ele>52.3</ele>
        <time>2021-12-27T14:11:11Z</time>
      </trkpt>
      <trkpt lat="49.38258" lon="-1.59021">
        <ele>52.1</ele>
        <time>2021-12-27T14:11:14Z</time>
      </trkpt>
      <trkpt lat="49.38264" lon="-1.59024">
        <ele>52</ele>
        <time>2021-12-27T14:11:17Z</time>
      </trkpt>
      <trkpt lat="49.38269" lon="-1.59027">
        <ele>51.8</ele>
        <time>2021-12-27T14:11:20Z</time>
      </trkpt>
      <trkpt lat="49.38273" lon="-1.59031">
        <ele>51.7</ele>
        <time>2021-12-27T14:11:23Z</time>
      </trkpt>
      <trkpt lat="49.38278" lon="-1.59033">
        <ele>51.8</ele>
        <time>2021-12-27T14:11:27Z</time>
      </trkpt>
      <trkpt lat="49.38284" lon="-1.59034">
        <ele>52.4</ele>
        <time>2021-12-27T14:11:33Z</time>
      </trkpt>
      <trkpt lat="49.3829" lon="-1.59039">
        <ele>52.9</ele>
        <time>2021-12-27T14:11:36Z</time>
      </trkpt>
      <trkpt lat="49.38296" lon="-1.59042">
        <ele>53.5</ele>
        <time>2021-12-27T14:11:40Z</time>
      </trkpt>
      <trkpt lat="49.38302" lon="-1.59044">
        <ele>54</ele>
        <time>2021-12-27T14:11:43Z</time>
      </trkpt>
      <trkpt lat="49.38308" lon="-1.59048">
        <ele>54.8</ele>
        <time>2021-12-27T14:11:56Z</time>
      </trkpt>
      <trkpt lat="49.38313" lon="-1.59056">
        <ele>54.8</ele>
        <time>2021-12-27T14:11:58Z</time>
      </trkpt>
      <trkpt lat="49.38317" lon="-1.5906">
        <ele>54.8</ele>
        <time>2021-12-27T14:12:02Z</time>
      </trkpt>
      <trkpt lat="49.38321" lon="-1.59064">
        <ele>54.9</ele>
        <time>2021-12-27T14:12:08Z</time>
      </trkpt>
      <trkpt lat="49.38325" lon="-1.59067">
        <ele>54.5</ele>
        <time>2021-12-27T14:12:17Z</time>
      </trkpt>
      <trkpt lat="49.3833" lon="-1.59068">
        <ele>53.5</ele>
        <time>2021-12-27T14:12:25Z</time>
      </trkpt>
      <trkpt lat="49.38335" lon="-1.5907">
        <ele>52.9</ele>
        <time>2021-12-27T14:12:33Z</time>
      </trkpt>
      <trkpt lat="49.38339" lon="-1.59073">
        <ele>52.9</ele>
        <time>2021-12-27T14:12:36Z</time>
      </trkpt>
      <trkpt lat="49.38343" lon="-1.59078">
        <ele>52.8</ele>
        <time>2021-12-27T14:12:39Z</time>
      </trkpt>
      <trkpt lat="49.38347" lon="-1.59082">
        <ele>52.3</ele>
        <time>2021-12-27T14:12:43Z</time>
      </trkpt>
      <trkpt lat="49.38349" lon="-1.59089">
        <ele>51</ele>
        <time>2021-12-27T14:12:49Z</time>
      </trkpt>
      <trkpt lat="49.38352" lon="-1.59096">
        <ele>50.8</ele>
        <time>2021-12-27T14:12:52Z</time>
      </trkpt>
      <trkpt lat="49.38353" lon="-1.59102">
        <ele>50.7</ele>
        <time>2021-12-27T14:12:55Z</time>
      </trkpt>
      <trkpt lat="49.38354" lon="-1.5911">
        <ele>50.8</ele>
        <time>2021-12-27T14:13:01Z</time>
      </trkpt>
      <trkpt lat="49.38354" lon="-1.5912">
        <ele>50.7</ele>
        <time>2021-12-27T14:13:05Z</time>
      </trkpt>
      <trkpt lat="49.38354" lon="-1.59128">
        <ele>50.6</ele>
        <time>2021-12-27T14:13:11Z</time>
      </trkpt>
      <trkpt lat="49.38353" lon="-1.59136">
        <ele>50.6</ele>
        <time>2021-12-27T14:13:15Z</time>
      </trkpt>
      <trkpt lat="49.38353" lon="-1.59144">
        <ele>51.1</ele>
        <time>2021-12-27T14:13:23Z</time>
      </trkpt>
      <trkpt lat="49.38351" lon="-1.59152">
        <ele>51.2</ele>
        <time>2021-12-27T14:13:32Z</time>
      </trkpt>
      <trkpt lat="49.38352" lon="-1.59159">
        <ele>51.8</ele>
        <time>2021-12-27T14:13:40Z</time>
      </trkpt>
      <trkpt lat="49.38353" lon="-1.59167">
        <ele>52.1</ele>
        <time>2021-12-27T14:13:46Z</time>
      </trkpt>
      <trkpt lat="49.38355" lon="-1.59174">
        <ele>52.2</ele>
        <time>2021-12-27T14:13:50Z</time>
      </trkpt>
      <trkpt lat="49.38355" lon="-1.59183">
        <ele>51.3</ele>
        <time>2021-12-27T14:13:57Z</time>
      </trkpt>
      <trkpt lat="49.38354" lon="-1.5919">
        <ele>49.7</ele>
        <time>2021-12-27T14:14:12Z</time>
      </trkpt>
      <trkpt lat="49.38354" lon="-1.59197">
        <ele>49.8</ele>
        <time>2021-12-27T14:14:20Z</time>
      </trkpt>
      <trkpt lat="49.38353" lon="-1.59209">
        <ele>49.8</ele>
        <time>2021-12-27T14:14:24Z</time>
      </trkpt>
      <trkpt lat="49.38352" lon="-1.59216">
        <ele>49.8</ele>
        <time>2021-12-27T14:14:31Z</time>
      </trkpt>
      <trkpt lat="49.38352" lon="-1.59224">
        <ele>50.2</ele>
        <time>2021-12-27T14:14:37Z</time>
      </trkpt>
      <trkpt lat="49.38355" lon="-1.59231">
        <ele>50.4</ele>
        <time>2021-12-27T14:14:40Z</time>
      </trkpt>
      <trkpt lat="49.38358" lon="-1.59238">
        <ele>50.7</ele>
        <time>2021-12-27T14:14:48Z</time>
      </trkpt>
      <trkpt lat="49.38356" lon="-1.59247">
        <ele>50.6</ele>
        <time>2021-12-27T14:14:58Z</time>
      </trkpt>
      <trkpt lat="49.38354" lon="-1.59253">
        <ele>50.7</ele>
        <time>2021-12-27T14:15:04Z</time>
      </trkpt>
      <trkpt lat="49.38353" lon="-1.5926">
        <ele>50.8</ele>
        <time>2021-12-27T14:15:07Z</time>
      </trkpt>
      <trkpt lat="49.38352" lon="-1.59268">
        <ele>50.9</ele>
        <time>2021-12-27T14:15:11Z</time>
      </trkpt>
      <trkpt lat="49.38353" lon="-1.59275">
        <ele>51.1</ele>
        <time>2021-12-27T14:15:21Z</time>
      </trkpt>
      <trkpt lat="49.38351" lon="-1.59282">
        <ele>51.9</ele>
        <time>2021-12-27T14:15:33Z</time>
      </trkpt>
      <trkpt lat="49.38351" lon="-1.5929">
        <ele>52.1</ele>
        <time>2021-12-27T14:15:40Z</time>
      </trkpt>
      <trkpt lat="49.38352" lon="-1.59299">
        <ele>51.7</ele>
        <time>2021-12-27T14:15:47Z</time>
      </trkpt>
      <trkpt lat="49.38351" lon="-1.59306">
        <ele>51.5</ele>
        <time>2021-12-27T14:15:51Z</time>
      </trkpt>
      <trkpt lat="49.38352" lon="-1.59313">
        <ele>51.2</ele>
        <time>2021-12-27T14:15:59Z</time>
      </trkpt>
      <trkpt lat="49.38353" lon="-1.59321">
        <ele>50.6</ele>
        <time>2021-12-27T14:16:10Z</time>
      </trkpt>
      <trkpt lat="49.38354" lon="-1.59328">
        <ele>50.3</ele>
        <time>2021-12-27T14:16:14Z</time>
      </trkpt>
      <trkpt lat="49.38353" lon="-1.59336">
        <ele>50.3</ele>
        <time>2021-12-27T14:16:17Z</time>
      </trkpt>
      <trkpt lat="49.38353" lon="-1.59346">
        <ele>50.3</ele>
        <time>2021-12-27T14:16:20Z</time>
      </trkpt>
      <trkpt lat="49.38352" lon="-1.59357">
        <ele>50.5</ele>
        <time>2021-12-27T14:16:22Z</time>
      </trkpt>
      <trkpt lat="49.38356" lon="-1.59354">
        <ele>50.3</ele>
        <time>2021-12-27T14:16:43Z</time>
      </trkpt>
      <trkpt lat="49.38362" lon="-1.59351">
        <ele>48.4</ele>
        <time>2021-12-27T14:16:58Z</time>
      </trkpt>
      <trkpt lat="49.38366" lon="-1.59352">
        <ele>47.7</ele>
        <time>2021-12-27T14:17:03Z</time>
      </trkpt>
      <trkpt lat="49.38372" lon="-1.59353">
        <ele>46.5</ele>
        <time>2021-12-27T14:17:10Z</time>
      </trkpt>
      <trkpt lat="49.38377" lon="-1.59353">
        <ele>45.7</ele>
        <time>2021-12-27T14:17:16Z</time>
      </trkpt>
      <trkpt lat="49.38382" lon="-1.59352">
        <ele>45.9</ele>
        <time>2021-12-27T14:17:24Z</time>
      </trkpt>
      <trkpt lat="49.38389" lon="-1.59351">
        <ele>45.9</ele>
        <time>2021-12-27T14:17:28Z</time>
      </trkpt>
      <trkpt lat="49.38394" lon="-1.59351">
        <ele>45.1</ele>
        <time>2021-12-27T14:17:32Z</time>
      </trkpt>
      <trkpt lat="49.384" lon="-1.59351">
        <ele>44.7</ele>
        <time>2021-12-27T14:17:37Z</time>
      </trkpt>
      <trkpt lat="49.38405" lon="-1.5935">
        <ele>44.9</ele>
        <time>2021-12-27T14:17:41Z</time>
      </trkpt>
      <trkpt lat="49.3841" lon="-1.59348">
        <ele>45.4</ele>
        <time>2021-12-27T14:17:48Z</time>
      </trkpt>
      <trkpt lat="49.38415" lon="-1.59349">
        <ele>44.9</ele>
        <time>2021-12-27T14:17:56Z</time>
      </trkpt>
      <trkpt lat="49.38421" lon="-1.59352">
        <ele>44.6</ele>
        <time>2021-12-27T14:18:00Z</time>
      </trkpt>
      <trkpt lat="49.38426" lon="-1.59352">
        <ele>44.2</ele>
        <time>2021-12-27T14:18:04Z</time>
      </trkpt>
      <trkpt lat="49.38431" lon="-1.59351">
        <ele>44.1</ele>
        <time>2021-12-27T14:18:08Z</time>
      </trkpt>
      <trkpt lat="49.38436" lon="-1.59349">
        <ele>44.3</ele>
        <time>2021-12-27T14:18:13Z</time>
      </trkpt>
      <trkpt lat="49.38442" lon="-1.59348">
        <ele>44.9</ele>
        <time>2021-12-27T14:18:18Z</time>
      </trkpt>
      <trkpt lat="49.38447" lon="-1.59348">
        <ele>45.2</ele>
        <time>2021-12-27T14:18:23Z</time>
      </trkpt>
      <trkpt lat="49.38452" lon="-1.59347">
        <ele>45.3</ele>
        <time>2021-12-27T14:18:27Z</time>
      </trkpt>
      <trkpt lat="49.38457" lon="-1.59348">
        <ele>45.6</ele>
        <time>2021-12-27T14:18:34Z</time>
      </trkpt>
      <trkpt lat="49.38462" lon="-1.5935">
        <ele>45.8</ele>
        <time>2021-12-27T14:18:38Z</time>
      </trkpt>
      <trkpt lat="49.3847" lon="-1.5935">
        <ele>46</ele>
        <time>2021-12-27T14:18:44Z</time>
      </trkpt>
      <trkpt lat="49.38475" lon="-1.59351">
        <ele>46.2</ele>
        <time>2021-12-27T14:18:47Z</time>
      </trkpt>
      <trkpt lat="49.38481" lon="-1.59351">
        <ele>46.5</ele>
        <time>2021-12-27T14:18:52Z</time>
      </trkpt>
      <trkpt lat="49.38486" lon="-1.5935">
        <ele>46.7</ele>
        <time>2021-12-27T14:18:56Z</time>
      </trkpt>
      <trkpt lat="49.38491" lon="-1.59349">
        <ele>46.9</ele>
        <time>2021-12-27T14:19:00Z</time>
      </trkpt>
      <trkpt lat="49.38496" lon="-1.5935">
        <ele>46.8</ele>
        <time>2021-12-27T14:19:05Z</time>
      </trkpt>
      <trkpt lat="49.38501" lon="-1.59352">
        <ele>46.4</ele>
        <time>2021-12-27T14:19:10Z</time>
      </trkpt>
      <trkpt lat="49.38506" lon="-1.59351">
        <ele>46</ele>
        <time>2021-12-27T14:19:14Z</time>
      </trkpt>
      <trkpt lat="49.38511" lon="-1.59352">
        <ele>45.7</ele>
        <time>2021-12-27T14:19:17Z</time>
      </trkpt>
      <trkpt lat="49.38515" lon="-1.59351">
        <ele>45.5</ele>
        <time>2021-12-27T14:19:20Z</time>
      </trkpt>
      <trkpt lat="49.3852" lon="-1.5935">
        <ele>45.5</ele>
        <time>2021-12-27T14:19:27Z</time>
      </trkpt>
      <trkpt lat="49.38526" lon="-1.59348">
        <ele>45.4</ele>
        <time>2021-12-27T14:19:32Z</time>
      </trkpt>
      <trkpt lat="49.38531" lon="-1.59346">
        <ele>44.7</ele>
        <time>2021-12-27T14:19:36Z</time>
      </trkpt>
      <trkpt lat="49.38538" lon="-1.59345">
        <ele>44.4</ele>
        <time>2021-12-27T14:19:40Z</time>
      </trkpt>
      <trkpt lat="49.38543" lon="-1.59345">
        <ele>44.2</ele>
        <time>2021-12-27T14:19:43Z</time>
      </trkpt>
      <trkpt lat="49.38548" lon="-1.59347">
        <ele>44.3</ele>
        <time>2021-12-27T14:19:46Z</time>
      </trkpt>
      <trkpt lat="49.38553" lon="-1.59349">
        <ele>44.5</ele>
        <time>2021-12-27T14:19:50Z</time>
      </trkpt>
      <trkpt lat="49.38557" lon="-1.5935">
        <ele>44.4</ele>
        <time>2021-12-27T14:19:55Z</time>
      </trkpt>
      <trkpt lat="49.38563" lon="-1.5935">
        <ele>44.1</ele>
        <time>2021-12-27T14:20:00Z</time>
      </trkpt>
      <trkpt lat="49.38568" lon="-1.5935">
        <ele>43.4</ele>
        <time>2021-12-27T14:20:06Z</time>
      </trkpt>
      <trkpt lat="49.38574" lon="-1.5935">
        <ele>43.1</ele>
        <time>2021-12-27T14:20:14Z</time>
      </trkpt>
      <trkpt lat="49.38579" lon="-1.5935">
        <ele>43.1</ele>
        <time>2021-12-27T14:20:17Z</time>
      </trkpt>
      <trkpt lat="49.38584" lon="-1.59349">
        <ele>43.5</ele>
        <time>2021-12-27T14:20:27Z</time>
      </trkpt>
      <trkpt lat="49.38589" lon="-1.59348">
        <ele>43</ele>
        <time>2021-12-27T14:20:37Z</time>
      </trkpt>
      <trkpt lat="49.38595" lon="-1.59347">
        <ele>42.5</ele>
        <time>2021-12-27T14:20:44Z</time>
      </trkpt>
      <trkpt lat="49.386" lon="-1.59346">
        <ele>42.7</ele>
        <time>2021-12-27T14:20:47Z</time>
      </trkpt>
      <trkpt lat="49.38605" lon="-1.59346">
        <ele>42.9</ele>
        <time>2021-12-27T14:20:51Z</time>
      </trkpt>
      <trkpt lat="49.3861" lon="-1.59344">
        <ele>43.1</ele>
        <time>2021-12-27T14:20:55Z</time>
      </trkpt>
      <trkpt lat="49.38617" lon="-1.59345">
        <ele>42.4</ele>
        <time>2021-12-27T14:20:59Z</time>
      </trkpt>
      <trkpt lat="49.38621" lon="-1.59347">
        <ele>42.2</ele>
        <time>2021-12-27T14:21:01Z</time>
      </trkpt>
      <trkpt lat="49.38626" lon="-1.59349">
        <ele>42.1</ele>
        <time>2021-12-27T14:21:05Z</time>
      </trkpt>
      <trkpt lat="49.3863" lon="-1.59348">
        <ele>41.1</ele>
        <time>2021-12-27T14:22:09Z</time>
      </trkpt>
      <trkpt lat="49.38637" lon="-1.59349">
        <ele>41</ele>
        <time>2021-12-27T14:22:13Z</time>
      </trkpt>
      <trkpt lat="49.38643" lon="-1.5935">
        <ele>40.7</ele>
        <time>2021-12-27T14:22:18Z</time>
      </trkpt>
      <trkpt lat="49.38648" lon="-1.5935">
        <ele>40.6</ele>
        <time>2021-12-27T14:22:22Z</time>
      </trkpt>
      <trkpt lat="49.38654" lon="-1.59351">
        <ele>40.6</ele>
        <time>2021-12-27T14:22:26Z</time>
      </trkpt>
      <trkpt lat="49.38659" lon="-1.59349">
        <ele>40.4</ele>
        <time>2021-12-27T14:22:32Z</time>
      </trkpt>
      <trkpt lat="49.38665" lon="-1.59349">
        <ele>39.8</ele>
        <time>2021-12-27T14:22:36Z</time>
      </trkpt>
      <trkpt lat="49.38671" lon="-1.59348">
        <ele>39.3</ele>
        <time>2021-12-27T14:22:41Z</time>
      </trkpt>
      <trkpt lat="49.38676" lon="-1.59352">
        <ele>39.1</ele>
        <time>2021-12-27T14:22:46Z</time>
      </trkpt>
      <trkpt lat="49.3868" lon="-1.59356">
        <ele>39.1</ele>
        <time>2021-12-27T14:22:52Z</time>
      </trkpt>
      <trkpt lat="49.38684" lon="-1.59359">
        <ele>39.2</ele>
        <time>2021-12-27T14:23:06Z</time>
      </trkpt>
      <trkpt lat="49.38685" lon="-1.59367">
        <ele>37.1</ele>
        <time>2021-12-27T14:23:16Z</time>
      </trkpt>
      <trkpt lat="49.38685" lon="-1.59374">
        <ele>36.4</ele>
        <time>2021-12-27T14:23:21Z</time>
      </trkpt>
      <trkpt lat="49.38683" lon="-1.59383">
        <ele>36.1</ele>
        <time>2021-12-27T14:23:25Z</time>
      </trkpt>
      <trkpt lat="49.38682" lon="-1.59391">
        <ele>36.1</ele>
        <time>2021-12-27T14:23:29Z</time>
      </trkpt>
      <trkpt lat="49.3868" lon="-1.59398">
        <ele>36</ele>
        <time>2021-12-27T14:23:35Z</time>
      </trkpt>
      <trkpt lat="49.38678" lon="-1.59404">
        <ele>34.3</ele>
        <time>2021-12-27T14:23:51Z</time>
      </trkpt>
      <trkpt lat="49.38677" lon="-1.59411">
        <ele>34.1</ele>
        <time>2021-12-27T14:23:56Z</time>
      </trkpt>
      <trkpt lat="49.38675" lon="-1.59418">
        <ele>34.2</ele>
        <time>2021-12-27T14:24:01Z</time>
      </trkpt>
      <trkpt lat="49.38674" lon="-1.59426">
        <ele>33.9</ele>
        <time>2021-12-27T14:24:08Z</time>
      </trkpt>
      <trkpt lat="49.38676" lon="-1.59432">
        <ele>32.9</ele>
        <time>2021-12-27T14:24:20Z</time>
      </trkpt>
      <trkpt lat="49.3868" lon="-1.59442">
        <ele>32.6</ele>
        <time>2021-12-27T14:24:24Z</time>
      </trkpt>
      <trkpt lat="49.38682" lon="-1.59451">
        <ele>32.3</ele>
        <time>2021-12-27T14:24:26Z</time>
      </trkpt>
      <trkpt lat="49.3869" lon="-1.59453">
        <ele>36.8</ele>
        <time>2021-12-27T14:24:38Z</time>
      </trkpt>
      <trkpt lat="49.38685" lon="-1.59453">
        <ele>42.1</ele>
        <time>2021-12-27T14:25:14Z</time>
      </trkpt>
      <trkpt lat="49.3868" lon="-1.59457">
        <ele>42</ele>
        <time>2021-12-27T14:25:18Z</time>
      </trkpt>
      <trkpt lat="49.38676" lon="-1.59463">
        <ele>42.2</ele>
        <time>2021-12-27T14:25:26Z</time>
      </trkpt>
      <trkpt lat="49.38676" lon="-1.59473">
        <ele>42.2</ele>
        <time>2021-12-27T14:25:30Z</time>
      </trkpt>
      <trkpt lat="49.38674" lon="-1.5948">
        <ele>42.4</ele>
        <time>2021-12-27T14:25:33Z</time>
      </trkpt>
      <trkpt lat="49.38671" lon="-1.59486">
        <ele>43.2</ele>
        <time>2021-12-27T14:25:42Z</time>
      </trkpt>
      <trkpt lat="49.38672" lon="-1.59493">
        <ele>43.4</ele>
        <time>2021-12-27T14:25:45Z</time>
      </trkpt>
      <trkpt lat="49.38672" lon="-1.59501">
        <ele>43.5</ele>
        <time>2021-12-27T14:25:51Z</time>
      </trkpt>
      <trkpt lat="49.38671" lon="-1.59508">
        <ele>43.9</ele>
        <time>2021-12-27T14:25:57Z</time>
      </trkpt>
      <trkpt lat="49.38669" lon="-1.59514">
        <ele>43.9</ele>
        <time>2021-12-27T14:26:06Z</time>
      </trkpt>
      <trkpt lat="49.38667" lon="-1.59521">
        <ele>43.6</ele>
        <time>2021-12-27T14:26:10Z</time>
      </trkpt>
      <trkpt lat="49.38665" lon="-1.5953">
        <ele>43.3</ele>
        <time>2021-12-27T14:26:15Z</time>
      </trkpt>
      <trkpt lat="49.38665" lon="-1.59537">
        <ele>43.2</ele>
        <time>2021-12-27T14:26:19Z</time>
      </trkpt>
      <trkpt lat="49.38665" lon="-1.59544">
        <ele>43.1</ele>
        <time>2021-12-27T14:26:24Z</time>
      </trkpt>
      <trkpt lat="49.38666" lon="-1.59552">
        <ele>43.1</ele>
        <time>2021-12-27T14:26:30Z</time>
      </trkpt>
      <trkpt lat="49.38665" lon="-1.5956">
        <ele>43.3</ele>
        <time>2021-12-27T14:26:36Z</time>
      </trkpt>
      <trkpt lat="49.38665" lon="-1.59568">
        <ele>44</ele>
        <time>2021-12-27T14:26:43Z</time>
      </trkpt>
      <trkpt lat="49.38661" lon="-1.59575">
        <ele>44.2</ele>
        <time>2021-12-27T14:26:48Z</time>
      </trkpt>
      <trkpt lat="49.38661" lon="-1.59582">
        <ele>45</ele>
        <time>2021-12-27T14:26:53Z</time>
      </trkpt>
      <trkpt lat="49.3866" lon="-1.5959">
        <ele>46.1</ele>
        <time>2021-12-27T14:27:02Z</time>
      </trkpt>
      <trkpt lat="49.38659" lon="-1.59597">
        <ele>46.1</ele>
        <time>2021-12-27T14:27:08Z</time>
      </trkpt>
      <trkpt lat="49.38658" lon="-1.59605">
        <ele>46</ele>
        <time>2021-12-27T14:27:18Z</time>
      </trkpt>
      <trkpt lat="49.38656" lon="-1.59613">
        <ele>46</ele>
        <time>2021-12-27T14:27:22Z</time>
      </trkpt>
      <trkpt lat="49.38654" lon="-1.5962">
        <ele>45.7</ele>
        <time>2021-12-27T14:27:28Z</time>
      </trkpt>
      <trkpt lat="49.38655" lon="-1.59629">
        <ele>45.7</ele>
        <time>2021-12-27T14:27:33Z</time>
      </trkpt>
      <trkpt lat="49.38657" lon="-1.59636">
        <ele>46.1</ele>
        <time>2021-12-27T14:27:38Z</time>
      </trkpt>
      <trkpt lat="49.38657" lon="-1.59645">
        <ele>46.2</ele>
        <time>2021-12-27T14:27:43Z</time>
      </trkpt>
      <trkpt lat="49.38655" lon="-1.59651">
        <ele>45.3</ele>
        <time>2021-12-27T14:27:52Z</time>
      </trkpt>
      <trkpt lat="49.38654" lon="-1.59658">
        <ele>43.7</ele>
        <time>2021-12-27T14:28:04Z</time>
      </trkpt>
      <trkpt lat="49.38653" lon="-1.59667">
        <ele>43.2</ele>
        <time>2021-12-27T14:28:08Z</time>
      </trkpt>
      <trkpt lat="49.38651" lon="-1.59687">
        <ele>42.8</ele>
        <time>2021-12-27T14:28:17Z</time>
      </trkpt>
      <trkpt lat="49.3865" lon="-1.59694">
        <ele>42.9</ele>
        <time>2021-12-27T14:28:21Z</time>
      </trkpt>
      <trkpt lat="49.38649" lon="-1.59701">
        <ele>43.1</ele>
        <time>2021-12-27T14:28:26Z</time>
      </trkpt>
      <trkpt lat="49.38648" lon="-1.5971">
        <ele>43</ele>
        <time>2021-12-27T14:28:31Z</time>
      </trkpt>
      <trkpt lat="49.38647" lon="-1.59718">
        <ele>42.6</ele>
        <time>2021-12-27T14:28:36Z</time>
      </trkpt>
      <trkpt lat="49.38647" lon="-1.59727">
        <ele>41.5</ele>
        <time>2021-12-27T14:28:44Z</time>
      </trkpt>
      <trkpt lat="49.38647" lon="-1.59734">
        <ele>41</ele>
        <time>2021-12-27T14:28:49Z</time>
      </trkpt>
      <trkpt lat="49.38647" lon="-1.59742">
        <ele>41.3</ele>
        <time>2021-12-27T14:28:53Z</time>
      </trkpt>
      <trkpt lat="49.38646" lon="-1.59749">
        <ele>41.6</ele>
        <time>2021-12-27T14:28:59Z</time>
      </trkpt>
      <trkpt lat="49.38644" lon="-1.59756">
        <ele>41.9</ele>
        <time>2021-12-27T14:29:04Z</time>
      </trkpt>
      <trkpt lat="49.38643" lon="-1.59763">
        <ele>42.3</ele>
        <time>2021-12-27T14:29:07Z</time>
      </trkpt>
      <trkpt lat="49.38641" lon="-1.59769">
        <ele>43</ele>
        <time>2021-12-27T14:29:10Z</time>
      </trkpt>
      <trkpt lat="49.3864" lon="-1.59776">
        <ele>44</ele>
        <time>2021-12-27T14:29:12Z</time>
      </trkpt>
      <trkpt lat="49.38638" lon="-1.59785">
        <ele>45.2</ele>
        <time>2021-12-27T14:29:16Z</time>
      </trkpt>
      <trkpt lat="49.38637" lon="-1.59792">
        <ele>45.7</ele>
        <time>2021-12-27T14:29:20Z</time>
      </trkpt>
      <trkpt lat="49.38636" lon="-1.598">
        <ele>46.2</ele>
        <time>2021-12-27T14:29:23Z</time>
      </trkpt>
      <trkpt lat="49.38637" lon="-1.59808">
        <ele>46.9</ele>
        <time>2021-12-27T14:29:28Z</time>
      </trkpt>
      <trkpt lat="49.38636" lon="-1.59816">
        <ele>47.5</ele>
        <time>2021-12-27T14:29:51Z</time>
      </trkpt>
      <trkpt lat="49.38635" lon="-1.59822">
        <ele>47.4</ele>
        <time>2021-12-27T14:29:56Z</time>
      </trkpt>
      <trkpt lat="49.38635" lon="-1.59831">
        <ele>46.6</ele>
        <time>2021-12-27T14:30:02Z</time>
      </trkpt>
      <trkpt lat="49.38634" lon="-1.59841">
        <ele>46</ele>
        <time>2021-12-27T14:30:09Z</time>
      </trkpt>
      <trkpt lat="49.38633" lon="-1.59849">
        <ele>46</ele>
        <time>2021-12-27T14:30:13Z</time>
      </trkpt>
      <trkpt lat="49.38633" lon="-1.59857">
        <ele>46</ele>
        <time>2021-12-27T14:30:22Z</time>
      </trkpt>
      <trkpt lat="49.38631" lon="-1.59867">
        <ele>45.7</ele>
        <time>2021-12-27T14:30:27Z</time>
      </trkpt>
      <trkpt lat="49.3863" lon="-1.59876">
        <ele>44.9</ele>
        <time>2021-12-27T14:30:33Z</time>
      </trkpt>
      <trkpt lat="49.38628" lon="-1.59884">
        <ele>44.3</ele>
        <time>2021-12-27T14:30:37Z</time>
      </trkpt>
      <trkpt lat="49.38626" lon="-1.59891">
        <ele>44.3</ele>
        <time>2021-12-27T14:30:45Z</time>
      </trkpt>
      <trkpt lat="49.38624" lon="-1.59898">
        <ele>44.1</ele>
        <time>2021-12-27T14:30:51Z</time>
      </trkpt>
      <trkpt lat="49.38623" lon="-1.59905">
        <ele>43.6</ele>
        <time>2021-12-27T14:30:56Z</time>
      </trkpt>
      <trkpt lat="49.38622" lon="-1.59913">
        <ele>43.8</ele>
        <time>2021-12-27T14:31:00Z</time>
      </trkpt>
      <trkpt lat="49.38621" lon="-1.59922">
        <ele>44</ele>
        <time>2021-12-27T14:31:03Z</time>
      </trkpt>
      <trkpt lat="49.38621" lon="-1.5993">
        <ele>44.3</ele>
        <time>2021-12-27T14:31:06Z</time>
      </trkpt>
      <trkpt lat="49.38621" lon="-1.59938">
        <ele>44.6</ele>
        <time>2021-12-27T14:31:11Z</time>
      </trkpt>
      <trkpt lat="49.38621" lon="-1.59945">
        <ele>44.9</ele>
        <time>2021-12-27T14:31:15Z</time>
      </trkpt>
      <trkpt lat="49.3862" lon="-1.59952">
        <ele>46</ele>
        <time>2021-12-27T14:31:20Z</time>
      </trkpt>
      <trkpt lat="49.38619" lon="-1.5996">
        <ele>47.5</ele>
        <time>2021-12-27T14:31:24Z</time>
      </trkpt>
      <trkpt lat="49.38618" lon="-1.59968">
        <ele>48.7</ele>
        <time>2021-12-27T14:31:29Z</time>
      </trkpt>
      <trkpt lat="49.38616" lon="-1.59976">
        <ele>49.3</ele>
        <time>2021-12-27T14:31:33Z</time>
      </trkpt>
      <trkpt lat="49.38614" lon="-1.59983">
        <ele>49.8</ele>
        <time>2021-12-27T14:31:39Z</time>
      </trkpt>
      <trkpt lat="49.38612" lon="-1.5999">
        <ele>50.2</ele>
        <time>2021-12-27T14:31:47Z</time>
      </trkpt>
      <trkpt lat="49.3861" lon="-1.59997">
        <ele>50.2</ele>
        <time>2021-12-27T14:31:52Z</time>
      </trkpt>
      <trkpt lat="49.38609" lon="-1.60006">
        <ele>50</ele>
        <time>2021-12-27T14:31:57Z</time>
      </trkpt>
      <trkpt lat="49.38608" lon="-1.60014">
        <ele>49.6</ele>
        <time>2021-12-27T14:32:02Z</time>
      </trkpt>
      <trkpt lat="49.38606" lon="-1.60022">
        <ele>49</ele>
        <time>2021-12-27T14:32:06Z</time>
      </trkpt>
      <trkpt lat="49.38605" lon="-1.60029">
        <ele>48.8</ele>
        <time>2021-12-27T14:32:09Z</time>
      </trkpt>
      <trkpt lat="49.38603" lon="-1.60038">
        <ele>48.4</ele>
        <time>2021-12-27T14:32:13Z</time>
      </trkpt>
      <trkpt lat="49.38601" lon="-1.60047">
        <ele>48.7</ele>
        <time>2021-12-27T14:32:18Z</time>
      </trkpt>
      <trkpt lat="49.38599" lon="-1.60053">
        <ele>48.4</ele>
        <time>2021-12-27T14:32:24Z</time>
      </trkpt>
      <trkpt lat="49.38597" lon="-1.60062">
        <ele>48.1</ele>
        <time>2021-12-27T14:32:30Z</time>
      </trkpt>
      <trkpt lat="49.38595" lon="-1.60068">
        <ele>47.8</ele>
        <time>2021-12-27T14:32:34Z</time>
      </trkpt>
      <trkpt lat="49.38595" lon="-1.60076">
        <ele>47.4</ele>
        <time>2021-12-27T14:32:41Z</time>
      </trkpt>
      <trkpt lat="49.38595" lon="-1.60084">
        <ele>47</ele>
        <time>2021-12-27T14:32:47Z</time>
      </trkpt>
      <trkpt lat="49.38592" lon="-1.60091">
        <ele>46.3</ele>
        <time>2021-12-27T14:32:52Z</time>
      </trkpt>
      <trkpt lat="49.38588" lon="-1.60096">
        <ele>45.5</ele>
        <time>2021-12-27T14:32:56Z</time>
      </trkpt>
      <trkpt lat="49.38586" lon="-1.60104">
        <ele>45</ele>
        <time>2021-12-27T14:33:02Z</time>
      </trkpt>
      <trkpt lat="49.38584" lon="-1.60112">
        <ele>45</ele>
        <time>2021-12-27T14:33:07Z</time>
      </trkpt>
      <trkpt lat="49.38583" lon="-1.6012">
        <ele>45</ele>
        <time>2021-12-27T14:33:10Z</time>
      </trkpt>
      <trkpt lat="49.38583" lon="-1.60129">
        <ele>44.6</ele>
        <time>2021-12-27T14:33:16Z</time>
      </trkpt>
      <trkpt lat="49.38582" lon="-1.60136">
        <ele>44.5</ele>
        <time>2021-12-27T14:33:21Z</time>
      </trkpt>
      <trkpt lat="49.38577" lon="-1.60142">
        <ele>44.6</ele>
        <time>2021-12-27T14:33:27Z</time>
      </trkpt>
      <trkpt lat="49.38577" lon="-1.6015">
        <ele>45.2</ele>
        <time>2021-12-27T14:33:33Z</time>
      </trkpt>
      <trkpt lat="49.38578" lon="-1.60157">
        <ele>44.9</ele>
        <time>2021-12-27T14:34:04Z</time>
      </trkpt>
      <trkpt lat="49.38579" lon="-1.60165">
        <ele>44.6</ele>
        <time>2021-12-27T14:34:08Z</time>
      </trkpt>
      <trkpt lat="49.38578" lon="-1.60174">
        <ele>44.5</ele>
        <time>2021-12-27T14:34:13Z</time>
      </trkpt>
      <trkpt lat="49.38575" lon="-1.6018">
        <ele>44.7</ele>
        <time>2021-12-27T14:34:28Z</time>
      </trkpt>
      <trkpt lat="49.38575" lon="-1.60187">
        <ele>45.2</ele>
        <time>2021-12-27T14:34:44Z</time>
      </trkpt>
      <trkpt lat="49.38575" lon="-1.60195">
        <ele>44.9</ele>
        <time>2021-12-27T14:34:55Z</time>
      </trkpt>
      <trkpt lat="49.38574" lon="-1.60202">
        <ele>44.5</ele>
        <time>2021-12-27T14:35:04Z</time>
      </trkpt>
      <trkpt lat="49.38573" lon="-1.60211">
        <ele>44.4</ele>
        <time>2021-12-27T14:35:11Z</time>
      </trkpt>
      <trkpt lat="49.38572" lon="-1.60219">
        <ele>44.4</ele>
        <time>2021-12-27T14:35:16Z</time>
      </trkpt>
      <trkpt lat="49.38571" lon="-1.60228">
        <ele>44.5</ele>
        <time>2021-12-27T14:35:20Z</time>
      </trkpt>
      <trkpt lat="49.38568" lon="-1.60236">
        <ele>44.6</ele>
        <time>2021-12-27T14:35:26Z</time>
      </trkpt>
      <trkpt lat="49.38566" lon="-1.60243">
        <ele>44.6</ele>
        <time>2021-12-27T14:35:28Z</time>
      </trkpt>
      <trkpt lat="49.38565" lon="-1.60253">
        <ele>44.5</ele>
        <time>2021-12-27T14:35:31Z</time>
      </trkpt>
      <trkpt lat="49.38564" lon="-1.60261">
        <ele>43.8</ele>
        <time>2021-12-27T14:35:36Z</time>
      </trkpt>
      <trkpt lat="49.38563" lon="-1.60268">
        <ele>42.4</ele>
        <time>2021-12-27T14:35:44Z</time>
      </trkpt>
      <trkpt lat="49.38563" lon="-1.60275">
        <ele>42.2</ele>
        <time>2021-12-27T14:35:52Z</time>
      </trkpt>
      <trkpt lat="49.38563" lon="-1.60284">
        <ele>42.3</ele>
        <time>2021-12-27T14:35:58Z</time>
      </trkpt>
      <trkpt lat="49.38562" lon="-1.60291">
        <ele>42.2</ele>
        <time>2021-12-27T14:36:02Z</time>
      </trkpt>
      <trkpt lat="49.3856" lon="-1.60298">
        <ele>42</ele>
        <time>2021-12-27T14:36:08Z</time>
      </trkpt>
      <trkpt lat="49.38559" lon="-1.60306">
        <ele>41.9</ele>
        <time>2021-12-27T14:36:13Z</time>
      </trkpt>
      <trkpt lat="49.38557" lon="-1.60315">
        <ele>41.7</ele>
        <time>2021-12-27T14:36:18Z</time>
      </trkpt>
      <trkpt lat="49.38556" lon="-1.60323">
        <ele>41.5</ele>
        <time>2021-12-27T14:36:23Z</time>
      </trkpt>
      <trkpt lat="49.38556" lon="-1.6033">
        <ele>41.4</ele>
        <time>2021-12-27T14:36:28Z</time>
      </trkpt>
      <trkpt lat="49.38556" lon="-1.60337">
        <ele>41.5</ele>
        <time>2021-12-27T14:36:32Z</time>
      </trkpt>
      <trkpt lat="49.38554" lon="-1.60344">
        <ele>41.5</ele>
        <time>2021-12-27T14:36:34Z</time>
      </trkpt>
      <trkpt lat="49.38553" lon="-1.60351">
        <ele>42</ele>
        <time>2021-12-27T14:36:39Z</time>
      </trkpt>
      <trkpt lat="49.38553" lon="-1.60359">
        <ele>42.8</ele>
        <time>2021-12-27T14:36:48Z</time>
      </trkpt>
      <trkpt lat="49.38553" lon="-1.6037">
        <ele>42.9</ele>
        <time>2021-12-27T14:36:52Z</time>
      </trkpt>
      <trkpt lat="49.38553" lon="-1.60377">
        <ele>43.2</ele>
        <time>2021-12-27T14:36:57Z</time>
      </trkpt>
      <trkpt lat="49.38551" lon="-1.60383">
        <ele>44.7</ele>
        <time>2021-12-27T14:37:08Z</time>
      </trkpt>
      <trkpt lat="49.3855" lon="-1.60391">
        <ele>45.4</ele>
        <time>2021-12-27T14:37:25Z</time>
      </trkpt>
      <trkpt lat="49.38548" lon="-1.60399">
        <ele>46.4</ele>
        <time>2021-12-27T14:38:03Z</time>
      </trkpt>
      <trkpt lat="49.38555" lon="-1.60414">
        <ele>46</ele>
        <time>2021-12-27T14:38:13Z</time>
      </trkpt>
      <trkpt lat="49.38553" lon="-1.60421">
        <ele>47.5</ele>
        <time>2021-12-27T14:38:20Z</time>
      </trkpt>
      <trkpt lat="49.38554" lon="-1.60428">
        <ele>48.2</ele>
        <time>2021-12-27T14:38:31Z</time>
      </trkpt>
      <trkpt lat="49.38551" lon="-1.60437">
        <ele>48</ele>
        <time>2021-12-27T14:38:40Z</time>
      </trkpt>
      <trkpt lat="49.38548" lon="-1.60446">
        <ele>48.2</ele>
        <time>2021-12-27T14:38:44Z</time>
      </trkpt>
      <trkpt lat="49.38545" lon="-1.60453">
        <ele>48.2</ele>
        <time>2021-12-27T14:38:45Z</time>
      </trkpt>
      <trkpt lat="49.38544" lon="-1.60462">
        <ele>48.5</ele>
        <time>2021-12-27T14:38:49Z</time>
      </trkpt>
      <trkpt lat="49.38544" lon="-1.60469">
        <ele>49.1</ele>
        <time>2021-12-27T14:39:00Z</time>
      </trkpt>
      <trkpt lat="49.38542" lon="-1.60478">
        <ele>48.6</ele>
        <time>2021-12-27T14:39:05Z</time>
      </trkpt>
      <trkpt lat="49.38538" lon="-1.60486">
        <ele>48</ele>
        <time>2021-12-27T14:39:10Z</time>
      </trkpt>
      <trkpt lat="49.38536" lon="-1.60493">
        <ele>47.7</ele>
        <time>2021-12-27T14:39:19Z</time>
      </trkpt>
      <trkpt lat="49.38536" lon="-1.60502">
        <ele>47.9</ele>
        <time>2021-12-27T14:39:25Z</time>
      </trkpt>
      <trkpt lat="49.38536" lon="-1.6051">
        <ele>47.9</ele>
        <time>2021-12-27T14:39:29Z</time>
      </trkpt>
      <trkpt lat="49.38532" lon="-1.60516">
        <ele>47.7</ele>
        <time>2021-12-27T14:39:34Z</time>
      </trkpt>
      <trkpt lat="49.38531" lon="-1.60523">
        <ele>47.5</ele>
        <time>2021-12-27T14:39:38Z</time>
      </trkpt>
      <trkpt lat="49.38531" lon="-1.60532">
        <ele>46.8</ele>
        <time>2021-12-27T14:39:44Z</time>
      </trkpt>
      <trkpt lat="49.3853" lon="-1.60539">
        <ele>46.4</ele>
        <time>2021-12-27T14:39:50Z</time>
      </trkpt>
      <trkpt lat="49.3853" lon="-1.60547">
        <ele>46.6</ele>
        <time>2021-12-27T14:39:58Z</time>
      </trkpt>
      <trkpt lat="49.38529" lon="-1.60554">
        <ele>47</ele>
        <time>2021-12-27T14:40:03Z</time>
      </trkpt>
      <trkpt lat="49.38528" lon="-1.60563">
        <ele>47.7</ele>
        <time>2021-12-27T14:40:07Z</time>
      </trkpt>
      <trkpt lat="49.38528" lon="-1.6057">
        <ele>48.9</ele>
        <time>2021-12-27T14:40:11Z</time>
      </trkpt>
      <trkpt lat="49.38526" lon="-1.60577">
        <ele>50.2</ele>
        <time>2021-12-27T14:40:16Z</time>
      </trkpt>
      <trkpt lat="49.38525" lon="-1.60585">
        <ele>50.9</ele>
        <time>2021-12-27T14:40:23Z</time>
      </trkpt>
      <trkpt lat="49.38524" lon="-1.60593">
        <ele>52.2</ele>
        <time>2021-12-27T14:40:32Z</time>
      </trkpt>
      <trkpt lat="49.38522" lon="-1.60599">
        <ele>52.8</ele>
        <time>2021-12-27T14:40:37Z</time>
      </trkpt>
      <trkpt lat="49.38522" lon="-1.60606">
        <ele>52.8</ele>
        <time>2021-12-27T14:40:42Z</time>
      </trkpt>
      <trkpt lat="49.38523" lon="-1.60614">
        <ele>52</ele>
        <time>2021-12-27T14:40:55Z</time>
      </trkpt>
      <trkpt lat="49.38522" lon="-1.60622">
        <ele>52.2</ele>
        <time>2021-12-27T14:40:59Z</time>
      </trkpt>
      <trkpt lat="49.3852" lon="-1.60629">
        <ele>52.6</ele>
        <time>2021-12-27T14:41:03Z</time>
      </trkpt>
      <trkpt lat="49.38519" lon="-1.60636">
        <ele>52.8</ele>
        <time>2021-12-27T14:41:07Z</time>
      </trkpt>
      <trkpt lat="49.3852" lon="-1.60643">
        <ele>52.8</ele>
        <time>2021-12-27T14:41:12Z</time>
      </trkpt>
      <trkpt lat="49.38524" lon="-1.60638">
        <ele>52.7</ele>
        <time>2021-12-27T14:41:22Z</time>
      </trkpt>
      <trkpt lat="49.3852" lon="-1.60644">
        <ele>52.2</ele>
        <time>2021-12-27T14:41:35Z</time>
      </trkpt>
      <trkpt lat="49.38518" lon="-1.60651">
        <ele>52.2</ele>
        <time>2021-12-27T14:41:39Z</time>
      </trkpt>
      <trkpt lat="49.38516" lon="-1.6066">
        <ele>51.8</ele>
        <time>2021-12-27T14:41:45Z</time>
      </trkpt>
      <trkpt lat="49.38515" lon="-1.60668">
        <ele>51.5</ele>
        <time>2021-12-27T14:41:50Z</time>
      </trkpt>
      <trkpt lat="49.38515" lon="-1.60677">
        <ele>51.5</ele>
        <time>2021-12-27T14:41:54Z</time>
      </trkpt>
      <trkpt lat="49.38514" lon="-1.60684">
        <ele>51.2</ele>
        <time>2021-12-27T14:41:59Z</time>
      </trkpt>
      <trkpt lat="49.38515" lon="-1.60691">
        <ele>49.9</ele>
        <time>2021-12-27T14:42:16Z</time>
      </trkpt>
      <trkpt lat="49.38514" lon="-1.60699">
        <ele>49.4</ele>
        <time>2021-12-27T14:42:25Z</time>
      </trkpt>
      <trkpt lat="49.38513" lon="-1.60709">
        <ele>48.8</ele>
        <time>2021-12-27T14:42:30Z</time>
      </trkpt>
      <trkpt lat="49.38512" lon="-1.60716">
        <ele>48.2</ele>
        <time>2021-12-27T14:42:33Z</time>
      </trkpt>
      <trkpt lat="49.38511" lon="-1.60724">
        <ele>47.9</ele>
        <time>2021-12-27T14:42:38Z</time>
      </trkpt>
      <trkpt lat="49.3851" lon="-1.60731">
        <ele>47.7</ele>
        <time>2021-12-27T14:42:43Z</time>
      </trkpt>
      <trkpt lat="49.38509" lon="-1.60739">
        <ele>47.4</ele>
        <time>2021-12-27T14:42:47Z</time>
      </trkpt>
      <trkpt lat="49.38508" lon="-1.60746">
        <ele>46.2</ele>
        <time>2021-12-27T14:42:54Z</time>
      </trkpt>
      <trkpt lat="49.38505" lon="-1.60752">
        <ele>46.9</ele>
        <time>2021-12-27T14:43:02Z</time>
      </trkpt>
      <trkpt lat="49.38504" lon="-1.60759">
        <ele>48.4</ele>
        <time>2021-12-27T14:43:11Z</time>
      </trkpt>
      <trkpt lat="49.38502" lon="-1.60765">
        <ele>48.3</ele>
        <time>2021-12-27T14:43:19Z</time>
      </trkpt>
      <trkpt lat="49.38502" lon="-1.60774">
        <ele>47.7</ele>
        <time>2021-12-27T14:43:28Z</time>
      </trkpt>
      <trkpt lat="49.38501" lon="-1.60781">
        <ele>47.6</ele>
        <time>2021-12-27T14:43:37Z</time>
      </trkpt>
      <trkpt lat="49.38499" lon="-1.60788">
        <ele>49.2</ele>
        <time>2021-12-27T14:43:56Z</time>
      </trkpt>
      <trkpt lat="49.38501" lon="-1.60794">
        <ele>49.2</ele>
        <time>2021-12-27T14:44:07Z</time>
      </trkpt>
      <trkpt lat="49.38503" lon="-1.60801">
        <ele>49</ele>
        <time>2021-12-27T14:44:23Z</time>
      </trkpt>
      <trkpt lat="49.38505" lon="-1.60809">
        <ele>49.1</ele>
        <time>2021-12-27T14:44:29Z</time>
      </trkpt>
      <trkpt lat="49.38507" lon="-1.60816">
        <ele>49.3</ele>
        <time>2021-12-27T14:44:33Z</time>
      </trkpt>
      <trkpt lat="49.3851" lon="-1.60822">
        <ele>49.5</ele>
        <time>2021-12-27T14:44:37Z</time>
      </trkpt>
      <trkpt lat="49.38514" lon="-1.60825">
        <ele>49.4</ele>
        <time>2021-12-27T14:44:50Z</time>
      </trkpt>
      <trkpt lat="49.38518" lon="-1.60831">
        <ele>49.1</ele>
        <time>2021-12-27T14:45:01Z</time>
      </trkpt>
      <trkpt lat="49.38522" lon="-1.60834">
        <ele>49</ele>
        <time>2021-12-27T14:45:06Z</time>
      </trkpt>
      <trkpt lat="49.38526" lon="-1.60839">
        <ele>49</ele>
        <time>2021-12-27T14:45:10Z</time>
      </trkpt>
      <trkpt lat="49.3853" lon="-1.60844">
        <ele>48.9</ele>
        <time>2021-12-27T14:45:16Z</time>
      </trkpt>
      <trkpt lat="49.38535" lon="-1.60846">
        <ele>48.9</ele>
        <time>2021-12-27T14:45:21Z</time>
      </trkpt>
      <trkpt lat="49.3854" lon="-1.6085">
        <ele>49</ele>
        <time>2021-12-27T14:45:25Z</time>
      </trkpt>
      <trkpt lat="49.38545" lon="-1.60853">
        <ele>49.3</ele>
        <time>2021-12-27T14:45:29Z</time>
      </trkpt>
      <trkpt lat="49.38548" lon="-1.60858">
        <ele>51.4</ele>
        <time>2021-12-27T14:46:10Z</time>
      </trkpt>
      <trkpt lat="49.38552" lon="-1.60862">
        <ele>52.7</ele>
        <time>2021-12-27T14:46:25Z</time>
      </trkpt>
      <trkpt lat="49.38557" lon="-1.60862">
        <ele>52.6</ele>
        <time>2021-12-27T14:46:38Z</time>
      </trkpt>
      <trkpt lat="49.38562" lon="-1.60863">
        <ele>52.6</ele>
        <time>2021-12-27T14:46:45Z</time>
      </trkpt>
      <trkpt lat="49.38565" lon="-1.60868">
        <ele>52.4</ele>
        <time>2021-12-27T14:46:53Z</time>
      </trkpt>
      <trkpt lat="49.3857" lon="-1.60871">
        <ele>50.4</ele>
        <time>2021-12-27T14:47:08Z</time>
      </trkpt>
      <trkpt lat="49.38575" lon="-1.60875">
        <ele>49.8</ele>
        <time>2021-12-27T14:47:12Z</time>
      </trkpt>
      <trkpt lat="49.38586" lon="-1.6088">
        <ele>48.6</ele>
        <time>2021-12-27T14:47:19Z</time>
      </trkpt>
      <trkpt lat="49.38592" lon="-1.60883">
        <ele>48.4</ele>
        <time>2021-12-27T14:47:23Z</time>
      </trkpt>
      <trkpt lat="49.38597" lon="-1.60886">
        <ele>48.8</ele>
        <time>2021-12-27T14:47:30Z</time>
      </trkpt>
      <trkpt lat="49.38601" lon="-1.60886">
        <ele>49.4</ele>
        <time>2021-12-27T14:47:40Z</time>
      </trkpt>
      <trkpt lat="49.38606" lon="-1.60887">
        <ele>49.6</ele>
        <time>2021-12-27T14:47:44Z</time>
      </trkpt>
      <trkpt lat="49.38618" lon="-1.60887">
        <ele>49.2</ele>
        <time>2021-12-27T14:47:50Z</time>
      </trkpt>
      <trkpt lat="49.38622" lon="-1.60889">
        <ele>48.6</ele>
        <time>2021-12-27T14:47:58Z</time>
      </trkpt>
      <trkpt lat="49.38627" lon="-1.60888">
        <ele>48.8</ele>
        <time>2021-12-27T14:48:03Z</time>
      </trkpt>
      <trkpt lat="49.38633" lon="-1.60888">
        <ele>49.1</ele>
        <time>2021-12-27T14:48:07Z</time>
      </trkpt>
      <trkpt lat="49.38642" lon="-1.60884">
        <ele>49</ele>
        <time>2021-12-27T14:48:14Z</time>
      </trkpt>
      <trkpt lat="49.38647" lon="-1.60881">
        <ele>48</ele>
        <time>2021-12-27T14:48:33Z</time>
      </trkpt>
      <trkpt lat="49.38652" lon="-1.60876">
        <ele>48.3</ele>
        <time>2021-12-27T14:48:36Z</time>
      </trkpt>
      <trkpt lat="49.38657" lon="-1.60874">
        <ele>49</ele>
        <time>2021-12-27T14:48:40Z</time>
      </trkpt>
      <trkpt lat="49.38668" lon="-1.60876">
        <ele>50.6</ele>
        <time>2021-12-27T14:48:45Z</time>
      </trkpt>
      <trkpt lat="49.38673" lon="-1.60879">
        <ele>51.9</ele>
        <time>2021-12-27T14:48:49Z</time>
      </trkpt>
      <trkpt lat="49.38678" lon="-1.60884">
        <ele>53.3</ele>
        <time>2021-12-27T14:48:55Z</time>
      </trkpt>
      <trkpt lat="49.38684" lon="-1.6089">
        <ele>53.8</ele>
        <time>2021-12-27T14:48:59Z</time>
      </trkpt>
      <trkpt lat="49.38689" lon="-1.60897">
        <ele>54.1</ele>
        <time>2021-12-27T14:49:02Z</time>
      </trkpt>
      <trkpt lat="49.38693" lon="-1.60901">
        <ele>54.6</ele>
        <time>2021-12-27T14:49:05Z</time>
      </trkpt>
      <trkpt lat="49.38698" lon="-1.60907">
        <ele>55</ele>
        <time>2021-12-27T14:49:13Z</time>
      </trkpt>
      <trkpt lat="49.38703" lon="-1.60908">
        <ele>54.9</ele>
        <time>2021-12-27T14:49:17Z</time>
      </trkpt>
      <trkpt lat="49.38708" lon="-1.6091">
        <ele>54.6</ele>
        <time>2021-12-27T14:49:20Z</time>
      </trkpt>
      <trkpt lat="49.38713" lon="-1.60911">
        <ele>54.1</ele>
        <time>2021-12-27T14:49:28Z</time>
      </trkpt>
      <trkpt lat="49.38718" lon="-1.60909">
        <ele>53.1</ele>
        <time>2021-12-27T14:49:44Z</time>
      </trkpt>
      <trkpt lat="49.38722" lon="-1.60905">
        <ele>52.5</ele>
        <time>2021-12-27T14:49:50Z</time>
      </trkpt>
      <trkpt lat="49.38726" lon="-1.60902">
        <ele>52.2</ele>
        <time>2021-12-27T14:49:55Z</time>
      </trkpt>
      <trkpt lat="49.38731" lon="-1.60901">
        <ele>52.1</ele>
        <time>2021-12-27T14:49:58Z</time>
      </trkpt>
      <trkpt lat="49.38737" lon="-1.60901">
        <ele>52.4</ele>
        <time>2021-12-27T14:50:02Z</time>
      </trkpt>
      <trkpt lat="49.38741" lon="-1.60902">
        <ele>52.7</ele>
        <time>2021-12-27T14:50:07Z</time>
      </trkpt>
      <trkpt lat="49.38746" lon="-1.60902">
        <ele>52.6</ele>
        <time>2021-12-27T14:50:17Z</time>
      </trkpt>
      <trkpt lat="49.38751" lon="-1.60901">
        <ele>51.3</ele>
        <time>2021-12-27T14:50:27Z</time>
      </trkpt>
      <trkpt lat="49.38756" lon="-1.60903">
        <ele>51</ele>
        <time>2021-12-27T14:50:44Z</time>
      </trkpt>
      <trkpt lat="49.38761" lon="-1.60907">
        <ele>51.3</ele>
        <time>2021-12-27T14:50:52Z</time>
      </trkpt>
      <trkpt lat="49.38766" lon="-1.60909">
        <ele>51.4</ele>
        <time>2021-12-27T14:51:01Z</time>
      </trkpt>
      <trkpt lat="49.3877" lon="-1.60912">
        <ele>51.5</ele>
        <time>2021-12-27T14:51:23Z</time>
      </trkpt>
      <trkpt lat="49.38776" lon="-1.60911">
        <ele>51.7</ele>
        <time>2021-12-27T14:51:33Z</time>
      </trkpt>
      <trkpt lat="49.3878" lon="-1.60914">
        <ele>51.6</ele>
        <time>2021-12-27T14:51:37Z</time>
      </trkpt>
      <trkpt lat="49.38786" lon="-1.60914">
        <ele>51.5</ele>
        <time>2021-12-27T14:51:42Z</time>
      </trkpt>
      <trkpt lat="49.3879" lon="-1.60913">
        <ele>51.4</ele>
        <time>2021-12-27T14:51:50Z</time>
      </trkpt>
      <trkpt lat="49.38795" lon="-1.60914">
        <ele>51.3</ele>
        <time>2021-12-27T14:51:57Z</time>
      </trkpt>
      <trkpt lat="49.38801" lon="-1.60913">
        <ele>51.3</ele>
        <time>2021-12-27T14:52:03Z</time>
      </trkpt>
      <trkpt lat="49.38806" lon="-1.60911">
        <ele>51.3</ele>
        <time>2021-12-27T14:52:09Z</time>
      </trkpt>
      <trkpt lat="49.3881" lon="-1.6091">
        <ele>51.5</ele>
        <time>2021-12-27T14:52:15Z</time>
      </trkpt>
      <trkpt lat="49.38815" lon="-1.60911">
        <ele>52</ele>
        <time>2021-12-27T14:52:35Z</time>
      </trkpt>
      <trkpt lat="49.3882" lon="-1.60912">
        <ele>52</ele>
        <time>2021-12-27T14:52:44Z</time>
      </trkpt>
      <trkpt lat="49.38825" lon="-1.60911">
        <ele>51.6</ele>
        <time>2021-12-27T14:52:54Z</time>
      </trkpt>
      <trkpt lat="49.38831" lon="-1.6091">
        <ele>51</ele>
        <time>2021-12-27T14:52:59Z</time>
      </trkpt>
      <trkpt lat="49.38836" lon="-1.60909">
        <ele>50.6</ele>
        <time>2021-12-27T14:53:02Z</time>
      </trkpt>
      <trkpt lat="49.38841" lon="-1.6091">
        <ele>50.4</ele>
        <time>2021-12-27T14:53:04Z</time>
      </trkpt>
      <trkpt lat="49.38847" lon="-1.60911">
        <ele>50.2</ele>
        <time>2021-12-27T14:53:08Z</time>
      </trkpt>
      <trkpt lat="49.38852" lon="-1.60913">
        <ele>49.8</ele>
        <time>2021-12-27T14:53:13Z</time>
      </trkpt>
      <trkpt lat="49.38857" lon="-1.60917">
        <ele>49.6</ele>
        <time>2021-12-27T14:53:17Z</time>
      </trkpt>
      <trkpt lat="49.38863" lon="-1.60919">
        <ele>49.6</ele>
        <time>2021-12-27T14:53:20Z</time>
      </trkpt>
      <trkpt lat="49.38867" lon="-1.60916">
        <ele>49.5</ele>
        <time>2021-12-27T14:53:33Z</time>
      </trkpt>
      <trkpt lat="49.38871" lon="-1.60915">
        <ele>52</ele>
        <time>2021-12-27T14:53:56Z</time>
      </trkpt>
      <trkpt lat="49.38876" lon="-1.60909">
        <ele>50.2</ele>
        <time>2021-12-27T14:54:58Z</time>
      </trkpt>
      <trkpt lat="49.38878" lon="-1.60903">
        <ele>50.1</ele>
        <time>2021-12-27T14:55:14Z</time>
      </trkpt>
      <trkpt lat="49.38879" lon="-1.60895">
        <ele>51</ele>
        <time>2021-12-27T14:55:24Z</time>
      </trkpt>
      <trkpt lat="49.38878" lon="-1.60887">
        <ele>51.7</ele>
        <time>2021-12-27T14:55:30Z</time>
      </trkpt>
      <trkpt lat="49.38876" lon="-1.60879">
        <ele>52.2</ele>
        <time>2021-12-27T14:55:33Z</time>
      </trkpt>
      <trkpt lat="49.38876" lon="-1.60869">
        <ele>52.8</ele>
        <time>2021-12-27T14:55:37Z</time>
      </trkpt>
      <trkpt lat="49.38876" lon="-1.60861">
        <ele>53.2</ele>
        <time>2021-12-27T14:55:41Z</time>
      </trkpt>
      <trkpt lat="49.38876" lon="-1.60854">
        <ele>53.4</ele>
        <time>2021-12-27T14:55:45Z</time>
      </trkpt>
      <trkpt lat="49.38877" lon="-1.60846">
        <ele>53.7</ele>
        <time>2021-12-27T14:55:50Z</time>
      </trkpt>
      <trkpt lat="49.38877" lon="-1.60839">
        <ele>53.9</ele>
        <time>2021-12-27T14:55:54Z</time>
      </trkpt>
      <trkpt lat="49.38876" lon="-1.60832">
        <ele>53.9</ele>
        <time>2021-12-27T14:55:57Z</time>
      </trkpt>
      <trkpt lat="49.38879" lon="-1.60824">
        <ele>54</ele>
        <time>2021-12-27T14:56:02Z</time>
      </trkpt>
      <trkpt lat="49.38882" lon="-1.60817">
        <ele>54.1</ele>
        <time>2021-12-27T14:56:07Z</time>
      </trkpt>
      <trkpt lat="49.38884" lon="-1.60809">
        <ele>54.5</ele>
        <time>2021-12-27T14:56:12Z</time>
      </trkpt>
      <trkpt lat="49.38887" lon="-1.60801">
        <ele>55.2</ele>
        <time>2021-12-27T14:56:18Z</time>
      </trkpt>
      <trkpt lat="49.38887" lon="-1.60794">
        <ele>55.8</ele>
        <time>2021-12-27T14:56:22Z</time>
      </trkpt>
      <trkpt lat="49.38886" lon="-1.60785">
        <ele>56</ele>
        <time>2021-12-27T14:56:28Z</time>
      </trkpt>
      <trkpt lat="49.38881" lon="-1.6078">
        <ele>56.1</ele>
        <time>2021-12-27T14:56:32Z</time>
      </trkpt>
      <trkpt lat="49.38877" lon="-1.60776">
        <ele>56</ele>
        <time>2021-12-27T14:56:37Z</time>
      </trkpt>
      <trkpt lat="49.38873" lon="-1.60771">
        <ele>55.5</ele>
        <time>2021-12-27T14:56:42Z</time>
      </trkpt>
      <trkpt lat="49.38869" lon="-1.60767">
        <ele>54.7</ele>
        <time>2021-12-27T14:56:50Z</time>
      </trkpt>
      <trkpt lat="49.38864" lon="-1.60765">
        <ele>54.2</ele>
        <time>2021-12-27T14:56:59Z</time>
      </trkpt>
      <trkpt lat="49.38859" lon="-1.60769">
        <ele>53.7</ele>
        <time>2021-12-27T14:57:04Z</time>
      </trkpt>
      <trkpt lat="49.38854" lon="-1.60769">
        <ele>53.2</ele>
        <time>2021-12-27T14:57:08Z</time>
      </trkpt>
      <trkpt lat="49.38849" lon="-1.60769">
        <ele>52.7</ele>
        <time>2021-12-27T14:57:12Z</time>
      </trkpt>
      <trkpt lat="49.38844" lon="-1.60767">
        <ele>52.1</ele>
        <time>2021-12-27T14:57:18Z</time>
      </trkpt>
      <trkpt lat="49.38839" lon="-1.60768">
        <ele>52</ele>
        <time>2021-12-27T14:57:24Z</time>
      </trkpt>
      <trkpt lat="49.38834" lon="-1.60767">
        <ele>52.1</ele>
        <time>2021-12-27T14:57:29Z</time>
      </trkpt>
      <trkpt lat="49.38829" lon="-1.60766">
        <ele>52</ele>
        <time>2021-12-27T14:57:32Z</time>
      </trkpt>
      <trkpt lat="49.38824" lon="-1.60767">
        <ele>51.8</ele>
        <time>2021-12-27T14:57:37Z</time>
      </trkpt>
      <trkpt lat="49.3882" lon="-1.60766">
        <ele>51.7</ele>
        <time>2021-12-27T14:57:42Z</time>
      </trkpt>
      <trkpt lat="49.38814" lon="-1.60767">
        <ele>51.7</ele>
        <time>2021-12-27T14:57:47Z</time>
      </trkpt>
      <trkpt lat="49.3881" lon="-1.60767">
        <ele>51.7</ele>
        <time>2021-12-27T14:57:51Z</time>
      </trkpt>
      <trkpt lat="49.38805" lon="-1.60766">
        <ele>51.7</ele>
        <time>2021-12-27T14:57:56Z</time>
      </trkpt>
      <trkpt lat="49.38802" lon="-1.6076">
        <ele>51.7</ele>
        <time>2021-12-27T14:58:00Z</time>
      </trkpt>
      <trkpt lat="49.388" lon="-1.60753">
        <ele>51.6</ele>
        <time>2021-12-27T14:58:05Z</time>
      </trkpt>
      <trkpt lat="49.38797" lon="-1.60748">
        <ele>51.5</ele>
        <time>2021-12-27T14:58:09Z</time>
      </trkpt>
      <trkpt lat="49.38793" lon="-1.60743">
        <ele>51.2</ele>
        <time>2021-12-27T14:58:14Z</time>
      </trkpt>
      <trkpt lat="49.38788" lon="-1.60739">
        <ele>51.2</ele>
        <time>2021-12-27T14:58:20Z</time>
      </trkpt>
      <trkpt lat="49.38784" lon="-1.60738">
        <ele>51.3</ele>
        <time>2021-12-27T14:58:27Z</time>
      </trkpt>
      <trkpt lat="49.38782" lon="-1.60745">
        <ele>51.4</ele>
        <time>2021-12-27T14:58:35Z</time>
      </trkpt>
      <trkpt lat="49.38782" lon="-1.60754">
        <ele>51.4</ele>
        <time>2021-12-27T14:58:42Z</time>
      </trkpt>
      <trkpt lat="49.3878" lon="-1.60762">
        <ele>51.4</ele>
        <time>2021-12-27T14:58:47Z</time>
      </trkpt>
      <trkpt lat="49.38778" lon="-1.60768">
        <ele>51.2</ele>
        <time>2021-12-27T14:58:53Z</time>
      </trkpt>
      <trkpt lat="49.38776" lon="-1.60774">
        <ele>50.9</ele>
        <time>2021-12-27T14:58:59Z</time>
      </trkpt>
      <trkpt lat="49.38773" lon="-1.60782">
        <ele>51</ele>
        <time>2021-12-27T14:59:05Z</time>
      </trkpt>
      <trkpt lat="49.38773" lon="-1.6079">
        <ele>51.3</ele>
        <time>2021-12-27T14:59:11Z</time>
      </trkpt>
      <trkpt lat="49.38775" lon="-1.60798">
        <ele>51.4</ele>
        <time>2021-12-27T14:59:16Z</time>
      </trkpt>
      <trkpt lat="49.38778" lon="-1.60803">
        <ele>51.4</ele>
        <time>2021-12-27T14:59:20Z</time>
      </trkpt>
      <trkpt lat="49.38781" lon="-1.60808">
        <ele>51.3</ele>
        <time>2021-12-27T14:59:24Z</time>
      </trkpt>
      <trkpt lat="49.38786" lon="-1.60813">
        <ele>51.5</ele>
        <time>2021-12-27T14:59:29Z</time>
      </trkpt>
      <trkpt lat="49.3879" lon="-1.60819">
        <ele>51.8</ele>
        <time>2021-12-27T14:59:34Z</time>
      </trkpt>
      <trkpt lat="49.3879" lon="-1.60827">
        <ele>52</ele>
        <time>2021-12-27T14:59:38Z</time>
      </trkpt>
      <trkpt lat="49.38788" lon="-1.60835">
        <ele>51.9</ele>
        <time>2021-12-27T14:59:44Z</time>
      </trkpt>
      <trkpt lat="49.38786" lon="-1.60841">
        <ele>52.1</ele>
        <time>2021-12-27T14:59:50Z</time>
      </trkpt>
      <trkpt lat="49.38785" lon="-1.60849">
        <ele>52.6</ele>
        <time>2021-12-27T14:59:57Z</time>
      </trkpt>
      <trkpt lat="49.38785" lon="-1.60856">
        <ele>52.8</ele>
        <time>2021-12-27T15:00:05Z</time>
      </trkpt>
      <trkpt lat="49.38784" lon="-1.60864">
        <ele>52.8</ele>
        <time>2021-12-27T15:00:10Z</time>
      </trkpt>
      <trkpt lat="49.3878" lon="-1.60868">
        <ele>53.1</ele>
        <time>2021-12-27T15:00:22Z</time>
      </trkpt>
      <trkpt lat="49.38775" lon="-1.60868">
        <ele>53.4</ele>
        <time>2021-12-27T15:00:27Z</time>
      </trkpt>
      <trkpt lat="49.38771" lon="-1.60871">
        <ele>53.5</ele>
        <time>2021-12-27T15:00:31Z</time>
      </trkpt>
      <trkpt lat="49.38767" lon="-1.60877">
        <ele>53.6</ele>
        <time>2021-12-27T15:00:39Z</time>
      </trkpt>
      <trkpt lat="49.38761" lon="-1.60882">
        <ele>53.4</ele>
        <time>2021-12-27T15:00:44Z</time>
      </trkpt>
      <trkpt lat="49.38756" lon="-1.60882">
        <ele>53.2</ele>
        <time>2021-12-27T15:00:47Z</time>
      </trkpt>
      <trkpt lat="49.38751" lon="-1.60884">
        <ele>53.4</ele>
        <time>2021-12-27T15:00:52Z</time>
      </trkpt>
      <trkpt lat="49.38746" lon="-1.60881">
        <ele>53.9</ele>
        <time>2021-12-27T15:00:57Z</time>
      </trkpt>
      <trkpt lat="49.38742" lon="-1.60878">
        <ele>54.3</ele>
        <time>2021-12-27T15:01:01Z</time>
      </trkpt>
      <trkpt lat="49.38737" lon="-1.60878">
        <ele>54.7</ele>
        <time>2021-12-27T15:01:05Z</time>
      </trkpt>
      <trkpt lat="49.38734" lon="-1.60882">
        <ele>55.5</ele>
        <time>2021-12-27T15:01:15Z</time>
      </trkpt>
      <trkpt lat="49.38728" lon="-1.60886">
        <ele>54.8</ele>
        <time>2021-12-27T15:01:25Z</time>
      </trkpt>
      <trkpt lat="49.38723" lon="-1.60888">
        <ele>55.9</ele>
        <time>2021-12-27T15:01:30Z</time>
      </trkpt>
      <trkpt lat="49.38717" lon="-1.60885">
        <ele>57.3</ele>
        <time>2021-12-27T15:01:34Z</time>
      </trkpt>
      <trkpt lat="49.38713" lon="-1.6088">
        <ele>56.9</ele>
        <time>2021-12-27T15:01:38Z</time>
      </trkpt>
      <trkpt lat="49.38708" lon="-1.60876">
        <ele>56.1</ele>
        <time>2021-12-27T15:01:43Z</time>
      </trkpt>
      <trkpt lat="49.38706" lon="-1.60868">
        <ele>55.9</ele>
        <time>2021-12-27T15:01:55Z</time>
      </trkpt>
      <trkpt lat="49.38705" lon="-1.60857">
        <ele>56.2</ele>
        <time>2021-12-27T15:01:59Z</time>
      </trkpt>
      <trkpt lat="49.38703" lon="-1.60849">
        <ele>56.4</ele>
        <time>2021-12-27T15:02:03Z</time>
      </trkpt>
      <trkpt lat="49.38704" lon="-1.60842">
        <ele>56.7</ele>
        <time>2021-12-27T15:02:08Z</time>
      </trkpt>
      <trkpt lat="49.38705" lon="-1.60835">
        <ele>56.1</ele>
        <time>2021-12-27T15:02:13Z</time>
      </trkpt>
      <trkpt lat="49.38708" lon="-1.60827">
        <ele>55.6</ele>
        <time>2021-12-27T15:02:19Z</time>
      </trkpt>
      <trkpt lat="49.38709" lon="-1.60819">
        <ele>55.8</ele>
        <time>2021-12-27T15:02:24Z</time>
      </trkpt>
      <trkpt lat="49.38711" lon="-1.60809">
        <ele>55.7</ele>
        <time>2021-12-27T15:02:30Z</time>
      </trkpt>
      <trkpt lat="49.38713" lon="-1.608">
        <ele>55.2</ele>
        <time>2021-12-27T15:02:34Z</time>
      </trkpt>
      <trkpt lat="49.38713" lon="-1.60792">
        <ele>54.5</ele>
        <time>2021-12-27T15:02:38Z</time>
      </trkpt>
      <trkpt lat="49.38714" lon="-1.60784">
        <ele>54.3</ele>
        <time>2021-12-27T15:02:43Z</time>
      </trkpt>
      <trkpt lat="49.38715" lon="-1.60777">
        <ele>54.1</ele>
        <time>2021-12-27T15:02:47Z</time>
      </trkpt>
      <trkpt lat="49.38716" lon="-1.60771">
        <ele>54</ele>
        <time>2021-12-27T15:02:51Z</time>
      </trkpt>
      <trkpt lat="49.38715" lon="-1.60762">
        <ele>53.7</ele>
        <time>2021-12-27T15:02:56Z</time>
      </trkpt>
      <trkpt lat="49.38716" lon="-1.60753">
        <ele>53.3</ele>
        <time>2021-12-27T15:03:01Z</time>
      </trkpt>
      <trkpt lat="49.38718" lon="-1.60743">
        <ele>52.8</ele>
        <time>2021-12-27T15:03:06Z</time>
      </trkpt>
      <trkpt lat="49.38718" lon="-1.60734">
        <ele>52</ele>
        <time>2021-12-27T15:03:11Z</time>
      </trkpt>
      <trkpt lat="49.38714" lon="-1.60729">
        <ele>51.4</ele>
        <time>2021-12-27T15:03:16Z</time>
      </trkpt>
      <trkpt lat="49.3871" lon="-1.60727">
        <ele>50.9</ele>
        <time>2021-12-27T15:03:23Z</time>
      </trkpt>
      <trkpt lat="49.38705" lon="-1.60723">
        <ele>50.9</ele>
        <time>2021-12-27T15:03:27Z</time>
      </trkpt>
      <trkpt lat="49.38701" lon="-1.60716">
        <ele>50.7</ele>
        <time>2021-12-27T15:03:37Z</time>
      </trkpt>
      <trkpt lat="49.38701" lon="-1.60709">
        <ele>50.4</ele>
        <time>2021-12-27T15:03:42Z</time>
      </trkpt>
      <trkpt lat="49.387" lon="-1.60701">
        <ele>49.9</ele>
        <time>2021-12-27T15:03:47Z</time>
      </trkpt>
      <trkpt lat="49.387" lon="-1.60694">
        <ele>49.3</ele>
        <time>2021-12-27T15:04:02Z</time>
      </trkpt>
      <trkpt lat="49.38701" lon="-1.60687">
        <ele>49.2</ele>
        <time>2021-12-27T15:04:19Z</time>
      </trkpt>
      <trkpt lat="49.38701" lon="-1.60679">
        <ele>49.2</ele>
        <time>2021-12-27T15:04:42Z</time>
      </trkpt>
      <trkpt lat="49.38702" lon="-1.60672">
        <ele>49.3</ele>
        <time>2021-12-27T15:04:58Z</time>
      </trkpt>
      <trkpt lat="49.38704" lon="-1.60666">
        <ele>48.7</ele>
        <time>2021-12-27T15:05:21Z</time>
      </trkpt>
      <trkpt lat="49.38706" lon="-1.60659">
        <ele>48.1</ele>
        <time>2021-12-27T15:05:29Z</time>
      </trkpt>
      <trkpt lat="49.38707" lon="-1.60651">
        <ele>47.7</ele>
        <time>2021-12-27T15:05:38Z</time>
      </trkpt>
      <trkpt lat="49.38708" lon="-1.60643">
        <ele>47.5</ele>
        <time>2021-12-27T15:05:43Z</time>
      </trkpt>
      <trkpt lat="49.38707" lon="-1.60635">
        <ele>47.4</ele>
        <time>2021-12-27T15:05:46Z</time>
      </trkpt>
      <trkpt lat="49.38705" lon="-1.60628">
        <ele>47.3</ele>
        <time>2021-12-27T15:05:50Z</time>
      </trkpt>
      <trkpt lat="49.38704" lon="-1.6062">
        <ele>47.1</ele>
        <time>2021-12-27T15:05:59Z</time>
      </trkpt>
      <trkpt lat="49.38701" lon="-1.60613">
        <ele>47.4</ele>
        <time>2021-12-27T15:06:09Z</time>
      </trkpt>
      <trkpt lat="49.387" lon="-1.60605">
        <ele>47.4</ele>
        <time>2021-12-27T15:06:16Z</time>
      </trkpt>
      <trkpt lat="49.387" lon="-1.60596">
        <ele>47.3</ele>
        <time>2021-12-27T15:06:20Z</time>
      </trkpt>
      <trkpt lat="49.387" lon="-1.60586">
        <ele>47</ele>
        <time>2021-12-27T15:06:24Z</time>
      </trkpt>
      <trkpt lat="49.38701" lon="-1.60578">
        <ele>46.1</ele>
        <time>2021-12-27T15:06:34Z</time>
      </trkpt>
      <trkpt lat="49.38702" lon="-1.6057">
        <ele>47</ele>
        <time>2021-12-27T15:06:43Z</time>
      </trkpt>
      <trkpt lat="49.38702" lon="-1.60563">
        <ele>48.7</ele>
        <time>2021-12-27T15:06:55Z</time>
      </trkpt>
      <trkpt lat="49.38704" lon="-1.60556">
        <ele>50.3</ele>
        <time>2021-12-27T15:07:11Z</time>
      </trkpt>
      <trkpt lat="49.38707" lon="-1.60551">
        <ele>50.3</ele>
        <time>2021-12-27T15:07:17Z</time>
      </trkpt>
      <trkpt lat="49.3871" lon="-1.60544">
        <ele>50.4</ele>
        <time>2021-12-27T15:07:23Z</time>
      </trkpt>
      <trkpt lat="49.38713" lon="-1.60537">
        <ele>50.5</ele>
        <time>2021-12-27T15:07:32Z</time>
      </trkpt>
      <trkpt lat="49.38718" lon="-1.60535">
        <ele>50.1</ele>
        <time>2021-12-27T15:07:40Z</time>
      </trkpt>
      <trkpt lat="49.38721" lon="-1.60528">
        <ele>50.1</ele>
        <time>2021-12-27T15:07:58Z</time>
      </trkpt>
      <trkpt lat="49.38724" lon="-1.60522">
        <ele>49.7</ele>
        <time>2021-12-27T15:08:13Z</time>
      </trkpt>
      <trkpt lat="49.38726" lon="-1.60515">
        <ele>49.5</ele>
        <time>2021-12-27T15:08:27Z</time>
      </trkpt>
      <trkpt lat="49.38727" lon="-1.60507">
        <ele>49.4</ele>
        <time>2021-12-27T15:08:30Z</time>
      </trkpt>
      <trkpt lat="49.38727" lon="-1.60498">
        <ele>49.4</ele>
        <time>2021-12-27T15:08:33Z</time>
      </trkpt>
      <trkpt lat="49.38728" lon="-1.60488">
        <ele>49.3</ele>
        <time>2021-12-27T15:08:36Z</time>
      </trkpt>
      <trkpt lat="49.3873" lon="-1.60481">
        <ele>49.3</ele>
        <time>2021-12-27T15:08:40Z</time>
      </trkpt>
      <trkpt lat="49.38731" lon="-1.60471">
        <ele>49.2</ele>
        <time>2021-12-27T15:08:45Z</time>
      </trkpt>
      <trkpt lat="49.38731" lon="-1.60463">
        <ele>49.1</ele>
        <time>2021-12-27T15:08:50Z</time>
      </trkpt>
      <trkpt lat="49.38731" lon="-1.60455">
        <ele>48.8</ele>
        <time>2021-12-27T15:08:54Z</time>
      </trkpt>
      <trkpt lat="49.3873" lon="-1.60448">
        <ele>47.9</ele>
        <time>2021-12-27T15:09:02Z</time>
      </trkpt>
      <trkpt lat="49.3873" lon="-1.60439">
        <ele>47.5</ele>
        <time>2021-12-27T15:09:12Z</time>
      </trkpt>
      <trkpt lat="49.38731" lon="-1.60432">
        <ele>47.7</ele>
        <time>2021-12-27T15:09:21Z</time>
      </trkpt>
      <trkpt lat="49.38732" lon="-1.60425">
        <ele>47.8</ele>
        <time>2021-12-27T15:09:29Z</time>
      </trkpt>
      <trkpt lat="49.38734" lon="-1.60418">
        <ele>48.3</ele>
        <time>2021-12-27T15:09:36Z</time>
      </trkpt>
      <trkpt lat="49.38735" lon="-1.60411">
        <ele>48.9</ele>
        <time>2021-12-27T15:09:51Z</time>
      </trkpt>
      <trkpt lat="49.38737" lon="-1.60403">
        <ele>48.7</ele>
        <time>2021-12-27T15:10:07Z</time>
      </trkpt>
      <trkpt lat="49.38739" lon="-1.60393">
        <ele>48.8</ele>
        <time>2021-12-27T15:10:10Z</time>
      </trkpt>
      <trkpt lat="49.38741" lon="-1.60384">
        <ele>49</ele>
        <time>2021-12-27T15:10:13Z</time>
      </trkpt>
      <trkpt lat="49.38742" lon="-1.60377">
        <ele>49.7</ele>
        <time>2021-12-27T15:10:22Z</time>
      </trkpt>
      <trkpt lat="49.38744" lon="-1.6037">
        <ele>49.1</ele>
        <time>2021-12-27T15:10:37Z</time>
      </trkpt>
      <trkpt lat="49.38744" lon="-1.60363">
        <ele>49.9</ele>
        <time>2021-12-27T15:10:59Z</time>
      </trkpt>
      <trkpt lat="49.38744" lon="-1.60355">
        <ele>49.9</ele>
        <time>2021-12-27T15:11:16Z</time>
      </trkpt>
      <trkpt lat="49.38745" lon="-1.60347">
        <ele>49.9</ele>
        <time>2021-12-27T15:11:21Z</time>
      </trkpt>
      <trkpt lat="49.38746" lon="-1.60339">
        <ele>50</ele>
        <time>2021-12-27T15:11:26Z</time>
      </trkpt>
      <trkpt lat="49.38748" lon="-1.60331">
        <ele>49.9</ele>
        <time>2021-12-27T15:11:35Z</time>
      </trkpt>
      <trkpt lat="49.38752" lon="-1.60324">
        <ele>49.9</ele>
        <time>2021-12-27T15:11:39Z</time>
      </trkpt>
      <trkpt lat="49.38756" lon="-1.60318">
        <ele>49.8</ele>
        <time>2021-12-27T15:11:42Z</time>
      </trkpt>
      <trkpt lat="49.3876" lon="-1.60313">
        <ele>49.7</ele>
        <time>2021-12-27T15:11:45Z</time>
      </trkpt>
      <trkpt lat="49.38762" lon="-1.60306">
        <ele>49.8</ele>
        <time>2021-12-27T15:11:48Z</time>
      </trkpt>
      <trkpt lat="49.38763" lon="-1.60299">
        <ele>50.5</ele>
        <time>2021-12-27T15:11:58Z</time>
      </trkpt>
      <trkpt lat="49.38762" lon="-1.60292">
        <ele>50.9</ele>
        <time>2021-12-27T15:12:14Z</time>
      </trkpt>
      <trkpt lat="49.38762" lon="-1.60285">
        <ele>50.8</ele>
        <time>2021-12-27T15:12:18Z</time>
      </trkpt>
      <trkpt lat="49.38763" lon="-1.60277">
        <ele>50.7</ele>
        <time>2021-12-27T15:12:21Z</time>
      </trkpt>
      <trkpt lat="49.38765" lon="-1.60269">
        <ele>50.5</ele>
        <time>2021-12-27T15:12:25Z</time>
      </trkpt>
      <trkpt lat="49.38764" lon="-1.60262">
        <ele>50.5</ele>
        <time>2021-12-27T15:12:29Z</time>
      </trkpt>
      <trkpt lat="49.38764" lon="-1.60255">
        <ele>50.8</ele>
        <time>2021-12-27T15:12:34Z</time>
      </trkpt>
      <trkpt lat="49.38764" lon="-1.60247">
        <ele>51.5</ele>
        <time>2021-12-27T15:12:41Z</time>
      </trkpt>
      <trkpt lat="49.38762" lon="-1.60239">
        <ele>51.5</ele>
        <time>2021-12-27T15:13:49Z</time>
      </trkpt>
      <trkpt lat="49.38757" lon="-1.60231">
        <ele>51.5</ele>
        <time>2021-12-27T15:13:50Z</time>
      </trkpt>
      <trkpt lat="49.38743" lon="-1.60216">
        <ele>51.4</ele>
        <time>2021-12-27T15:13:52Z</time>
      </trkpt>
      <trkpt lat="49.38759" lon="-1.60233">
        <ele>51.4</ele>
        <time>2021-12-27T15:13:54Z</time>
      </trkpt>
      <trkpt lat="49.38759" lon="-1.60224">
        <ele>51.6</ele>
        <time>2021-12-27T15:13:56Z</time>
      </trkpt>
      <trkpt lat="49.38753" lon="-1.60221">
        <ele>52.2</ele>
        <time>2021-12-27T15:13:57Z</time>
      </trkpt>
      <trkpt lat="49.38748" lon="-1.60221">
        <ele>55.5</ele>
        <time>2021-12-27T15:14:02Z</time>
      </trkpt>
      <trkpt lat="49.38751" lon="-1.60231">
        <ele>59.1</ele>
        <time>2021-12-27T15:14:11Z</time>
      </trkpt>
      <trkpt lat="49.38751" lon="-1.60239">
        <ele>57.3</ele>
        <time>2021-12-27T15:14:18Z</time>
      </trkpt>
      <trkpt lat="49.38756" lon="-1.60235">
        <ele>54.4</ele>
        <time>2021-12-27T15:14:31Z</time>
      </trkpt>
      <trkpt lat="49.3876" lon="-1.60233">
        <ele>51.6</ele>
        <time>2021-12-27T15:14:39Z</time>
      </trkpt>
      <trkpt lat="49.38765" lon="-1.60228">
        <ele>50.9</ele>
        <time>2021-12-27T15:14:43Z</time>
      </trkpt>
      <trkpt lat="49.38767" lon="-1.60222">
        <ele>50.9</ele>
        <time>2021-12-27T15:14:46Z</time>
      </trkpt>
      <trkpt lat="49.38769" lon="-1.60215">
        <ele>50.7</ele>
        <time>2021-12-27T15:14:52Z</time>
      </trkpt>
      <trkpt lat="49.38767" lon="-1.60208">
        <ele>50.6</ele>
        <time>2021-12-27T15:15:04Z</time>
      </trkpt>
      <trkpt lat="49.38763" lon="-1.60204">
        <ele>50.9</ele>
        <time>2021-12-27T15:15:23Z</time>
      </trkpt>
      <trkpt lat="49.38759" lon="-1.60198">
        <ele>50.2</ele>
        <time>2021-12-27T15:15:47Z</time>
      </trkpt>
      <trkpt lat="49.38754" lon="-1.60196">
        <ele>49.9</ele>
        <time>2021-12-27T15:15:56Z</time>
      </trkpt>
      <trkpt lat="49.3875" lon="-1.60193">
        <ele>50.1</ele>
        <time>2021-12-27T15:16:08Z</time>
      </trkpt>
      <trkpt lat="49.38744" lon="-1.6019">
        <ele>49.6</ele>
        <time>2021-12-27T15:16:13Z</time>
      </trkpt>
      <trkpt lat="49.3874" lon="-1.60188">
        <ele>48.5</ele>
        <time>2021-12-27T15:16:19Z</time>
      </trkpt>
      <trkpt lat="49.38735" lon="-1.6019">
        <ele>48.2</ele>
        <time>2021-12-27T15:16:25Z</time>
      </trkpt>
      <trkpt lat="49.38729" lon="-1.6019">
        <ele>48.3</ele>
        <time>2021-12-27T15:16:29Z</time>
      </trkpt>
      <trkpt lat="49.38724" lon="-1.60188">
        <ele>48.3</ele>
        <time>2021-12-27T15:16:38Z</time>
      </trkpt>
      <trkpt lat="49.38719" lon="-1.60189">
        <ele>48.5</ele>
        <time>2021-12-27T15:16:43Z</time>
      </trkpt>
      <trkpt lat="49.38713" lon="-1.60188">
        <ele>48.7</ele>
        <time>2021-12-27T15:16:47Z</time>
      </trkpt>
      <trkpt lat="49.38707" lon="-1.60186">
        <ele>49</ele>
        <time>2021-12-27T15:16:51Z</time>
      </trkpt>
      <trkpt lat="49.38704" lon="-1.60182">
        <ele>49.2</ele>
        <time>2021-12-27T15:17:01Z</time>
      </trkpt>
      <trkpt lat="49.38699" lon="-1.60182">
        <ele>49</ele>
        <time>2021-12-27T15:17:08Z</time>
      </trkpt>
      <trkpt lat="49.38694" lon="-1.60178">
        <ele>48.9</ele>
        <time>2021-12-27T15:17:16Z</time>
      </trkpt>
      <trkpt lat="49.38691" lon="-1.60173">
        <ele>49.2</ele>
        <time>2021-12-27T15:17:23Z</time>
      </trkpt>
      <trkpt lat="49.38685" lon="-1.60172">
        <ele>49.2</ele>
        <time>2021-12-27T15:17:35Z</time>
      </trkpt>
      <trkpt lat="49.3868" lon="-1.60172">
        <ele>49.3</ele>
        <time>2021-12-27T15:17:42Z</time>
      </trkpt>
      <trkpt lat="49.38675" lon="-1.60172">
        <ele>49.3</ele>
        <time>2021-12-27T15:17:48Z</time>
      </trkpt>
      <trkpt lat="49.3867" lon="-1.6017">
        <ele>49.2</ele>
        <time>2021-12-27T15:17:54Z</time>
      </trkpt>
      <trkpt lat="49.38664" lon="-1.60169">
        <ele>49.4</ele>
        <time>2021-12-27T15:18:00Z</time>
      </trkpt>
      <trkpt lat="49.38658" lon="-1.60168">
        <ele>49.3</ele>
        <time>2021-12-27T15:18:04Z</time>
      </trkpt>
      <trkpt lat="49.38652" lon="-1.60167">
        <ele>48.2</ele>
        <time>2021-12-27T15:18:08Z</time>
      </trkpt>
      <trkpt lat="49.38646" lon="-1.60167">
        <ele>47.1</ele>
        <time>2021-12-27T15:18:13Z</time>
      </trkpt>
      <trkpt lat="49.38641" lon="-1.60167">
        <ele>46.8</ele>
        <time>2021-12-27T15:18:17Z</time>
      </trkpt>
      <trkpt lat="49.38635" lon="-1.60165">
        <ele>47.1</ele>
        <time>2021-12-27T15:18:22Z</time>
      </trkpt>
      <trkpt lat="49.3863" lon="-1.60164">
        <ele>47.5</ele>
        <time>2021-12-27T15:18:26Z</time>
      </trkpt>
      <trkpt lat="49.38625" lon="-1.60163">
        <ele>47.7</ele>
        <time>2021-12-27T15:18:29Z</time>
      </trkpt>
      <trkpt lat="49.3862" lon="-1.6016">
        <ele>47.7</ele>
        <time>2021-12-27T15:18:33Z</time>
      </trkpt>
      <trkpt lat="49.38615" lon="-1.60158">
        <ele>48.4</ele>
        <time>2021-12-27T15:18:40Z</time>
      </trkpt>
      <trkpt lat="49.3861" lon="-1.60157">
        <ele>49</ele>
        <time>2021-12-27T15:18:45Z</time>
      </trkpt>
      <trkpt lat="49.38605" lon="-1.60156">
        <ele>49.8</ele>
        <time>2021-12-27T15:18:55Z</time>
      </trkpt>
      <trkpt lat="49.386" lon="-1.60157">
        <ele>49.3</ele>
        <time>2021-12-27T15:19:01Z</time>
      </trkpt>
      <trkpt lat="49.38595" lon="-1.60155">
        <ele>48.7</ele>
        <time>2021-12-27T15:19:07Z</time>
      </trkpt>
      <trkpt lat="49.38591" lon="-1.60153">
        <ele>48.5</ele>
        <time>2021-12-27T15:19:13Z</time>
      </trkpt>
      <trkpt lat="49.38586" lon="-1.60149">
        <ele>48.5</ele>
        <time>2021-12-27T15:19:22Z</time>
      </trkpt>
      <trkpt lat="49.38574" lon="-1.60145">
        <ele>48.3</ele>
        <time>2021-12-27T15:19:28Z</time>
      </trkpt>
      <trkpt lat="49.38568" lon="-1.60146">
        <ele>48.7</ele>
        <time>2021-12-27T15:19:35Z</time>
      </trkpt>
      <trkpt lat="49.38564" lon="-1.60143">
        <ele>49.6</ele>
        <time>2021-12-27T15:19:48Z</time>
      </trkpt>
      <trkpt lat="49.38558" lon="-1.60142">
        <ele>48.9</ele>
        <time>2021-12-27T15:19:56Z</time>
      </trkpt>
      <trkpt lat="49.38554" lon="-1.60141">
        <ele>48.6</ele>
        <time>2021-12-27T15:19:59Z</time>
      </trkpt>
      <trkpt lat="49.38547" lon="-1.60139">
        <ele>48.3</ele>
        <time>2021-12-27T15:20:03Z</time>
      </trkpt>
      <trkpt lat="49.38542" lon="-1.60138">
        <ele>47.9</ele>
        <time>2021-12-27T15:20:05Z</time>
      </trkpt>
      <trkpt lat="49.38536" lon="-1.60135">
        <ele>46.8</ele>
        <time>2021-12-27T15:20:09Z</time>
      </trkpt>
      <trkpt lat="49.38531" lon="-1.60133">
        <ele>45.4</ele>
        <time>2021-12-27T15:20:14Z</time>
      </trkpt>
      <trkpt lat="49.38526" lon="-1.60131">
        <ele>44.4</ele>
        <time>2021-12-27T15:20:32Z</time>
      </trkpt>
      <trkpt lat="49.38521" lon="-1.60133">
        <ele>45.4</ele>
        <time>2021-12-27T15:20:54Z</time>
      </trkpt>
      <trkpt lat="49.38514" lon="-1.60134">
        <ele>45.4</ele>
        <time>2021-12-27T15:20:57Z</time>
      </trkpt>
      <trkpt lat="49.38505" lon="-1.60131">
        <ele>45.5</ele>
        <time>2021-12-27T15:21:00Z</time>
      </trkpt>
      <trkpt lat="49.385" lon="-1.6013">
        <ele>46</ele>
        <time>2021-12-27T15:21:04Z</time>
      </trkpt>
      <trkpt lat="49.38495" lon="-1.60128">
        <ele>46.9</ele>
        <time>2021-12-27T15:21:08Z</time>
      </trkpt>
      <trkpt lat="49.3849" lon="-1.60126">
        <ele>47.6</ele>
        <time>2021-12-27T15:21:12Z</time>
      </trkpt>
      <trkpt lat="49.38485" lon="-1.60123">
        <ele>48</ele>
        <time>2021-12-27T15:21:16Z</time>
      </trkpt>
      <trkpt lat="49.3848" lon="-1.60122">
        <ele>48.7</ele>
        <time>2021-12-27T15:21:21Z</time>
      </trkpt>
      <trkpt lat="49.38475" lon="-1.6012">
        <ele>49.6</ele>
        <time>2021-12-27T15:21:25Z</time>
      </trkpt>
      <trkpt lat="49.38469" lon="-1.60118">
        <ele>50.4</ele>
        <time>2021-12-27T15:21:30Z</time>
      </trkpt>
      <trkpt lat="49.38464" lon="-1.60115">
        <ele>51.3</ele>
        <time>2021-12-27T15:21:35Z</time>
      </trkpt>
      <trkpt lat="49.38461" lon="-1.6011">
        <ele>52.8</ele>
        <time>2021-12-27T15:21:42Z</time>
      </trkpt>
      <trkpt lat="49.38456" lon="-1.60113">
        <ele>53.5</ele>
        <time>2021-12-27T15:21:49Z</time>
      </trkpt>
      <trkpt lat="49.38451" lon="-1.60111">
        <ele>53.6</ele>
        <time>2021-12-27T15:21:55Z</time>
      </trkpt>
      <trkpt lat="49.38446" lon="-1.60111">
        <ele>52.2</ele>
        <time>2021-12-27T15:22:13Z</time>
      </trkpt>
      <trkpt lat="49.38442" lon="-1.60107">
        <ele>52</ele>
        <time>2021-12-27T15:22:26Z</time>
      </trkpt>
      <trkpt lat="49.38438" lon="-1.60104">
        <ele>52</ele>
        <time>2021-12-27T15:22:32Z</time>
      </trkpt>
      <trkpt lat="49.38433" lon="-1.60101">
        <ele>52.6</ele>
        <time>2021-12-27T15:22:43Z</time>
      </trkpt>
      <trkpt lat="49.38428" lon="-1.60104">
        <ele>53.6</ele>
        <time>2021-12-27T15:22:52Z</time>
      </trkpt>
      <trkpt lat="49.38423" lon="-1.60105">
        <ele>54.4</ele>
        <time>2021-12-27T15:22:58Z</time>
      </trkpt>
      <trkpt lat="49.38417" lon="-1.60102">
        <ele>54.6</ele>
        <time>2021-12-27T15:23:01Z</time>
      </trkpt>
      <trkpt lat="49.38412" lon="-1.60099">
        <ele>54.9</ele>
        <time>2021-12-27T15:23:05Z</time>
      </trkpt>
      <trkpt lat="49.38405" lon="-1.60097">
        <ele>54.7</ele>
        <time>2021-12-27T15:23:11Z</time>
      </trkpt>
      <trkpt lat="49.384" lon="-1.60096">
        <ele>54.8</ele>
        <time>2021-12-27T15:23:15Z</time>
      </trkpt>
      <trkpt lat="49.38396" lon="-1.60092">
        <ele>55.5</ele>
        <time>2021-12-27T15:23:24Z</time>
      </trkpt>
      <trkpt lat="49.38389" lon="-1.6009">
        <ele>55.6</ele>
        <time>2021-12-27T15:23:28Z</time>
      </trkpt>
      <trkpt lat="49.38384" lon="-1.60087">
        <ele>55.8</ele>
        <time>2021-12-27T15:23:31Z</time>
      </trkpt>
      <trkpt lat="49.38379" lon="-1.60085">
        <ele>56.7</ele>
        <time>2021-12-27T15:23:42Z</time>
      </trkpt>
      <trkpt lat="49.38374" lon="-1.60084">
        <ele>56.9</ele>
        <time>2021-12-27T15:23:46Z</time>
      </trkpt>
      <trkpt lat="49.38369" lon="-1.60082">
        <ele>57.4</ele>
        <time>2021-12-27T15:23:52Z</time>
      </trkpt>
      <trkpt lat="49.38364" lon="-1.60081">
        <ele>58.3</ele>
        <time>2021-12-27T15:24:04Z</time>
      </trkpt>
      <trkpt lat="49.38358" lon="-1.60081">
        <ele>58.4</ele>
        <time>2021-12-27T15:24:08Z</time>
      </trkpt>
      <trkpt lat="49.38353" lon="-1.6008">
        <ele>58.6</ele>
        <time>2021-12-27T15:24:13Z</time>
      </trkpt>
      <trkpt lat="49.38349" lon="-1.60078">
        <ele>58.9</ele>
        <time>2021-12-27T15:24:17Z</time>
      </trkpt>
      <trkpt lat="49.38345" lon="-1.60075">
        <ele>59.1</ele>
        <time>2021-12-27T15:24:23Z</time>
      </trkpt>
      <trkpt lat="49.3834" lon="-1.60073">
        <ele>59.6</ele>
        <time>2021-12-27T15:24:34Z</time>
      </trkpt>
      <trkpt lat="49.38336" lon="-1.6007">
        <ele>58.5</ele>
        <time>2021-12-27T15:24:47Z</time>
      </trkpt>
      <trkpt lat="49.38329" lon="-1.60067">
        <ele>58</ele>
        <time>2021-12-27T15:24:52Z</time>
      </trkpt>
      <trkpt lat="49.3832" lon="-1.60065">
        <ele>57.6</ele>
        <time>2021-12-27T15:24:58Z</time>
      </trkpt>
      <trkpt lat="49.38315" lon="-1.60064">
        <ele>57.6</ele>
        <time>2021-12-27T15:25:01Z</time>
      </trkpt>
      <trkpt lat="49.38308" lon="-1.60062">
        <ele>57.8</ele>
        <time>2021-12-27T15:25:05Z</time>
      </trkpt>
      <trkpt lat="49.38288" lon="-1.60054">
        <ele>58.5</ele>
        <time>2021-12-27T15:25:15Z</time>
      </trkpt>
      <trkpt lat="49.38282" lon="-1.60053">
        <ele>59</ele>
        <time>2021-12-27T15:25:23Z</time>
      </trkpt>
      <trkpt lat="49.38278" lon="-1.60051">
        <ele>59.4</ele>
        <time>2021-12-27T15:25:29Z</time>
      </trkpt>
      <trkpt lat="49.38272" lon="-1.60049">
        <ele>59.8</ele>
        <time>2021-12-27T15:25:34Z</time>
      </trkpt>
      <trkpt lat="49.38266" lon="-1.60047">
        <ele>59.9</ele>
        <time>2021-12-27T15:25:38Z</time>
      </trkpt>
      <trkpt lat="49.38262" lon="-1.60043">
        <ele>59.4</ele>
        <time>2021-12-27T15:25:43Z</time>
      </trkpt>
      <trkpt lat="49.38261" lon="-1.60036">
        <ele>59.9</ele>
        <time>2021-12-27T15:25:50Z</time>
      </trkpt>
      <trkpt lat="49.38259" lon="-1.60028">
        <ele>61</ele>
        <time>2021-12-27T15:25:55Z</time>
      </trkpt>
      <trkpt lat="49.38258" lon="-1.60019">
        <ele>61.1</ele>
        <time>2021-12-27T15:25:59Z</time>
      </trkpt>
      <trkpt lat="49.38256" lon="-1.60012">
        <ele>60.9</ele>
        <time>2021-12-27T15:26:04Z</time>
      </trkpt>
      <trkpt lat="49.38255" lon="-1.60003">
        <ele>61</ele>
        <time>2021-12-27T15:26:10Z</time>
      </trkpt>
      <trkpt lat="49.38255" lon="-1.59996">
        <ele>61.2</ele>
        <time>2021-12-27T15:26:15Z</time>
      </trkpt>
      <trkpt lat="49.38255" lon="-1.59988">
        <ele>61.5</ele>
        <time>2021-12-27T15:26:21Z</time>
      </trkpt>
      <trkpt lat="49.38256" lon="-1.5998">
        <ele>62.3</ele>
        <time>2021-12-27T15:26:36Z</time>
      </trkpt>
      <trkpt lat="49.38256" lon="-1.5997">
        <ele>61.6</ele>
        <time>2021-12-27T15:26:44Z</time>
      </trkpt>
      <trkpt lat="49.38256" lon="-1.59963">
        <ele>61.2</ele>
        <time>2021-12-27T15:26:48Z</time>
      </trkpt>
      <trkpt lat="49.38256" lon="-1.59955">
        <ele>61</ele>
        <time>2021-12-27T15:26:53Z</time>
      </trkpt>
      <trkpt lat="49.38256" lon="-1.59947">
        <ele>61.2</ele>
        <time>2021-12-27T15:26:59Z</time>
      </trkpt>
      <trkpt lat="49.38256" lon="-1.5994">
        <ele>61.5</ele>
        <time>2021-12-27T15:27:03Z</time>
      </trkpt>
      <trkpt lat="49.38255" lon="-1.59933">
        <ele>61.6</ele>
        <time>2021-12-27T15:27:09Z</time>
      </trkpt>
      <trkpt lat="49.38255" lon="-1.59925">
        <ele>61</ele>
        <time>2021-12-27T15:27:20Z</time>
      </trkpt>
      <trkpt lat="49.38255" lon="-1.59918">
        <ele>60.6</ele>
        <time>2021-12-27T15:27:24Z</time>
      </trkpt>
      <trkpt lat="49.38256" lon="-1.59911">
        <ele>60.3</ele>
        <time>2021-12-27T15:27:31Z</time>
      </trkpt>
      <trkpt lat="49.38257" lon="-1.59902">
        <ele>60.1</ele>
        <time>2021-12-27T15:27:37Z</time>
      </trkpt>
      <trkpt lat="49.38257" lon="-1.59894">
        <ele>59.5</ele>
        <time>2021-12-27T15:27:42Z</time>
      </trkpt>
      <trkpt lat="49.38257" lon="-1.59885">
        <ele>59.1</ele>
        <time>2021-12-27T15:27:46Z</time>
      </trkpt>
      <trkpt lat="49.38257" lon="-1.59875">
        <ele>59</ele>
        <time>2021-12-27T15:27:50Z</time>
      </trkpt>
      <trkpt lat="49.38256" lon="-1.59866">
        <ele>59.1</ele>
        <time>2021-12-27T15:27:53Z</time>
      </trkpt>
      <trkpt lat="49.38256" lon="-1.59854">
        <ele>59.4</ele>
        <time>2021-12-27T15:27:55Z</time>
      </trkpt>
      <trkpt lat="49.38256" lon="-1.59846">
        <ele>60.1</ele>
        <time>2021-12-27T15:27:59Z</time>
      </trkpt>
      <trkpt lat="49.38256" lon="-1.59839">
        <ele>60.9</ele>
        <time>2021-12-27T15:28:01Z</time>
      </trkpt>
      <trkpt lat="49.38257" lon="-1.59831">
        <ele>63</ele>
        <time>2021-12-27T15:28:06Z</time>
      </trkpt>
      <trkpt lat="49.38254" lon="-1.59821">
        <ele>64.5</ele>
        <time>2021-12-27T15:28:10Z</time>
      </trkpt>
      <trkpt lat="49.38253" lon="-1.59812">
        <ele>65.9</ele>
        <time>2021-12-27T15:28:15Z</time>
      </trkpt>
      <trkpt lat="49.38255" lon="-1.59804">
        <ele>67.2</ele>
        <time>2021-12-27T15:28:22Z</time>
      </trkpt>
      <trkpt lat="49.38255" lon="-1.59796">
        <ele>65.8</ele>
        <time>2021-12-27T15:28:28Z</time>
      </trkpt>
      <trkpt lat="49.38255" lon="-1.59788">
        <ele>64.8</ele>
        <time>2021-12-27T15:28:31Z</time>
      </trkpt>
      <trkpt lat="49.38254" lon="-1.59778">
        <ele>63.3</ele>
        <time>2021-12-27T15:28:34Z</time>
      </trkpt>
      <trkpt lat="49.38252" lon="-1.59772">
        <ele>61.5</ele>
        <time>2021-12-27T15:28:42Z</time>
      </trkpt>
      <trkpt lat="49.38253" lon="-1.59764">
        <ele>61.2</ele>
        <time>2021-12-27T15:28:47Z</time>
      </trkpt>
      <trkpt lat="49.38254" lon="-1.59757">
        <ele>61.3</ele>
        <time>2021-12-27T15:28:52Z</time>
      </trkpt>
      <trkpt lat="49.38254" lon="-1.59748">
        <ele>61.4</ele>
        <time>2021-12-27T15:28:59Z</time>
      </trkpt>
      <trkpt lat="49.38256" lon="-1.5974">
        <ele>61.2</ele>
        <time>2021-12-27T15:29:02Z</time>
      </trkpt>
      <trkpt lat="49.38258" lon="-1.59733">
        <ele>61.2</ele>
        <time>2021-12-27T15:29:06Z</time>
      </trkpt>
      <trkpt lat="49.3826" lon="-1.59726">
        <ele>61</ele>
        <time>2021-12-27T15:29:11Z</time>
      </trkpt>
      <trkpt lat="49.3826" lon="-1.59717">
        <ele>60.7</ele>
        <time>2021-12-27T15:29:15Z</time>
      </trkpt>
      <trkpt lat="49.38259" lon="-1.59709">
        <ele>60.7</ele>
        <time>2021-12-27T15:29:20Z</time>
      </trkpt>
      <trkpt lat="49.38259" lon="-1.59701">
        <ele>61</ele>
        <time>2021-12-27T15:29:29Z</time>
      </trkpt>
      <trkpt lat="49.3826" lon="-1.59693">
        <ele>61</ele>
        <time>2021-12-27T15:29:32Z</time>
      </trkpt>
      <trkpt lat="49.3826" lon="-1.59686">
        <ele>61</ele>
        <time>2021-12-27T15:29:35Z</time>
      </trkpt>
      <trkpt lat="49.38261" lon="-1.59678">
        <ele>61</ele>
        <time>2021-12-27T15:29:38Z</time>
      </trkpt>
      <trkpt lat="49.38261" lon="-1.5967">
        <ele>60.9</ele>
        <time>2021-12-27T15:29:41Z</time>
      </trkpt>
      <trkpt lat="49.38262" lon="-1.59661">
        <ele>61</ele>
        <time>2021-12-27T15:29:46Z</time>
      </trkpt>
      <trkpt lat="49.38263" lon="-1.59652">
        <ele>61.4</ele>
        <time>2021-12-27T15:29:51Z</time>
      </trkpt>
      <trkpt lat="49.38264" lon="-1.59642">
        <ele>61.9</ele>
        <time>2021-12-27T15:29:56Z</time>
      </trkpt>
      <trkpt lat="49.38266" lon="-1.59633">
        <ele>62.3</ele>
        <time>2021-12-27T15:30:01Z</time>
      </trkpt>
      <trkpt lat="49.38266" lon="-1.59624">
        <ele>63</ele>
        <time>2021-12-27T15:30:08Z</time>
      </trkpt>
      <trkpt lat="49.38265" lon="-1.59615">
        <ele>63.1</ele>
        <time>2021-12-27T15:30:13Z</time>
      </trkpt>
      <trkpt lat="49.38264" lon="-1.59607">
        <ele>62.1</ele>
        <time>2021-12-27T15:30:17Z</time>
      </trkpt>
      <trkpt lat="49.38265" lon="-1.59598">
        <ele>60.1</ele>
        <time>2021-12-27T15:30:22Z</time>
      </trkpt>
      <trkpt lat="49.38265" lon="-1.5959">
        <ele>59.3</ele>
        <time>2021-12-27T15:30:26Z</time>
      </trkpt>
      <trkpt lat="49.38264" lon="-1.59582">
        <ele>59.1</ele>
        <time>2021-12-27T15:30:31Z</time>
      </trkpt>
      <trkpt lat="49.38265" lon="-1.59574">
        <ele>58.9</ele>
        <time>2021-12-27T15:30:36Z</time>
      </trkpt>
      <trkpt lat="49.38266" lon="-1.59567">
        <ele>58.7</ele>
        <time>2021-12-27T15:30:40Z</time>
      </trkpt>
      <trkpt lat="49.38267" lon="-1.5956">
        <ele>58.3</ele>
        <time>2021-12-27T15:30:44Z</time>
      </trkpt>
      <trkpt lat="49.38269" lon="-1.59551">
        <ele>58.3</ele>
        <time>2021-12-27T15:30:49Z</time>
      </trkpt>
      <trkpt lat="49.38269" lon="-1.59544">
        <ele>58.4</ele>
        <time>2021-12-27T15:30:52Z</time>
      </trkpt>
      <trkpt lat="49.3827" lon="-1.59536">
        <ele>58.6</ele>
        <time>2021-12-27T15:30:57Z</time>
      </trkpt>
      <trkpt lat="49.3827" lon="-1.59528">
        <ele>58.5</ele>
        <time>2021-12-27T15:31:02Z</time>
      </trkpt>
      <trkpt lat="49.3827" lon="-1.5952">
        <ele>58.5</ele>
        <time>2021-12-27T15:31:07Z</time>
      </trkpt>
      <trkpt lat="49.38269" lon="-1.59513">
        <ele>58.5</ele>
        <time>2021-12-27T15:31:11Z</time>
      </trkpt>
      <trkpt lat="49.38268" lon="-1.59504">
        <ele>58.4</ele>
        <time>2021-12-27T15:31:17Z</time>
      </trkpt>
      <trkpt lat="49.38268" lon="-1.59496">
        <ele>58.3</ele>
        <time>2021-12-27T15:31:21Z</time>
      </trkpt>
      <trkpt lat="49.38269" lon="-1.59489">
        <ele>58.4</ele>
        <time>2021-12-27T15:31:27Z</time>
      </trkpt>
      <trkpt lat="49.38268" lon="-1.59482">
        <ele>58.5</ele>
        <time>2021-12-27T15:31:33Z</time>
      </trkpt>
      <trkpt lat="49.38267" lon="-1.59491">
        <ele>58.8</ele>
        <time>2021-12-27T15:31:49Z</time>
      </trkpt>
      <trkpt lat="49.38267" lon="-1.595">
        <ele>58.6</ele>
        <time>2021-12-27T15:31:54Z</time>
      </trkpt>
      <trkpt lat="49.38267" lon="-1.59491">
        <ele>54.9</ele>
        <time>2021-12-27T15:32:38Z</time>
      </trkpt>
      <trkpt lat="49.38266" lon="-1.59482">
        <ele>54.7</ele>
        <time>2021-12-27T15:32:42Z</time>
      </trkpt>
      <trkpt lat="49.38266" lon="-1.59474">
        <ele>54.9</ele>
        <time>2021-12-27T15:32:46Z</time>
      </trkpt>
      <trkpt lat="49.38269" lon="-1.59467">
        <ele>55.1</ele>
        <time>2021-12-27T15:32:48Z</time>
      </trkpt>
      <trkpt lat="49.38269" lon="-1.59458">
        <ele>55.5</ele>
        <time>2021-12-27T15:32:53Z</time>
      </trkpt>
      <trkpt lat="49.38269" lon="-1.5945">
        <ele>56.7</ele>
        <time>2021-12-27T15:33:04Z</time>
      </trkpt>
      <trkpt lat="49.38269" lon="-1.59442">
        <ele>57</ele>
        <time>2021-12-27T15:33:09Z</time>
      </trkpt>
      <trkpt lat="49.3827" lon="-1.59432">
        <ele>56.8</ele>
        <time>2021-12-27T15:33:14Z</time>
      </trkpt>
      <trkpt lat="49.3827" lon="-1.59422">
        <ele>56.9</ele>
        <time>2021-12-27T15:33:19Z</time>
      </trkpt>
      <trkpt lat="49.38271" lon="-1.59415">
        <ele>57.2</ele>
        <time>2021-12-27T15:33:24Z</time>
      </trkpt>
      <trkpt lat="49.38271" lon="-1.59407">
        <ele>57.4</ele>
        <time>2021-12-27T15:33:29Z</time>
      </trkpt>
      <trkpt lat="49.3827" lon="-1.59399">
        <ele>57.2</ele>
        <time>2021-12-27T15:33:35Z</time>
      </trkpt>
      <trkpt lat="49.3827" lon="-1.59392">
        <ele>57</ele>
        <time>2021-12-27T15:33:41Z</time>
      </trkpt>
      <trkpt lat="49.3827" lon="-1.59383">
        <ele>57</ele>
        <time>2021-12-27T15:33:45Z</time>
      </trkpt>
      <trkpt lat="49.38269" lon="-1.59374">
        <ele>57</ele>
        <time>2021-12-27T15:33:49Z</time>
      </trkpt>
      <trkpt lat="49.38268" lon="-1.59366">
        <ele>56.8</ele>
        <time>2021-12-27T15:33:54Z</time>
      </trkpt>
      <trkpt lat="49.38269" lon="-1.59357">
        <ele>56.6</ele>
        <time>2021-12-27T15:34:00Z</time>
      </trkpt>
      <trkpt lat="49.38269" lon="-1.59348">
        <ele>57</ele>
        <time>2021-12-27T15:34:05Z</time>
      </trkpt>
      <trkpt lat="49.38264" lon="-1.59348">
        <ele>57.1</ele>
        <time>2021-12-27T15:34:11Z</time>
      </trkpt>
      <trkpt lat="49.38259" lon="-1.59348">
        <ele>57.4</ele>
        <time>2021-12-27T15:34:14Z</time>
      </trkpt>
      <trkpt lat="49.38254" lon="-1.59349">
        <ele>57.7</ele>
        <time>2021-12-27T15:34:18Z</time>
      </trkpt>
      <trkpt lat="49.38249" lon="-1.59348">
        <ele>58.2</ele>
        <time>2021-12-27T15:34:23Z</time>
      </trkpt>
      <trkpt lat="49.38244" lon="-1.59347">
        <ele>59.6</ele>
        <time>2021-12-27T15:34:30Z</time>
      </trkpt>
      <trkpt lat="49.38239" lon="-1.59348">
        <ele>59.8</ele>
        <time>2021-12-27T15:34:35Z</time>
      </trkpt>
      <trkpt lat="49.38233" lon="-1.5935">
        <ele>59.5</ele>
        <time>2021-12-27T15:34:40Z</time>
      </trkpt>
      <trkpt lat="49.38228" lon="-1.59351">
        <ele>59</ele>
        <time>2021-12-27T15:34:45Z</time>
      </trkpt>
      <trkpt lat="49.38223" lon="-1.59351">
        <ele>58.3</ele>
        <time>2021-12-27T15:34:53Z</time>
      </trkpt>
      <trkpt lat="49.38218" lon="-1.59352">
        <ele>57.8</ele>
        <time>2021-12-27T15:34:59Z</time>
      </trkpt>
      <trkpt lat="49.38212" lon="-1.59352">
        <ele>57.4</ele>
        <time>2021-12-27T15:35:04Z</time>
      </trkpt>
      <trkpt lat="49.38206" lon="-1.59353">
        <ele>57.7</ele>
        <time>2021-12-27T15:35:09Z</time>
      </trkpt>
      <trkpt lat="49.38202" lon="-1.59352">
        <ele>59.5</ele>
        <time>2021-12-27T15:35:16Z</time>
      </trkpt>
      <trkpt lat="49.38197" lon="-1.59351">
        <ele>62.1</ele>
        <time>2021-12-27T15:35:32Z</time>
      </trkpt>
      <trkpt lat="49.38191" lon="-1.59351">
        <ele>61.5</ele>
        <time>2021-12-27T15:35:36Z</time>
      </trkpt>
      <trkpt lat="49.38184" lon="-1.5935">
        <ele>61</ele>
        <time>2021-12-27T15:35:40Z</time>
      </trkpt>
      <trkpt lat="49.38178" lon="-1.59349">
        <ele>60.8</ele>
        <time>2021-12-27T15:35:44Z</time>
      </trkpt>
      <trkpt lat="49.38171" lon="-1.59351">
        <ele>60.8</ele>
        <time>2021-12-27T15:35:48Z</time>
      </trkpt>
      <trkpt lat="49.38157" lon="-1.59351">
        <ele>61.1</ele>
        <time>2021-12-27T15:35:54Z</time>
      </trkpt>
      <trkpt lat="49.38152" lon="-1.5935">
        <ele>61.7</ele>
        <time>2021-12-27T15:36:01Z</time>
      </trkpt>
      <trkpt lat="49.38147" lon="-1.59352">
        <ele>61.7</ele>
        <time>2021-12-27T15:36:05Z</time>
      </trkpt>
      <trkpt lat="49.38142" lon="-1.59353">
        <ele>61.2</ele>
        <time>2021-12-27T15:36:08Z</time>
      </trkpt>
      <trkpt lat="49.38137" lon="-1.59354">
        <ele>60.4</ele>
        <time>2021-12-27T15:36:12Z</time>
      </trkpt>
      <trkpt lat="49.38131" lon="-1.59353">
        <ele>59.9</ele>
        <time>2021-12-27T15:36:16Z</time>
      </trkpt>
      <trkpt lat="49.38126" lon="-1.59351">
        <ele>59.8</ele>
        <time>2021-12-27T15:36:20Z</time>
      </trkpt>
      <trkpt lat="49.38122" lon="-1.59353">
        <ele>58.8</ele>
        <time>2021-12-27T15:36:31Z</time>
      </trkpt>
      <trkpt lat="49.38117" lon="-1.59353">
        <ele>58.3</ele>
        <time>2021-12-27T15:36:35Z</time>
      </trkpt>
      <trkpt lat="49.38112" lon="-1.59352">
        <ele>57.8</ele>
        <time>2021-12-27T15:36:38Z</time>
      </trkpt>
      <trkpt lat="49.38106" lon="-1.59351">
        <ele>57.4</ele>
        <time>2021-12-27T15:36:43Z</time>
      </trkpt>
      <trkpt lat="49.381" lon="-1.59349">
        <ele>57</ele>
        <time>2021-12-27T15:36:48Z</time>
      </trkpt>
      <trkpt lat="49.38096" lon="-1.59348">
        <ele>56.7</ele>
        <time>2021-12-27T15:36:52Z</time>
      </trkpt>
      <trkpt lat="49.38091" lon="-1.59347">
        <ele>56.1</ele>
        <time>2021-12-27T15:36:58Z</time>
      </trkpt>
      <trkpt lat="49.38086" lon="-1.59347">
        <ele>55.7</ele>
        <time>2021-12-27T15:37:02Z</time>
      </trkpt>
      <trkpt lat="49.38081" lon="-1.59347">
        <ele>55.3</ele>
        <time>2021-12-27T15:37:06Z</time>
      </trkpt>
      <trkpt lat="49.38076" lon="-1.5935">
        <ele>54.9</ele>
        <time>2021-12-27T15:37:09Z</time>
      </trkpt>
      <trkpt lat="49.38071" lon="-1.59352">
        <ele>54.5</ele>
        <time>2021-12-27T15:37:13Z</time>
      </trkpt>
      <trkpt lat="49.38067" lon="-1.59353">
        <ele>54.4</ele>
        <time>2021-12-27T15:37:15Z</time>
      </trkpt>
      <trkpt lat="49.38061" lon="-1.59352">
        <ele>54.7</ele>
        <time>2021-12-27T15:37:18Z</time>
      </trkpt>
      <trkpt lat="49.38056" lon="-1.59352">
        <ele>55.4</ele>
        <time>2021-12-27T15:37:22Z</time>
      </trkpt>
      <trkpt lat="49.38051" lon="-1.59353">
        <ele>55.4</ele>
        <time>2021-12-27T15:37:28Z</time>
      </trkpt>
      <trkpt lat="49.38047" lon="-1.59354">
        <ele>55.1</ele>
        <time>2021-12-27T15:37:31Z</time>
      </trkpt>
      <trkpt lat="49.38041" lon="-1.59353">
        <ele>54.6</ele>
        <time>2021-12-27T15:37:35Z</time>
      </trkpt>
      <trkpt lat="49.38035" lon="-1.59352">
        <ele>54.4</ele>
        <time>2021-12-27T15:37:39Z</time>
      </trkpt>
      <trkpt lat="49.38031" lon="-1.59351">
        <ele>54.7</ele>
        <time>2021-12-27T15:37:42Z</time>
      </trkpt>
      <trkpt lat="49.38025" lon="-1.59353">
        <ele>55.5</ele>
        <time>2021-12-27T15:37:46Z</time>
      </trkpt>
      <trkpt lat="49.38019" lon="-1.59352">
        <ele>56.2</ele>
        <time>2021-12-27T15:37:50Z</time>
      </trkpt>
      <trkpt lat="49.38014" lon="-1.59351">
        <ele>56.7</ele>
        <time>2021-12-27T15:37:52Z</time>
      </trkpt>
      <trkpt lat="49.38008" lon="-1.5935">
        <ele>57.2</ele>
        <time>2021-12-27T15:37:56Z</time>
      </trkpt>
      <trkpt lat="49.38001" lon="-1.59352">
        <ele>57.3</ele>
        <time>2021-12-27T15:37:59Z</time>
      </trkpt>
      <trkpt lat="49.37995" lon="-1.59351">
        <ele>57.1</ele>
        <time>2021-12-27T15:38:03Z</time>
      </trkpt>
      <trkpt lat="49.37975" lon="-1.5935">
        <ele>55.7</ele>
        <time>2021-12-27T15:38:16Z</time>
      </trkpt>
      <trkpt lat="49.37969" lon="-1.5935">
        <ele>55.8</ele>
        <time>2021-12-27T15:38:20Z</time>
      </trkpt>
      <trkpt lat="49.37963" lon="-1.59351">
        <ele>55.6</ele>
        <time>2021-12-27T15:38:24Z</time>
      </trkpt>
      <trkpt lat="49.37959" lon="-1.5935">
        <ele>55.3</ele>
        <time>2021-12-27T15:38:28Z</time>
      </trkpt>
      <trkpt lat="49.37955" lon="-1.59346">
        <ele>54.8</ele>
        <time>2021-12-27T15:38:32Z</time>
      </trkpt>
      <trkpt lat="49.3795" lon="-1.59345">
        <ele>55.2</ele>
        <time>2021-12-27T15:38:38Z</time>
      </trkpt>
      <trkpt lat="49.37946" lon="-1.59344">
        <ele>55.3</ele>
        <time>2021-12-27T15:38:41Z</time>
      </trkpt>
      <trkpt lat="49.37941" lon="-1.59342">
        <ele>55.5</ele>
        <time>2021-12-27T15:38:44Z</time>
      </trkpt>
      <trkpt lat="49.37935" lon="-1.59344">
        <ele>55.6</ele>
        <time>2021-12-27T15:38:48Z</time>
      </trkpt>
      <trkpt lat="49.37929" lon="-1.59347">
        <ele>55.7</ele>
        <time>2021-12-27T15:38:52Z</time>
      </trkpt>
      <trkpt lat="49.37926" lon="-1.59353">
        <ele>55</ele>
        <time>2021-12-27T15:38:56Z</time>
      </trkpt>
      <trkpt lat="49.37921" lon="-1.59347">
        <ele>54</ele>
        <time>2021-12-27T15:39:02Z</time>
      </trkpt>
      <trkpt lat="49.3792" lon="-1.5934">
        <ele>53.3</ele>
        <time>2021-12-27T15:39:07Z</time>
      </trkpt>
      <trkpt lat="49.3792" lon="-1.59332">
        <ele>52.9</ele>
        <time>2021-12-27T15:39:10Z</time>
      </trkpt>
      <trkpt lat="49.37922" lon="-1.59323">
        <ele>52.5</ele>
        <time>2021-12-27T15:39:15Z</time>
      </trkpt>
      <trkpt lat="49.37925" lon="-1.59317">
        <ele>52.2</ele>
        <time>2021-12-27T15:39:21Z</time>
      </trkpt>
      <trkpt lat="49.37928" lon="-1.59309">
        <ele>51.7</ele>
        <time>2021-12-27T15:39:26Z</time>
      </trkpt>
      <trkpt lat="49.37929" lon="-1.59301">
        <ele>50.8</ele>
        <time>2021-12-27T15:39:31Z</time>
      </trkpt>
      <trkpt lat="49.37933" lon="-1.59297">
        <ele>50.2</ele>
        <time>2021-12-27T15:39:33Z</time>
      </trkpt>
      <trkpt lat="49.37938" lon="-1.59296">
        <ele>49.7</ele>
        <time>2021-12-27T15:39:39Z</time>
      </trkpt>
      <trkpt lat="49.37942" lon="-1.5929">
        <ele>49.6</ele>
        <time>2021-12-27T15:39:44Z</time>
      </trkpt>
      <trkpt lat="49.37945" lon="-1.59282">
        <ele>49.1</ele>
        <time>2021-12-27T15:39:48Z</time>
      </trkpt>
      <trkpt lat="49.37947" lon="-1.59276">
        <ele>48.5</ele>
        <time>2021-12-27T15:39:52Z</time>
      </trkpt>
      <trkpt lat="49.37948" lon="-1.59269">
        <ele>48.1</ele>
        <time>2021-12-27T15:39:55Z</time>
      </trkpt>
      <trkpt lat="49.37952" lon="-1.5926">
        <ele>48.1</ele>
        <time>2021-12-27T15:40:00Z</time>
      </trkpt>
      <trkpt lat="49.37955" lon="-1.59253">
        <ele>48.1</ele>
        <time>2021-12-27T15:40:06Z</time>
      </trkpt>
      <trkpt lat="49.37958" lon="-1.59247">
        <ele>48.4</ele>
        <time>2021-12-27T15:40:11Z</time>
      </trkpt>
      <trkpt lat="49.37962" lon="-1.59242">
        <ele>48.6</ele>
        <time>2021-12-27T15:40:16Z</time>
      </trkpt>
      <trkpt lat="49.37966" lon="-1.59237">
        <ele>49</ele>
        <time>2021-12-27T15:40:21Z</time>
      </trkpt>
      <trkpt lat="49.3797" lon="-1.59232">
        <ele>49.4</ele>
        <time>2021-12-27T15:40:24Z</time>
      </trkpt>
      <trkpt lat="49.37973" lon="-1.59227">
        <ele>49.8</ele>
        <time>2021-12-27T15:40:28Z</time>
      </trkpt>
      <trkpt lat="49.37974" lon="-1.5922">
        <ele>50.1</ele>
        <time>2021-12-27T15:40:32Z</time>
      </trkpt>
      <trkpt lat="49.37977" lon="-1.59212">
        <ele>52.2</ele>
        <time>2021-12-27T15:40:43Z</time>
      </trkpt>
      <trkpt lat="49.37981" lon="-1.59208">
        <ele>52.8</ele>
        <time>2021-12-27T15:40:48Z</time>
      </trkpt>
      <trkpt lat="49.37985" lon="-1.59205">
        <ele>53.3</ele>
        <time>2021-12-27T15:40:51Z</time>
      </trkpt>
      <trkpt lat="49.37987" lon="-1.59196">
        <ele>53.7</ele>
        <time>2021-12-27T15:40:56Z</time>
      </trkpt>
      <trkpt lat="49.37989" lon="-1.59188">
        <ele>53.5</ele>
        <time>2021-12-27T15:41:00Z</time>
      </trkpt>
      <trkpt lat="49.3799" lon="-1.5918">
        <ele>52.3</ele>
        <time>2021-12-27T15:41:05Z</time>
      </trkpt>
      <trkpt lat="49.37993" lon="-1.59175">
        <ele>51.6</ele>
        <time>2021-12-27T15:41:08Z</time>
      </trkpt>
      <trkpt lat="49.37994" lon="-1.59166">
        <ele>51.3</ele>
        <time>2021-12-27T15:41:13Z</time>
      </trkpt>
      <trkpt lat="49.37997" lon="-1.59161">
        <ele>51.3</ele>
        <time>2021-12-27T15:41:16Z</time>
      </trkpt>
      <trkpt lat="49.38002" lon="-1.59158">
        <ele>52.2</ele>
        <time>2021-12-27T15:41:21Z</time>
      </trkpt>
      <trkpt lat="49.38006" lon="-1.59153">
        <ele>53.2</ele>
        <time>2021-12-27T15:41:24Z</time>
      </trkpt>
      <trkpt lat="49.38009" lon="-1.59148">
        <ele>54.3</ele>
        <time>2021-12-27T15:41:28Z</time>
      </trkpt>
      <trkpt lat="49.38014" lon="-1.59144">
        <ele>55.1</ele>
        <time>2021-12-27T15:41:32Z</time>
      </trkpt>
      <trkpt lat="49.38018" lon="-1.59141">
        <ele>55.6</ele>
        <time>2021-12-27T15:41:36Z</time>
      </trkpt>
      <trkpt lat="49.3802" lon="-1.59132">
        <ele>56.7</ele>
        <time>2021-12-27T15:41:43Z</time>
      </trkpt>
      <trkpt lat="49.38022" lon="-1.59124">
        <ele>57</ele>
        <time>2021-12-27T15:41:46Z</time>
      </trkpt>
      <trkpt lat="49.38025" lon="-1.59117">
        <ele>57.1</ele>
        <time>2021-12-27T15:41:50Z</time>
      </trkpt>
      <trkpt lat="49.3803" lon="-1.59111">
        <ele>56.7</ele>
        <time>2021-12-27T15:41:55Z</time>
      </trkpt>
      <trkpt lat="49.38032" lon="-1.59104">
        <ele>56.6</ele>
        <time>2021-12-27T15:41:59Z</time>
      </trkpt>
      <trkpt lat="49.38038" lon="-1.59102">
        <ele>56.7</ele>
        <time>2021-12-27T15:42:04Z</time>
      </trkpt>
      <trkpt lat="49.38041" lon="-1.59097">
        <ele>57.3</ele>
        <time>2021-12-27T15:42:10Z</time>
      </trkpt>
      <trkpt lat="49.38045" lon="-1.59092">
        <ele>52.5</ele>
        <time>2021-12-27T15:42:35Z</time>
      </trkpt>
      <trkpt lat="49.38049" lon="-1.5909">
        <ele>51.4</ele>
        <time>2021-12-27T15:42:38Z</time>
      </trkpt>
      <trkpt lat="49.38057" lon="-1.59086">
        <ele>50.8</ele>
        <time>2021-12-27T15:42:40Z</time>
      </trkpt>
      <trkpt lat="49.38062" lon="-1.59082">
        <ele>50.5</ele>
        <time>2021-12-27T15:42:42Z</time>
      </trkpt>
      <trkpt lat="49.38066" lon="-1.59074">
        <ele>50.5</ele>
        <time>2021-12-27T15:42:45Z</time>
      </trkpt>
      <trkpt lat="49.38079" lon="-1.59016">
        <ele>55.2</ele>
        <time>2021-12-27T15:43:03Z</time>
      </trkpt>
      <trkpt lat="49.38082" lon="-1.59011">
        <ele>56.2</ele>
        <time>2021-12-27T15:43:07Z</time>
      </trkpt>
      <trkpt lat="49.38087" lon="-1.59004">
        <ele>58.2</ele>
        <time>2021-12-27T15:43:12Z</time>
      </trkpt>
      <trkpt lat="49.38091" lon="-1.58997">
        <ele>59.5</ele>
        <time>2021-12-27T15:43:17Z</time>
      </trkpt>
      <trkpt lat="49.38093" lon="-1.58989">
        <ele>59.9</ele>
        <time>2021-12-27T15:43:22Z</time>
      </trkpt>
      <trkpt lat="49.38096" lon="-1.58981">
        <ele>59.5</ele>
        <time>2021-12-27T15:43:26Z</time>
      </trkpt>
      <trkpt lat="49.38099" lon="-1.58974">
        <ele>59.2</ele>
        <time>2021-12-27T15:43:31Z</time>
      </trkpt>
      <trkpt lat="49.38102" lon="-1.58969">
        <ele>59.2</ele>
        <time>2021-12-27T15:43:35Z</time>
      </trkpt>
      <trkpt lat="49.38105" lon="-1.58962">
        <ele>59.3</ele>
        <time>2021-12-27T15:43:39Z</time>
      </trkpt>
      <trkpt lat="49.38108" lon="-1.58957">
        <ele>59.2</ele>
        <time>2021-12-27T15:43:44Z</time>
      </trkpt>
      <trkpt lat="49.38111" lon="-1.5895">
        <ele>59.2</ele>
        <time>2021-12-27T15:43:49Z</time>
      </trkpt>
      <trkpt lat="49.38114" lon="-1.58944">
        <ele>59.5</ele>
        <time>2021-12-27T15:43:52Z</time>
      </trkpt>
      <trkpt lat="49.38118" lon="-1.58938">
        <ele>60</ele>
        <time>2021-12-27T15:43:56Z</time>
      </trkpt>
      <trkpt lat="49.38121" lon="-1.5893">
        <ele>59.7</ele>
        <time>2021-12-27T15:44:01Z</time>
      </trkpt>
      <trkpt lat="49.38124" lon="-1.58924">
        <ele>59.1</ele>
        <time>2021-12-27T15:44:05Z</time>
      </trkpt>
      <trkpt lat="49.38128" lon="-1.58919">
        <ele>58.5</ele>
        <time>2021-12-27T15:44:08Z</time>
      </trkpt>
      <trkpt lat="49.38131" lon="-1.58913">
        <ele>58</ele>
        <time>2021-12-27T15:44:14Z</time>
      </trkpt>
      <trkpt lat="49.38135" lon="-1.58908">
        <ele>58.2</ele>
        <time>2021-12-27T15:44:18Z</time>
      </trkpt>
      <trkpt lat="49.38139" lon="-1.58901">
        <ele>59</ele>
        <time>2021-12-27T15:44:22Z</time>
      </trkpt>
      <trkpt lat="49.38142" lon="-1.58895">
        <ele>59.7</ele>
        <time>2021-12-27T15:44:26Z</time>
      </trkpt>
      <trkpt lat="49.38144" lon="-1.58888">
        <ele>60.1</ele>
        <time>2021-12-27T15:44:29Z</time>
      </trkpt>
      <trkpt lat="49.38146" lon="-1.58882">
        <ele>60.4</ele>
        <time>2021-12-27T15:44:33Z</time>
      </trkpt>
      <trkpt lat="49.3815" lon="-1.58875">
        <ele>60.9</ele>
        <time>2021-12-27T15:44:38Z</time>
      </trkpt>
      <trkpt lat="49.38153" lon="-1.5887">
        <ele>60.8</ele>
        <time>2021-12-27T15:44:48Z</time>
      </trkpt>
      <trkpt lat="49.38156" lon="-1.58863">
        <ele>60.5</ele>
        <time>2021-12-27T15:44:52Z</time>
      </trkpt>
      <trkpt lat="49.3816" lon="-1.58855">
        <ele>60.2</ele>
        <time>2021-12-27T15:44:55Z</time>
      </trkpt>
      <trkpt lat="49.38171" lon="-1.58833">
        <ele>59.2</ele>
        <time>2021-12-27T15:45:06Z</time>
      </trkpt>
      <trkpt lat="49.38175" lon="-1.58826">
        <ele>58.1</ele>
        <time>2021-12-27T15:45:10Z</time>
      </trkpt>
      <trkpt lat="49.38178" lon="-1.58821">
        <ele>57.4</ele>
        <time>2021-12-27T15:45:15Z</time>
      </trkpt>
      <trkpt lat="49.38181" lon="-1.58814">
        <ele>57.1</ele>
        <time>2021-12-27T15:45:19Z</time>
      </trkpt>
      <trkpt lat="49.38185" lon="-1.58808">
        <ele>58.2</ele>
        <time>2021-12-27T15:45:25Z</time>
      </trkpt>
      <trkpt lat="49.38188" lon="-1.58802">
        <ele>59.1</ele>
        <time>2021-12-27T15:45:29Z</time>
      </trkpt>
      <trkpt lat="49.38191" lon="-1.58797">
        <ele>59.6</ele>
        <time>2021-12-27T15:45:31Z</time>
      </trkpt>
      <trkpt lat="49.38193" lon="-1.5879">
        <ele>59.6</ele>
        <time>2021-12-27T15:45:35Z</time>
      </trkpt>
      <trkpt lat="49.38196" lon="-1.58783">
        <ele>58.6</ele>
        <time>2021-12-27T15:45:40Z</time>
      </trkpt>
      <trkpt lat="49.38199" lon="-1.58776">
        <ele>57.9</ele>
        <time>2021-12-27T15:45:44Z</time>
      </trkpt>
      <trkpt lat="49.382" lon="-1.58769">
        <ele>56.6</ele>
        <time>2021-12-27T15:45:49Z</time>
      </trkpt>
      <trkpt lat="49.38203" lon="-1.58764">
        <ele>56.3</ele>
        <time>2021-12-27T15:45:58Z</time>
      </trkpt>
      <trkpt lat="49.38205" lon="-1.58757">
        <ele>56.2</ele>
        <time>2021-12-27T15:46:01Z</time>
      </trkpt>
      <trkpt lat="49.3821" lon="-1.58748">
        <ele>56.1</ele>
        <time>2021-12-27T15:46:05Z</time>
      </trkpt>
      <trkpt lat="49.38214" lon="-1.58742">
        <ele>55.5</ele>
        <time>2021-12-27T15:46:09Z</time>
      </trkpt>
      <trkpt lat="49.38218" lon="-1.58736">
        <ele>54.6</ele>
        <time>2021-12-27T15:46:13Z</time>
      </trkpt>
      <trkpt lat="49.38226" lon="-1.5872">
        <ele>52.6</ele>
        <time>2021-12-27T15:46:20Z</time>
      </trkpt>
      <trkpt lat="49.38228" lon="-1.58713">
        <ele>51.6</ele>
        <time>2021-12-27T15:46:24Z</time>
      </trkpt>
      <trkpt lat="49.38231" lon="-1.58707">
        <ele>50.6</ele>
        <time>2021-12-27T15:46:28Z</time>
      </trkpt>
      <trkpt lat="49.38234" lon="-1.58701">
        <ele>49.6</ele>
        <time>2021-12-27T15:46:31Z</time>
      </trkpt>
      <trkpt lat="49.38238" lon="-1.58695">
        <ele>48.9</ele>
        <time>2021-12-27T15:46:36Z</time>
      </trkpt>
      <trkpt lat="49.38241" lon="-1.58689">
        <ele>48.7</ele>
        <time>2021-12-27T15:46:41Z</time>
      </trkpt>
      <trkpt lat="49.38245" lon="-1.58683">
        <ele>48.5</ele>
        <time>2021-12-27T15:46:45Z</time>
      </trkpt>
      <trkpt lat="49.38249" lon="-1.58677">
        <ele>48.4</ele>
        <time>2021-12-27T15:46:49Z</time>
      </trkpt>
      <trkpt lat="49.38252" lon="-1.58671">
        <ele>48.4</ele>
        <time>2021-12-27T15:46:52Z</time>
      </trkpt>
      <trkpt lat="49.38256" lon="-1.58663">
        <ele>48.2</ele>
        <time>2021-12-27T15:46:56Z</time>
      </trkpt>
      <trkpt lat="49.38258" lon="-1.58656">
        <ele>47.8</ele>
        <time>2021-12-27T15:46:59Z</time>
      </trkpt>
      <trkpt lat="49.38261" lon="-1.58651">
        <ele>47.5</ele>
        <time>2021-12-27T15:47:03Z</time>
      </trkpt>
      <trkpt lat="49.38265" lon="-1.58646">
        <ele>47.4</ele>
        <time>2021-12-27T15:47:06Z</time>
      </trkpt>
      <trkpt lat="49.38268" lon="-1.5864">
        <ele>47.2</ele>
        <time>2021-12-27T15:47:09Z</time>
      </trkpt>
      <trkpt lat="49.38272" lon="-1.58634">
        <ele>47.2</ele>
        <time>2021-12-27T15:47:13Z</time>
      </trkpt>
      <trkpt lat="49.38274" lon="-1.58628">
        <ele>46.8</ele>
        <time>2021-12-27T15:47:16Z</time>
      </trkpt>
      <trkpt lat="49.38276" lon="-1.58621">
        <ele>46.4</ele>
        <time>2021-12-27T15:47:20Z</time>
      </trkpt>
      <trkpt lat="49.38279" lon="-1.58615">
        <ele>45.9</ele>
        <time>2021-12-27T15:47:23Z</time>
      </trkpt>
      <trkpt lat="49.38282" lon="-1.5861">
        <ele>45.6</ele>
        <time>2021-12-27T15:47:27Z</time>
      </trkpt>
      <trkpt lat="49.38287" lon="-1.58602">
        <ele>45.4</ele>
        <time>2021-12-27T15:47:33Z</time>
      </trkpt>
      <trkpt lat="49.38291" lon="-1.58595">
        <ele>44.9</ele>
        <time>2021-12-27T15:47:38Z</time>
      </trkpt>
      <trkpt lat="49.38295" lon="-1.58589">
        <ele>44.4</ele>
        <time>2021-12-27T15:47:42Z</time>
      </trkpt>
      <trkpt lat="49.38298" lon="-1.58583">
        <ele>43.8</ele>
        <time>2021-12-27T15:47:47Z</time>
      </trkpt>
      <trkpt lat="49.38302" lon="-1.58578">
        <ele>43.9</ele>
        <time>2021-12-27T15:47:51Z</time>
      </trkpt>
      <trkpt lat="49.38307" lon="-1.58572">
        <ele>44.2</ele>
        <time>2021-12-27T15:47:55Z</time>
      </trkpt>
      <trkpt lat="49.3831" lon="-1.58564">
        <ele>44.6</ele>
        <time>2021-12-27T15:47:59Z</time>
      </trkpt>
      <trkpt lat="49.38312" lon="-1.58554">
        <ele>44</ele>
        <time>2021-12-27T15:48:05Z</time>
      </trkpt>
      <trkpt lat="49.38314" lon="-1.58547">
        <ele>43.4</ele>
        <time>2021-12-27T15:48:10Z</time>
      </trkpt>
      <trkpt lat="49.38316" lon="-1.5854">
        <ele>42.9</ele>
        <time>2021-12-27T15:48:15Z</time>
      </trkpt>
      <trkpt lat="49.38318" lon="-1.58534">
        <ele>42.5</ele>
        <time>2021-12-27T15:48:18Z</time>
      </trkpt>
      <trkpt lat="49.38322" lon="-1.58527">
        <ele>41.6</ele>
        <time>2021-12-27T15:48:23Z</time>
      </trkpt>
      <trkpt lat="49.38327" lon="-1.5852">
        <ele>40.4</ele>
        <time>2021-12-27T15:48:28Z</time>
      </trkpt>
      <trkpt lat="49.3833" lon="-1.58515">
        <ele>39.3</ele>
        <time>2021-12-27T15:48:32Z</time>
      </trkpt>
      <trkpt lat="49.38333" lon="-1.58509">
        <ele>38.3</ele>
        <time>2021-12-27T15:48:35Z</time>
      </trkpt>
      <trkpt lat="49.38337" lon="-1.58503">
        <ele>37.7</ele>
        <time>2021-12-27T15:48:39Z</time>
      </trkpt>
      <trkpt lat="49.38344" lon="-1.58487">
        <ele>38.4</ele>
        <time>2021-12-27T15:48:47Z</time>
      </trkpt>
      <trkpt lat="49.38348" lon="-1.58483">
        <ele>39</ele>
        <time>2021-12-27T15:48:50Z</time>
      </trkpt>
      <trkpt lat="49.38352" lon="-1.58477">
        <ele>39.2</ele>
        <time>2021-12-27T15:48:53Z</time>
      </trkpt>
      <trkpt lat="49.38355" lon="-1.58472">
        <ele>38.6</ele>
        <time>2021-12-27T15:48:57Z</time>
      </trkpt>
      <trkpt lat="49.38359" lon="-1.58467">
        <ele>37.8</ele>
        <time>2021-12-27T15:49:02Z</time>
      </trkpt>
      <trkpt lat="49.38363" lon="-1.58461">
        <ele>37.3</ele>
        <time>2021-12-27T15:49:06Z</time>
      </trkpt>
      <trkpt lat="49.38366" lon="-1.58455">
        <ele>36.8</ele>
        <time>2021-12-27T15:49:09Z</time>
      </trkpt>
      <trkpt lat="49.38369" lon="-1.58449">
        <ele>36.2</ele>
        <time>2021-12-27T15:49:14Z</time>
      </trkpt>
      <trkpt lat="49.38372" lon="-1.58444">
        <ele>36.2</ele>
        <time>2021-12-27T15:49:17Z</time>
      </trkpt>
      <trkpt lat="49.38375" lon="-1.58439">
        <ele>36.4</ele>
        <time>2021-12-27T15:49:20Z</time>
      </trkpt>
      <trkpt lat="49.38379" lon="-1.58433">
        <ele>36.5</ele>
        <time>2021-12-27T15:49:25Z</time>
      </trkpt>
      <trkpt lat="49.38383" lon="-1.58426">
        <ele>36.4</ele>
        <time>2021-12-27T15:49:30Z</time>
      </trkpt>
      <trkpt lat="49.38384" lon="-1.58418">
        <ele>34.1</ele>
        <time>2021-12-27T15:49:43Z</time>
      </trkpt>
      <trkpt lat="49.38389" lon="-1.58416">
        <ele>32.7</ele>
        <time>2021-12-27T15:49:47Z</time>
      </trkpt>
      <trkpt lat="49.38393" lon="-1.58417">
        <ele>31.5</ele>
        <time>2021-12-27T15:49:50Z</time>
      </trkpt>
      <trkpt lat="49.38399" lon="-1.58416">
        <ele>31.2</ele>
        <time>2021-12-27T15:49:55Z</time>
      </trkpt>
      <trkpt lat="49.38404" lon="-1.58415">
        <ele>31</ele>
        <time>2021-12-27T15:50:13Z</time>
      </trkpt>
      <trkpt lat="49.38406" lon="-1.58409">
        <ele>29.8</ele>
        <time>2021-12-27T15:50:21Z</time>
      </trkpt>
      <trkpt lat="49.3841" lon="-1.58406">
        <ele>30.6</ele>
        <time>2021-12-27T15:50:58Z</time>
      </trkpt>
      <trkpt lat="49.38412" lon="-1.58398">
        <ele>29.8</ele>
        <time>2021-12-27T15:51:09Z</time>
      </trkpt>
      <trkpt lat="49.38408" lon="-1.58403">
        <ele>28.2</ele>
        <time>2021-12-27T15:51:22Z</time>
      </trkpt>
      <trkpt lat="49.38405" lon="-1.58411">
        <ele>27.6</ele>
        <time>2021-12-27T15:51:26Z</time>
      </trkpt>
      <trkpt lat="49.38402" lon="-1.58417">
        <ele>27</ele>
        <time>2021-12-27T15:51:32Z</time>
      </trkpt>
      <trkpt lat="49.38398" lon="-1.58415">
        <ele>25.7</ele>
        <time>2021-12-27T15:51:46Z</time>
      </trkpt>
      <trkpt lat="49.38392" lon="-1.58415">
        <ele>25.1</ele>
        <time>2021-12-27T15:51:53Z</time>
      </trkpt>
      <trkpt lat="49.38387" lon="-1.58419">
        <ele>25.2</ele>
        <time>2021-12-27T15:51:57Z</time>
      </trkpt>
      <trkpt lat="49.38382" lon="-1.5842">
        <ele>24.9</ele>
        <time>2021-12-27T15:52:00Z</time>
      </trkpt>
      <trkpt lat="49.38376" lon="-1.58421">
        <ele>24.3</ele>
        <time>2021-12-27T15:52:04Z</time>
      </trkpt>
      <trkpt lat="49.38373" lon="-1.58426">
        <ele>23.8</ele>
        <time>2021-12-27T15:52:07Z</time>
      </trkpt>
      <trkpt lat="49.3837" lon="-1.58432">
        <ele>23.8</ele>
        <time>2021-12-27T15:52:11Z</time>
      </trkpt>
      <trkpt lat="49.38366" lon="-1.58438">
        <ele>24.2</ele>
        <time>2021-12-27T15:52:15Z</time>
      </trkpt>
      <trkpt lat="49.38362" lon="-1.58445">
        <ele>25</ele>
        <time>2021-12-27T15:52:20Z</time>
      </trkpt>
      <trkpt lat="49.38359" lon="-1.5845">
        <ele>25.7</ele>
        <time>2021-12-27T15:52:23Z</time>
      </trkpt>
      <trkpt lat="49.38356" lon="-1.58456">
        <ele>26.5</ele>
        <time>2021-12-27T15:52:28Z</time>
      </trkpt>
      <trkpt lat="49.38353" lon="-1.58462">
        <ele>27.3</ele>
        <time>2021-12-27T15:52:32Z</time>
      </trkpt>
      <trkpt lat="49.38351" lon="-1.58468">
        <ele>28.1</ele>
        <time>2021-12-27T15:52:37Z</time>
      </trkpt>
      <trkpt lat="49.38348" lon="-1.58475">
        <ele>28</ele>
        <time>2021-12-27T15:52:42Z</time>
      </trkpt>
      <trkpt lat="49.38346" lon="-1.58481">
        <ele>27.7</ele>
        <time>2021-12-27T15:52:48Z</time>
      </trkpt>
      <trkpt lat="49.38343" lon="-1.58489">
        <ele>28</ele>
        <time>2021-12-27T15:52:53Z</time>
      </trkpt>
      <trkpt lat="49.3834" lon="-1.58496">
        <ele>28.3</ele>
        <time>2021-12-27T15:52:57Z</time>
      </trkpt>
      <trkpt lat="49.38338" lon="-1.58502">
        <ele>28.9</ele>
        <time>2021-12-27T15:53:02Z</time>
      </trkpt>
      <trkpt lat="49.38336" lon="-1.58509">
        <ele>30</ele>
        <time>2021-12-27T15:53:07Z</time>
      </trkpt>
      <trkpt lat="49.38333" lon="-1.58515">
        <ele>31</ele>
        <time>2021-12-27T15:53:15Z</time>
      </trkpt>
      <trkpt lat="49.3833" lon="-1.58523">
        <ele>32</ele>
        <time>2021-12-27T15:53:22Z</time>
      </trkpt>
      <trkpt lat="49.38327" lon="-1.58531">
        <ele>33.5</ele>
        <time>2021-12-27T15:53:26Z</time>
      </trkpt>
      <trkpt lat="49.38324" lon="-1.58536">
        <ele>35.7</ele>
        <time>2021-12-27T15:53:31Z</time>
      </trkpt>
      <trkpt lat="49.38321" lon="-1.58542">
        <ele>38.8</ele>
        <time>2021-12-27T15:53:47Z</time>
      </trkpt>
      <trkpt lat="49.38317" lon="-1.58549">
        <ele>38.8</ele>
        <time>2021-12-27T15:53:52Z</time>
      </trkpt>
      <trkpt lat="49.38313" lon="-1.58557">
        <ele>38.8</ele>
        <time>2021-12-27T15:53:56Z</time>
      </trkpt>
      <trkpt lat="49.3831" lon="-1.58563">
        <ele>38.8</ele>
        <time>2021-12-27T15:53:59Z</time>
      </trkpt>
      <trkpt lat="49.38306" lon="-1.58569">
        <ele>38.9</ele>
        <time>2021-12-27T15:54:02Z</time>
      </trkpt>
      <trkpt lat="49.38302" lon="-1.58574">
        <ele>38.9</ele>
        <time>2021-12-27T15:54:06Z</time>
      </trkpt>
      <trkpt lat="49.38298" lon="-1.5858">
        <ele>38.8</ele>
        <time>2021-12-27T15:54:10Z</time>
      </trkpt>
      <trkpt lat="49.38293" lon="-1.58586">
        <ele>38.5</ele>
        <time>2021-12-27T15:54:15Z</time>
      </trkpt>
      <trkpt lat="49.38289" lon="-1.58593">
        <ele>38.5</ele>
        <time>2021-12-27T15:54:19Z</time>
      </trkpt>
      <trkpt lat="49.38286" lon="-1.586">
        <ele>39.1</ele>
        <time>2021-12-27T15:54:23Z</time>
      </trkpt>
      <trkpt lat="49.38283" lon="-1.58607">
        <ele>39.7</ele>
        <time>2021-12-27T15:54:27Z</time>
      </trkpt>
      <trkpt lat="49.38279" lon="-1.58615">
        <ele>40.6</ele>
        <time>2021-12-27T15:54:32Z</time>
      </trkpt>
      <trkpt lat="49.38277" lon="-1.58621">
        <ele>41.3</ele>
        <time>2021-12-27T15:54:37Z</time>
      </trkpt>
      <trkpt lat="49.38274" lon="-1.58628">
        <ele>41.3</ele>
        <time>2021-12-27T15:54:42Z</time>
      </trkpt>
      <trkpt lat="49.38271" lon="-1.58634">
        <ele>41</ele>
        <time>2021-12-27T15:54:46Z</time>
      </trkpt>
      <trkpt lat="49.38267" lon="-1.58641">
        <ele>40.5</ele>
        <time>2021-12-27T15:54:51Z</time>
      </trkpt>
      <trkpt lat="49.38264" lon="-1.58647">
        <ele>40.2</ele>
        <time>2021-12-27T15:54:56Z</time>
      </trkpt>
      <trkpt lat="49.38262" lon="-1.58653">
        <ele>40.4</ele>
        <time>2021-12-27T15:55:02Z</time>
      </trkpt>
      <trkpt lat="49.38259" lon="-1.58661">
        <ele>41.3</ele>
        <time>2021-12-27T15:55:08Z</time>
      </trkpt>
      <trkpt lat="49.38255" lon="-1.58667">
        <ele>43.1</ele>
        <time>2021-12-27T15:55:12Z</time>
      </trkpt>
      <trkpt lat="49.38252" lon="-1.58672">
        <ele>45.9</ele>
        <time>2021-12-27T15:55:18Z</time>
      </trkpt>
      <trkpt lat="49.38248" lon="-1.58679">
        <ele>47.9</ele>
        <time>2021-12-27T15:55:28Z</time>
      </trkpt>
      <trkpt lat="49.38245" lon="-1.58686">
        <ele>47.8</ele>
        <time>2021-12-27T15:55:37Z</time>
      </trkpt>
      <trkpt lat="49.38243" lon="-1.58692">
        <ele>47.7</ele>
        <time>2021-12-27T15:55:42Z</time>
      </trkpt>
      <trkpt lat="49.3824" lon="-1.58698">
        <ele>47.9</ele>
        <time>2021-12-27T15:55:46Z</time>
      </trkpt>
      <trkpt lat="49.38237" lon="-1.58704">
        <ele>48.1</ele>
        <time>2021-12-27T15:55:49Z</time>
      </trkpt>
      <trkpt lat="49.38234" lon="-1.5871">
        <ele>48.3</ele>
        <time>2021-12-27T15:55:52Z</time>
      </trkpt>
      <trkpt lat="49.38231" lon="-1.58717">
        <ele>48.5</ele>
        <time>2021-12-27T15:55:56Z</time>
      </trkpt>
      <trkpt lat="49.38228" lon="-1.58722">
        <ele>48.7</ele>
        <time>2021-12-27T15:55:59Z</time>
      </trkpt>
      <trkpt lat="49.38225" lon="-1.58729">
        <ele>49.1</ele>
        <time>2021-12-27T15:56:03Z</time>
      </trkpt>
      <trkpt lat="49.38221" lon="-1.58736">
        <ele>49.5</ele>
        <time>2021-12-27T15:56:08Z</time>
      </trkpt>
      <trkpt lat="49.38217" lon="-1.58743">
        <ele>49.8</ele>
        <time>2021-12-27T15:56:12Z</time>
      </trkpt>
      <trkpt lat="49.38214" lon="-1.58749">
        <ele>49.8</ele>
        <time>2021-12-27T15:56:17Z</time>
      </trkpt>
      <trkpt lat="49.3821" lon="-1.58757">
        <ele>49.5</ele>
        <time>2021-12-27T15:56:22Z</time>
      </trkpt>
      <trkpt lat="49.38206" lon="-1.58762">
        <ele>49.1</ele>
        <time>2021-12-27T15:56:26Z</time>
      </trkpt>
      <trkpt lat="49.38202" lon="-1.58766">
        <ele>48.9</ele>
        <time>2021-12-27T15:56:31Z</time>
      </trkpt>
      <trkpt lat="49.38199" lon="-1.58772">
        <ele>48.7</ele>
        <time>2021-12-27T15:56:36Z</time>
      </trkpt>
      <trkpt lat="49.38197" lon="-1.58779">
        <ele>48.6</ele>
        <time>2021-12-27T15:56:41Z</time>
      </trkpt>
      <trkpt lat="49.38194" lon="-1.58787">
        <ele>48.8</ele>
        <time>2021-12-27T15:56:46Z</time>
      </trkpt>
      <trkpt lat="49.38191" lon="-1.58794">
        <ele>49</ele>
        <time>2021-12-27T15:56:50Z</time>
      </trkpt>
      <trkpt lat="49.38189" lon="-1.58801">
        <ele>49.1</ele>
        <time>2021-12-27T15:56:55Z</time>
      </trkpt>
      <trkpt lat="49.38185" lon="-1.58808">
        <ele>49.1</ele>
        <time>2021-12-27T15:57:00Z</time>
      </trkpt>
      <trkpt lat="49.38181" lon="-1.58814">
        <ele>49.4</ele>
        <time>2021-12-27T15:57:05Z</time>
      </trkpt>
      <trkpt lat="49.38178" lon="-1.5882">
        <ele>50.1</ele>
        <time>2021-12-27T15:57:11Z</time>
      </trkpt>
      <trkpt lat="49.38175" lon="-1.58825">
        <ele>50.8</ele>
        <time>2021-12-27T15:57:15Z</time>
      </trkpt>
      <trkpt lat="49.38171" lon="-1.58832">
        <ele>51.8</ele>
        <time>2021-12-27T15:57:22Z</time>
      </trkpt>
      <trkpt lat="49.38168" lon="-1.58838">
        <ele>54.9</ele>
        <time>2021-12-27T15:57:28Z</time>
      </trkpt>
      <trkpt lat="49.38166" lon="-1.58844">
        <ele>58.8</ele>
        <time>2021-12-27T15:57:38Z</time>
      </trkpt>
      <trkpt lat="49.38164" lon="-1.58851">
        <ele>59</ele>
        <time>2021-12-27T15:57:42Z</time>
      </trkpt>
      <trkpt lat="49.3816" lon="-1.58858">
        <ele>58.8</ele>
        <time>2021-12-27T15:57:46Z</time>
      </trkpt>
      <trkpt lat="49.38155" lon="-1.58865">
        <ele>58.5</ele>
        <time>2021-12-27T15:57:49Z</time>
      </trkpt>
      <trkpt lat="49.38151" lon="-1.5887">
        <ele>58</ele>
        <time>2021-12-27T15:57:52Z</time>
      </trkpt>
      <trkpt lat="49.38147" lon="-1.58875">
        <ele>57.5</ele>
        <time>2021-12-27T15:57:56Z</time>
      </trkpt>
      <trkpt lat="49.38143" lon="-1.58882">
        <ele>56.8</ele>
        <time>2021-12-27T15:58:00Z</time>
      </trkpt>
      <trkpt lat="49.38139" lon="-1.5889">
        <ele>56.6</ele>
        <time>2021-12-27T15:58:04Z</time>
      </trkpt>
      <trkpt lat="49.38131" lon="-1.58909">
        <ele>56.8</ele>
        <time>2021-12-27T15:58:13Z</time>
      </trkpt>
      <trkpt lat="49.38129" lon="-1.58915">
        <ele>56.9</ele>
        <time>2021-12-27T15:58:17Z</time>
      </trkpt>
      <trkpt lat="49.38132" lon="-1.5892">
        <ele>58.5</ele>
        <time>2021-12-27T15:58:27Z</time>
      </trkpt>
      <trkpt lat="49.38136" lon="-1.58926">
        <ele>58.4</ele>
        <time>2021-12-27T15:58:30Z</time>
      </trkpt>
      <trkpt lat="49.38141" lon="-1.58929">
        <ele>57.7</ele>
        <time>2021-12-27T15:58:35Z</time>
      </trkpt>
      <trkpt lat="49.38146" lon="-1.58934">
        <ele>57.4</ele>
        <time>2021-12-27T15:58:38Z</time>
      </trkpt>
      <trkpt lat="49.38151" lon="-1.58937">
        <ele>57</ele>
        <time>2021-12-27T15:58:42Z</time>
      </trkpt>
      <trkpt lat="49.38157" lon="-1.58941">
        <ele>56.9</ele>
        <time>2021-12-27T15:58:46Z</time>
      </trkpt>
      <trkpt lat="49.38162" lon="-1.58942">
        <ele>57.1</ele>
        <time>2021-12-27T15:58:50Z</time>
      </trkpt>
      <trkpt lat="49.38167" lon="-1.58944">
        <ele>57.9</ele>
        <time>2021-12-27T15:58:56Z</time>
      </trkpt>
      <trkpt lat="49.38172" lon="-1.58945">
        <ele>58.3</ele>
        <time>2021-12-27T15:59:00Z</time>
      </trkpt>
      <trkpt lat="49.38176" lon="-1.58948">
        <ele>58.6</ele>
        <time>2021-12-27T15:59:04Z</time>
      </trkpt>
      <trkpt lat="49.3818" lon="-1.58952">
        <ele>58.7</ele>
        <time>2021-12-27T15:59:10Z</time>
      </trkpt>
      <trkpt lat="49.38186" lon="-1.58957">
        <ele>59</ele>
        <time>2021-12-27T15:59:13Z</time>
      </trkpt>
      <trkpt lat="49.3819" lon="-1.5896">
        <ele>59.2</ele>
        <time>2021-12-27T15:59:17Z</time>
      </trkpt>
      <trkpt lat="49.38195" lon="-1.58962">
        <ele>59.3</ele>
        <time>2021-12-27T15:59:23Z</time>
      </trkpt>
      <trkpt lat="49.382" lon="-1.58966">
        <ele>59.3</ele>
        <time>2021-12-27T15:59:28Z</time>
      </trkpt>
      <trkpt lat="49.38205" lon="-1.58967">
        <ele>59.4</ele>
        <time>2021-12-27T15:59:31Z</time>
      </trkpt>
      <trkpt lat="49.38212" lon="-1.58969">
        <ele>59.5</ele>
        <time>2021-12-27T15:59:35Z</time>
      </trkpt>
      <trkpt lat="49.38216" lon="-1.58971">
        <ele>59.7</ele>
        <time>2021-12-27T15:59:39Z</time>
      </trkpt>
      <trkpt lat="49.3822" lon="-1.58976">
        <ele>60.5</ele>
        <time>2021-12-27T15:59:48Z</time>
      </trkpt>
      <trkpt lat="49.38224" lon="-1.58981">
        <ele>60.2</ele>
        <time>2021-12-27T15:59:54Z</time>
      </trkpt>
      <trkpt lat="49.38228" lon="-1.58985">
        <ele>59.9</ele>
        <time>2021-12-27T15:59:57Z</time>
      </trkpt>
      <trkpt lat="49.38233" lon="-1.58989">
        <ele>59.8</ele>
        <time>2021-12-27T16:00:00Z</time>
      </trkpt>
      <trkpt lat="49.38249" lon="-1.59003">
        <ele>58.6</ele>
        <time>2021-12-27T16:00:10Z</time>
      </trkpt>
      <trkpt lat="49.38254" lon="-1.59006">
        <ele>58.4</ele>
        <time>2021-12-27T16:00:13Z</time>
      </trkpt>
      <trkpt lat="49.38259" lon="-1.59008">
        <ele>58.9</ele>
        <time>2021-12-27T16:00:17Z</time>
      </trkpt>
      <trkpt lat="49.38264" lon="-1.59009">
        <ele>59.9</ele>
        <time>2021-12-27T16:00:21Z</time>
      </trkpt>
      <trkpt lat="49.38269" lon="-1.59011">
        <ele>60.2</ele>
        <time>2021-12-27T16:00:26Z</time>
      </trkpt>
      <trkpt lat="49.38273" lon="-1.59015">
        <ele>60.2</ele>
        <time>2021-12-27T16:00:31Z</time>
      </trkpt>
      <trkpt lat="49.38278" lon="-1.59019">
        <ele>60</ele>
        <time>2021-12-27T16:00:34Z</time>
      </trkpt>
      <trkpt lat="49.38282" lon="-1.59023">
        <ele>60.2</ele>
        <time>2021-12-27T16:00:39Z</time>
      </trkpt>
      <trkpt lat="49.38288" lon="-1.59027">
        <ele>60.5</ele>
        <time>2021-12-27T16:00:44Z</time>
      </trkpt>
      <trkpt lat="49.38293" lon="-1.59032">
        <ele>61</ele>
        <time>2021-12-27T16:00:49Z</time>
      </trkpt>
      <trkpt lat="49.38297" lon="-1.59037">
        <ele>60.8</ele>
        <time>2021-12-27T16:00:53Z</time>
      </trkpt>
      <trkpt lat="49.38302" lon="-1.59041">
        <ele>60.1</ele>
        <time>2021-12-27T16:00:57Z</time>
      </trkpt>
      <trkpt lat="49.38306" lon="-1.59045">
        <ele>59.8</ele>
        <time>2021-12-27T16:01:02Z</time>
      </trkpt>
      <trkpt lat="49.38311" lon="-1.59049">
        <ele>60.4</ele>
        <time>2021-12-27T16:01:08Z</time>
      </trkpt>
      <trkpt lat="49.38316" lon="-1.59054">
        <ele>60.4</ele>
        <time>2021-12-27T16:01:12Z</time>
      </trkpt>
      <trkpt lat="49.3832" lon="-1.59057">
        <ele>60</ele>
        <time>2021-12-27T16:01:14Z</time>
      </trkpt>
      <trkpt lat="49.38325" lon="-1.59061">
        <ele>59.3</ele>
        <time>2021-12-27T16:01:20Z</time>
      </trkpt>
      <trkpt lat="49.38329" lon="-1.59067">
        <ele>59.3</ele>
        <time>2021-12-27T16:01:25Z</time>
      </trkpt>
      <trkpt lat="49.38334" lon="-1.59072">
        <ele>58.9</ele>
        <time>2021-12-27T16:01:29Z</time>
      </trkpt>
      <trkpt lat="49.38337" lon="-1.59078">
        <ele>58.3</ele>
        <time>2021-12-27T16:01:41Z</time>
      </trkpt>
      <trkpt lat="49.38341" lon="-1.59085">
        <ele>57.5</ele>
        <time>2021-12-27T16:01:45Z</time>
      </trkpt>
      <trkpt lat="49.38347" lon="-1.5909">
        <ele>57.1</ele>
        <time>2021-12-27T16:01:49Z</time>
      </trkpt>
      <trkpt lat="49.38351" lon="-1.59091">
        <ele>57.1</ele>
        <time>2021-12-27T16:01:54Z</time>
      </trkpt>
      <trkpt lat="49.38356" lon="-1.59092">
        <ele>57.4</ele>
        <time>2021-12-27T16:02:07Z</time>
      </trkpt>
      <trkpt lat="49.38361" lon="-1.59093">
        <ele>57</ele>
        <time>2021-12-27T16:02:10Z</time>
      </trkpt>
      <trkpt lat="49.38367" lon="-1.59092">
        <ele>56.8</ele>
        <time>2021-12-27T16:02:12Z</time>
      </trkpt>
      <trkpt lat="49.38373" lon="-1.59093">
        <ele>56.7</ele>
        <time>2021-12-27T16:02:15Z</time>
      </trkpt>
      <trkpt lat="49.38377" lon="-1.59092">
        <ele>57.1</ele>
        <time>2021-12-27T16:02:24Z</time>
      </trkpt>
      <trkpt lat="49.38382" lon="-1.59093">
        <ele>57.1</ele>
        <time>2021-12-27T16:02:29Z</time>
      </trkpt>
      <trkpt lat="49.38386" lon="-1.59095">
        <ele>57.1</ele>
        <time>2021-12-27T16:02:33Z</time>
      </trkpt>
      <trkpt lat="49.38391" lon="-1.59094">
        <ele>56.8</ele>
        <time>2021-12-27T16:02:38Z</time>
      </trkpt>
      <trkpt lat="49.38396" lon="-1.59095">
        <ele>56</ele>
        <time>2021-12-27T16:02:44Z</time>
      </trkpt>
      <trkpt lat="49.38401" lon="-1.59096">
        <ele>55</ele>
        <time>2021-12-27T16:02:54Z</time>
      </trkpt>
      <trkpt lat="49.38406" lon="-1.59095">
        <ele>54.5</ele>
        <time>2021-12-27T16:03:00Z</time>
      </trkpt>
      <trkpt lat="49.38413" lon="-1.59097">
        <ele>54.3</ele>
        <time>2021-12-27T16:03:05Z</time>
      </trkpt>
      <trkpt lat="49.38419" lon="-1.59098">
        <ele>54</ele>
        <time>2021-12-27T16:03:11Z</time>
      </trkpt>
      <trkpt lat="49.38423" lon="-1.59101">
        <ele>53.9</ele>
        <time>2021-12-27T16:03:15Z</time>
      </trkpt>
      <trkpt lat="49.38428" lon="-1.59102">
        <ele>53.8</ele>
        <time>2021-12-27T16:03:19Z</time>
      </trkpt>
      <trkpt lat="49.38433" lon="-1.59101">
        <ele>53.6</ele>
        <time>2021-12-27T16:03:24Z</time>
      </trkpt>
      <trkpt lat="49.38438" lon="-1.59099">
        <ele>53.6</ele>
        <time>2021-12-27T16:03:30Z</time>
      </trkpt>
      <trkpt lat="49.38443" lon="-1.59095">
        <ele>53.4</ele>
        <time>2021-12-27T16:03:35Z</time>
      </trkpt>
      <trkpt lat="49.38448" lon="-1.59091">
        <ele>53.1</ele>
        <time>2021-12-27T16:03:40Z</time>
      </trkpt>
      <trkpt lat="49.38452" lon="-1.59084">
        <ele>53</ele>
        <time>2021-12-27T16:03:46Z</time>
      </trkpt>
      <trkpt lat="49.38457" lon="-1.59085">
        <ele>54.1</ele>
        <time>2021-12-27T16:03:57Z</time>
      </trkpt>
      <trkpt lat="49.38463" lon="-1.59087">
        <ele>54.2</ele>
        <time>2021-12-27T16:04:01Z</time>
      </trkpt>
      <trkpt lat="49.3847" lon="-1.5909">
        <ele>53.4</ele>
        <time>2021-12-27T16:04:04Z</time>
      </trkpt>
      <trkpt lat="49.38475" lon="-1.59093">
        <ele>52.7</ele>
        <time>2021-12-27T16:04:06Z</time>
      </trkpt>
      <trkpt lat="49.38479" lon="-1.59095">
        <ele>52</ele>
        <time>2021-12-27T16:04:09Z</time>
      </trkpt>
      <trkpt lat="49.38485" lon="-1.59092">
        <ele>51.3</ele>
        <time>2021-12-27T16:04:17Z</time>
      </trkpt>
      <trkpt lat="49.3849" lon="-1.59092">
        <ele>50.7</ele>
        <time>2021-12-27T16:04:22Z</time>
      </trkpt>
      <trkpt lat="49.38496" lon="-1.59096">
        <ele>49.8</ele>
        <time>2021-12-27T16:04:27Z</time>
      </trkpt>
      <trkpt lat="49.385" lon="-1.59099">
        <ele>49.3</ele>
        <time>2021-12-27T16:04:30Z</time>
      </trkpt>
      <trkpt lat="49.38505" lon="-1.59102">
        <ele>48.2</ele>
        <time>2021-12-27T16:04:34Z</time>
      </trkpt>
      <trkpt lat="49.3851" lon="-1.59105">
        <ele>46.7</ele>
        <time>2021-12-27T16:04:39Z</time>
      </trkpt>
      <trkpt lat="49.38515" lon="-1.59109">
        <ele>45.7</ele>
        <time>2021-12-27T16:04:44Z</time>
      </trkpt>
      <trkpt lat="49.38521" lon="-1.59112">
        <ele>45.6</ele>
        <time>2021-12-27T16:04:48Z</time>
      </trkpt>
      <trkpt lat="49.38524" lon="-1.59107">
        <ele>46.1</ele>
        <time>2021-12-27T16:05:00Z</time>
      </trkpt>
      <trkpt lat="49.38529" lon="-1.59106">
        <ele>45.9</ele>
        <time>2021-12-27T16:05:05Z</time>
      </trkpt>
      <trkpt lat="49.38533" lon="-1.59102">
        <ele>45.8</ele>
        <time>2021-12-27T16:05:11Z</time>
      </trkpt>
      <trkpt lat="49.38538" lon="-1.59102">
        <ele>45.2</ele>
        <time>2021-12-27T16:05:43Z</time>
      </trkpt>
      <trkpt lat="49.38542" lon="-1.59104">
        <ele>44.8</ele>
        <time>2021-12-27T16:05:59Z</time>
      </trkpt>
      <trkpt lat="49.38547" lon="-1.59102">
        <ele>44.9</ele>
        <time>2021-12-27T16:06:06Z</time>
      </trkpt>
      <trkpt lat="49.38551" lon="-1.59107">
        <ele>44.4</ele>
        <time>2021-12-27T16:06:43Z</time>
      </trkpt>
      <trkpt lat="49.38556" lon="-1.59107">
        <ele>44.1</ele>
        <time>2021-12-27T16:06:49Z</time>
      </trkpt>
      <trkpt lat="49.38561" lon="-1.59105">
        <ele>42.9</ele>
        <time>2021-12-27T16:06:59Z</time>
      </trkpt>
      <trkpt lat="49.38566" lon="-1.59105">
        <ele>41.6</ele>
        <time>2021-12-27T16:07:03Z</time>
      </trkpt>
      <trkpt lat="49.38571" lon="-1.59106">
        <ele>40.7</ele>
        <time>2021-12-27T16:07:08Z</time>
      </trkpt>
      <trkpt lat="49.38576" lon="-1.59105">
        <ele>40.4</ele>
        <time>2021-12-27T16:07:11Z</time>
      </trkpt>
      <trkpt lat="49.3858" lon="-1.59104">
        <ele>40.3</ele>
        <time>2021-12-27T16:07:14Z</time>
      </trkpt>
      <trkpt lat="49.38586" lon="-1.59102">
        <ele>40</ele>
        <time>2021-12-27T16:07:18Z</time>
      </trkpt>
      <trkpt lat="49.38592" lon="-1.59101">
        <ele>39.3</ele>
        <time>2021-12-27T16:07:23Z</time>
      </trkpt>
      <trkpt lat="49.38598" lon="-1.59102">
        <ele>38.6</ele>
        <time>2021-12-27T16:07:28Z</time>
      </trkpt>
      <trkpt lat="49.38603" lon="-1.591">
        <ele>39.2</ele>
        <time>2021-12-27T16:07:33Z</time>
      </trkpt>
      <trkpt lat="49.38608" lon="-1.59101">
        <ele>39.5</ele>
        <time>2021-12-27T16:07:38Z</time>
      </trkpt>
      <trkpt lat="49.38614" lon="-1.59102">
        <ele>39.6</ele>
        <time>2021-12-27T16:07:42Z</time>
      </trkpt>
      <trkpt lat="49.38619" lon="-1.59103">
        <ele>39.7</ele>
        <time>2021-12-27T16:07:46Z</time>
      </trkpt>
      <trkpt lat="49.38624" lon="-1.59104">
        <ele>40.1</ele>
        <time>2021-12-27T16:07:52Z</time>
      </trkpt>
      <trkpt lat="49.38629" lon="-1.59104">
        <ele>39.9</ele>
        <time>2021-12-27T16:07:57Z</time>
      </trkpt>
      <trkpt lat="49.38634" lon="-1.59105">
        <ele>39.1</ele>
        <time>2021-12-27T16:08:01Z</time>
      </trkpt>
      <trkpt lat="49.38639" lon="-1.59105">
        <ele>38.5</ele>
        <time>2021-12-27T16:08:04Z</time>
      </trkpt>
      <trkpt lat="49.38644" lon="-1.59105">
        <ele>38</ele>
        <time>2021-12-27T16:08:06Z</time>
      </trkpt>
      <trkpt lat="49.38649" lon="-1.59103">
        <ele>37.6</ele>
        <time>2021-12-27T16:08:09Z</time>
      </trkpt>
      <trkpt lat="49.38656" lon="-1.59103">
        <ele>37.6</ele>
        <time>2021-12-27T16:08:13Z</time>
      </trkpt>
      <trkpt lat="49.3866" lon="-1.59101">
        <ele>37.7</ele>
        <time>2021-12-27T16:08:35Z</time>
      </trkpt>
      <trkpt lat="49.38665" lon="-1.59101">
        <ele>34.7</ele>
        <time>2021-12-27T16:09:47Z</time>
      </trkpt>
      <trkpt lat="49.3867" lon="-1.59103">
        <ele>34.7</ele>
        <time>2021-12-27T16:10:01Z</time>
      </trkpt>
      <trkpt lat="49.38674" lon="-1.59104">
        <ele>34.3</ele>
        <time>2021-12-27T16:10:06Z</time>
      </trkpt>
      <trkpt lat="49.3868" lon="-1.59106">
        <ele>33.5</ele>
        <time>2021-12-27T16:10:14Z</time>
      </trkpt>
      <trkpt lat="49.38684" lon="-1.5911">
        <ele>32.9</ele>
        <time>2021-12-27T16:10:20Z</time>
      </trkpt>
      <trkpt lat="49.3869" lon="-1.59114">
        <ele>32.4</ele>
        <time>2021-12-27T16:10:24Z</time>
      </trkpt>
      <trkpt lat="49.38694" lon="-1.59115">
        <ele>32.1</ele>
        <time>2021-12-27T16:10:28Z</time>
      </trkpt>
      <trkpt lat="49.38701" lon="-1.59117">
        <ele>32.2</ele>
        <time>2021-12-27T16:10:33Z</time>
      </trkpt>
      <trkpt lat="49.38706" lon="-1.59117">
        <ele>32.6</ele>
        <time>2021-12-27T16:10:36Z</time>
      </trkpt>
      <trkpt lat="49.38711" lon="-1.59117">
        <ele>32.8</ele>
        <time>2021-12-27T16:10:39Z</time>
      </trkpt>
      <trkpt lat="49.38716" lon="-1.59117">
        <ele>33.5</ele>
        <time>2021-12-27T16:10:42Z</time>
      </trkpt>
      <trkpt lat="49.38722" lon="-1.59117">
        <ele>34.4</ele>
        <time>2021-12-27T16:10:46Z</time>
      </trkpt>
      <trkpt lat="49.38727" lon="-1.59117">
        <ele>36.6</ele>
        <time>2021-12-27T16:10:56Z</time>
      </trkpt>
      <trkpt lat="49.38733" lon="-1.59119">
        <ele>36.7</ele>
        <time>2021-12-27T16:11:01Z</time>
      </trkpt>
      <trkpt lat="49.38738" lon="-1.5912">
        <ele>36.6</ele>
        <time>2021-12-27T16:11:04Z</time>
      </trkpt>
      <trkpt lat="49.38743" lon="-1.59121">
        <ele>36.4</ele>
        <time>2021-12-27T16:11:08Z</time>
      </trkpt>
      <trkpt lat="49.38749" lon="-1.59122">
        <ele>35.8</ele>
        <time>2021-12-27T16:11:13Z</time>
      </trkpt>
      <trkpt lat="49.38753" lon="-1.59125">
        <ele>36.2</ele>
        <time>2021-12-27T16:11:22Z</time>
      </trkpt>
      <trkpt lat="49.38759" lon="-1.59126">
        <ele>37.2</ele>
        <time>2021-12-27T16:11:27Z</time>
      </trkpt>
      <trkpt lat="49.38763" lon="-1.59129">
        <ele>38</ele>
        <time>2021-12-27T16:11:32Z</time>
      </trkpt>
      <trkpt lat="49.38769" lon="-1.5913">
        <ele>38.3</ele>
        <time>2021-12-27T16:11:37Z</time>
      </trkpt>
      <trkpt lat="49.38774" lon="-1.59132">
        <ele>38.2</ele>
        <time>2021-12-27T16:11:42Z</time>
      </trkpt>
      <trkpt lat="49.38779" lon="-1.59134">
        <ele>38.2</ele>
        <time>2021-12-27T16:11:46Z</time>
      </trkpt>
      <trkpt lat="49.38784" lon="-1.59137">
        <ele>38.5</ele>
        <time>2021-12-27T16:11:52Z</time>
      </trkpt>
      <trkpt lat="49.38788" lon="-1.59141">
        <ele>38.8</ele>
        <time>2021-12-27T16:12:04Z</time>
      </trkpt>
      <trkpt lat="49.38793" lon="-1.59146">
        <ele>38.8</ele>
        <time>2021-12-27T16:12:09Z</time>
      </trkpt>
      <trkpt lat="49.38796" lon="-1.59153">
        <ele>38.8</ele>
        <time>2021-12-27T16:12:16Z</time>
      </trkpt>
      <trkpt lat="49.38799" lon="-1.59161">
        <ele>39.1</ele>
        <time>2021-12-27T16:12:21Z</time>
      </trkpt>
      <trkpt lat="49.38801" lon="-1.59167">
        <ele>39.2</ele>
        <time>2021-12-27T16:12:25Z</time>
      </trkpt>
      <trkpt lat="49.38804" lon="-1.59173">
        <ele>39.3</ele>
        <time>2021-12-27T16:12:34Z</time>
      </trkpt>
      <trkpt lat="49.38806" lon="-1.5918">
        <ele>38.5</ele>
        <time>2021-12-27T16:12:46Z</time>
      </trkpt>
      <trkpt lat="49.38807" lon="-1.59189">
        <ele>38.7</ele>
        <time>2021-12-27T16:12:51Z</time>
      </trkpt>
      <trkpt lat="49.38809" lon="-1.59198">
        <ele>38.9</ele>
        <time>2021-12-27T16:12:54Z</time>
      </trkpt>
      <trkpt lat="49.3881" lon="-1.59206">
        <ele>39.3</ele>
        <time>2021-12-27T16:12:59Z</time>
      </trkpt>
      <trkpt lat="49.38811" lon="-1.59214">
        <ele>39.8</ele>
        <time>2021-12-27T16:13:04Z</time>
      </trkpt>
      <trkpt lat="49.38811" lon="-1.59223">
        <ele>40.1</ele>
        <time>2021-12-27T16:13:11Z</time>
      </trkpt>
      <trkpt lat="49.38811" lon="-1.59232">
        <ele>40.1</ele>
        <time>2021-12-27T16:13:15Z</time>
      </trkpt>
      <trkpt lat="49.38812" lon="-1.59241">
        <ele>40.2</ele>
        <time>2021-12-27T16:13:19Z</time>
      </trkpt>
      <trkpt lat="49.38815" lon="-1.59247">
        <ele>40.9</ele>
        <time>2021-12-27T16:13:24Z</time>
      </trkpt>
      <trkpt lat="49.38818" lon="-1.59254">
        <ele>41.4</ele>
        <time>2021-12-27T16:13:32Z</time>
      </trkpt>
      <trkpt lat="49.3882" lon="-1.5926">
        <ele>40.7</ele>
        <time>2021-12-27T16:13:38Z</time>
      </trkpt>
      <trkpt lat="49.38822" lon="-1.59269">
        <ele>39.5</ele>
        <time>2021-12-27T16:13:44Z</time>
      </trkpt>
      <trkpt lat="49.38821" lon="-1.59288">
        <ele>39.2</ele>
        <time>2021-12-27T16:13:49Z</time>
      </trkpt>
      <trkpt lat="49.38821" lon="-1.59298">
        <ele>39.5</ele>
        <time>2021-12-27T16:13:54Z</time>
      </trkpt>
      <trkpt lat="49.38822" lon="-1.59305">
        <ele>40.6</ele>
        <time>2021-12-27T16:13:59Z</time>
      </trkpt>
      <trkpt lat="49.38824" lon="-1.59312">
        <ele>42.9</ele>
        <time>2021-12-27T16:14:08Z</time>
      </trkpt>
      <trkpt lat="49.38825" lon="-1.59318">
        <ele>43.7</ele>
        <time>2021-12-27T16:14:14Z</time>
      </trkpt>
      <trkpt lat="49.38827" lon="-1.59326">
        <ele>43.7</ele>
        <time>2021-12-27T16:14:23Z</time>
      </trkpt>
      <trkpt lat="49.38828" lon="-1.59336">
        <ele>43.4</ele>
        <time>2021-12-27T16:14:27Z</time>
      </trkpt>
      <trkpt lat="49.38827" lon="-1.59343">
        <ele>42.8</ele>
        <time>2021-12-27T16:14:30Z</time>
      </trkpt>
      <trkpt lat="49.38823" lon="-1.59347">
        <ele>40.3</ele>
        <time>2021-12-27T16:14:40Z</time>
      </trkpt>
      <trkpt lat="49.38818" lon="-1.59347">
        <ele>38.1</ele>
        <time>2021-12-27T16:14:50Z</time>
      </trkpt>
      <trkpt lat="49.38813" lon="-1.59349">
        <ele>38.2</ele>
        <time>2021-12-27T16:14:54Z</time>
      </trkpt>
      <trkpt lat="49.38809" lon="-1.59351">
        <ele>38</ele>
        <time>2021-12-27T16:14:58Z</time>
      </trkpt>
      <trkpt lat="49.38803" lon="-1.59352">
        <ele>37.6</ele>
        <time>2021-12-27T16:15:01Z</time>
      </trkpt>
      <trkpt lat="49.38798" lon="-1.59352">
        <ele>36.8</ele>
        <time>2021-12-27T16:15:06Z</time>
      </trkpt>
      <trkpt lat="49.38793" lon="-1.59351">
        <ele>36.4</ele>
        <time>2021-12-27T16:15:10Z</time>
      </trkpt>
      <trkpt lat="49.38788" lon="-1.5935">
        <ele>36.3</ele>
        <time>2021-12-27T16:15:15Z</time>
      </trkpt>
      <trkpt lat="49.38783" lon="-1.59349">
        <ele>36.1</ele>
        <time>2021-12-27T16:15:25Z</time>
      </trkpt>
      <trkpt lat="49.38778" lon="-1.5935">
        <ele>36.1</ele>
        <time>2021-12-27T16:15:29Z</time>
      </trkpt>
      <trkpt lat="49.38772" lon="-1.5935">
        <ele>36.6</ele>
        <time>2021-12-27T16:15:32Z</time>
      </trkpt>
      <trkpt lat="49.38749" lon="-1.59349">
        <ele>37.7</ele>
        <time>2021-12-27T16:15:44Z</time>
      </trkpt>
      <trkpt lat="49.38742" lon="-1.5935">
        <ele>37.8</ele>
        <time>2021-12-27T16:15:48Z</time>
      </trkpt>
      <trkpt lat="49.38725" lon="-1.59347">
        <ele>41.2</ele>
        <time>2021-12-27T16:15:58Z</time>
      </trkpt>
      <trkpt lat="49.3872" lon="-1.59347">
        <ele>42.2</ele>
        <time>2021-12-27T16:16:03Z</time>
      </trkpt>
      <trkpt lat="49.38714" lon="-1.59348">
        <ele>42.6</ele>
        <time>2021-12-27T16:16:09Z</time>
      </trkpt>
      <trkpt lat="49.38709" lon="-1.5935">
        <ele>42.8</ele>
        <time>2021-12-27T16:16:16Z</time>
      </trkpt>
      <trkpt lat="49.38703" lon="-1.5935">
        <ele>42.9</ele>
        <time>2021-12-27T16:16:22Z</time>
      </trkpt>
      <trkpt lat="49.38699" lon="-1.5935">
        <ele>42.4</ele>
        <time>2021-12-27T16:16:29Z</time>
      </trkpt>
      <trkpt lat="49.38693" lon="-1.5935">
        <ele>41.8</ele>
        <time>2021-12-27T16:16:35Z</time>
      </trkpt>
      <trkpt lat="49.38688" lon="-1.5935">
        <ele>41.5</ele>
        <time>2021-12-27T16:16:38Z</time>
      </trkpt>
      <trkpt lat="49.38681" lon="-1.5935">
        <ele>41.4</ele>
        <time>2021-12-27T16:16:41Z</time>
      </trkpt>
      <trkpt lat="49.38676" lon="-1.5935">
        <ele>41.2</ele>
        <time>2021-12-27T16:16:44Z</time>
      </trkpt>
      <trkpt lat="49.3867" lon="-1.5935">
        <ele>41</ele>
        <time>2021-12-27T16:16:47Z</time>
      </trkpt>
      <trkpt lat="49.38665" lon="-1.5935">
        <ele>40.9</ele>
        <time>2021-12-27T16:16:50Z</time>
      </trkpt>
      <trkpt lat="49.38659" lon="-1.59349">
        <ele>40.8</ele>
        <time>2021-12-27T16:16:53Z</time>
      </trkpt>
      <trkpt lat="49.38652" lon="-1.59349">
        <ele>40.8</ele>
        <time>2021-12-27T16:16:54Z</time>
      </trkpt>
      <trkpt lat="49.38646" lon="-1.59349">
        <ele>41.4</ele>
        <time>2021-12-27T16:16:58Z</time>
      </trkpt>
      <trkpt lat="49.38642" lon="-1.5935">
        <ele>41.7</ele>
        <time>2021-12-27T16:17:01Z</time>
      </trkpt>
      <trkpt lat="49.38637" lon="-1.59351">
        <ele>41.8</ele>
        <time>2021-12-27T16:17:06Z</time>
      </trkpt>
      <trkpt lat="49.38632" lon="-1.59351">
        <ele>41.3</ele>
        <time>2021-12-27T16:17:10Z</time>
      </trkpt>
      <trkpt lat="49.38628" lon="-1.5935">
        <ele>41.3</ele>
        <time>2021-12-27T16:17:17Z</time>
      </trkpt>
      <trkpt lat="49.38622" lon="-1.59349">
        <ele>42.5</ele>
        <time>2021-12-27T16:17:33Z</time>
      </trkpt>
      <trkpt lat="49.38615" lon="-1.59349">
        <ele>42.4</ele>
        <time>2021-12-27T16:17:41Z</time>
      </trkpt>
      <trkpt lat="49.3861" lon="-1.59349">
        <ele>42.4</ele>
        <time>2021-12-27T16:17:45Z</time>
      </trkpt>
      <trkpt lat="49.38605" lon="-1.59349">
        <ele>42.1</ele>
        <time>2021-12-27T16:17:54Z</time>
      </trkpt>
      <trkpt lat="49.38599" lon="-1.59349">
        <ele>41.9</ele>
        <time>2021-12-27T16:17:58Z</time>
      </trkpt>
      <trkpt lat="49.38593" lon="-1.59349">
        <ele>41.8</ele>
        <time>2021-12-27T16:18:01Z</time>
      </trkpt>
      <trkpt lat="49.38583" lon="-1.59348">
        <ele>41.7</ele>
        <time>2021-12-27T16:18:06Z</time>
      </trkpt>
      <trkpt lat="49.38578" lon="-1.59348">
        <ele>41.7</ele>
        <time>2021-12-27T16:18:08Z</time>
      </trkpt>
      <trkpt lat="49.38572" lon="-1.5935">
        <ele>41.7</ele>
        <time>2021-12-27T16:18:12Z</time>
      </trkpt>
      <trkpt lat="49.38566" lon="-1.59349">
        <ele>41.8</ele>
        <time>2021-12-27T16:18:17Z</time>
      </trkpt>
      <trkpt lat="49.38562" lon="-1.59347">
        <ele>42.9</ele>
        <time>2021-12-27T16:18:24Z</time>
      </trkpt>
      <trkpt lat="49.38556" lon="-1.59348">
        <ele>43.6</ele>
        <time>2021-12-27T16:18:28Z</time>
      </trkpt>
      <trkpt lat="49.38539" lon="-1.59345">
        <ele>45.3</ele>
        <time>2021-12-27T16:18:38Z</time>
      </trkpt>
      <trkpt lat="49.38534" lon="-1.59344">
        <ele>45.7</ele>
        <time>2021-12-27T16:18:43Z</time>
      </trkpt>
      <trkpt lat="49.38529" lon="-1.59344">
        <ele>45.4</ele>
        <time>2021-12-27T16:18:48Z</time>
      </trkpt>
      <trkpt lat="49.38524" lon="-1.59343">
        <ele>45.2</ele>
        <time>2021-12-27T16:18:53Z</time>
      </trkpt>
      <trkpt lat="49.38519" lon="-1.59344">
        <ele>45.1</ele>
        <time>2021-12-27T16:18:57Z</time>
      </trkpt>
      <trkpt lat="49.38514" lon="-1.59344">
        <ele>45</ele>
        <time>2021-12-27T16:19:01Z</time>
      </trkpt>
      <trkpt lat="49.38509" lon="-1.59344">
        <ele>45.1</ele>
        <time>2021-12-27T16:19:05Z</time>
      </trkpt>
      <trkpt lat="49.38505" lon="-1.59345">
        <ele>45.7</ele>
        <time>2021-12-27T16:19:12Z</time>
      </trkpt>
      <trkpt lat="49.38498" lon="-1.59346">
        <ele>46.3</ele>
        <time>2021-12-27T16:19:19Z</time>
      </trkpt>
      <trkpt lat="49.38493" lon="-1.59346">
        <ele>46.3</ele>
        <time>2021-12-27T16:19:23Z</time>
      </trkpt>
      <trkpt lat="49.38487" lon="-1.59347">
        <ele>46.3</ele>
        <time>2021-12-27T16:19:34Z</time>
      </trkpt>
      <trkpt lat="49.38481" lon="-1.59346">
        <ele>46.3</ele>
        <time>2021-12-27T16:19:38Z</time>
      </trkpt>
      <trkpt lat="49.38475" lon="-1.59346">
        <ele>46.3</ele>
        <time>2021-12-27T16:19:41Z</time>
      </trkpt>
      <trkpt lat="49.3847" lon="-1.59347">
        <ele>46.5</ele>
        <time>2021-12-27T16:19:45Z</time>
      </trkpt>
      <trkpt lat="49.38464" lon="-1.59346">
        <ele>46.9</ele>
        <time>2021-12-27T16:19:49Z</time>
      </trkpt>
      <trkpt lat="49.38457" lon="-1.59346">
        <ele>46.8</ele>
        <time>2021-12-27T16:19:54Z</time>
      </trkpt>
      <trkpt lat="49.38451" lon="-1.59344">
        <ele>46.4</ele>
        <time>2021-12-27T16:19:58Z</time>
      </trkpt>
      <trkpt lat="49.38445" lon="-1.59345">
        <ele>46.1</ele>
        <time>2021-12-27T16:20:02Z</time>
      </trkpt>
      <trkpt lat="49.38438" lon="-1.59344">
        <ele>45.9</ele>
        <time>2021-12-27T16:20:04Z</time>
      </trkpt>
      <trkpt lat="49.38434" lon="-1.59344">
        <ele>45.8</ele>
        <time>2021-12-27T16:20:08Z</time>
      </trkpt>
      <trkpt lat="49.38428" lon="-1.59346">
        <ele>45.5</ele>
        <time>2021-12-27T16:20:12Z</time>
      </trkpt>
      <trkpt lat="49.38423" lon="-1.59347">
        <ele>45.1</ele>
        <time>2021-12-27T16:20:21Z</time>
      </trkpt>
      <trkpt lat="49.38418" lon="-1.59348">
        <ele>45</ele>
        <time>2021-12-27T16:20:25Z</time>
      </trkpt>
      <trkpt lat="49.38412" lon="-1.59348">
        <ele>45</ele>
        <time>2021-12-27T16:20:29Z</time>
      </trkpt>
      <trkpt lat="49.38406" lon="-1.59348">
        <ele>45.2</ele>
        <time>2021-12-27T16:20:32Z</time>
      </trkpt>
      <trkpt lat="49.38401" lon="-1.59348">
        <ele>45.6</ele>
        <time>2021-12-27T16:20:36Z</time>
      </trkpt>
      <trkpt lat="49.38393" lon="-1.59349">
        <ele>46.1</ele>
        <time>2021-12-27T16:20:40Z</time>
      </trkpt>
      <trkpt lat="49.38388" lon="-1.5935">
        <ele>47.9</ele>
        <time>2021-12-27T16:20:45Z</time>
      </trkpt>
      <trkpt lat="49.38382" lon="-1.5935">
        <ele>51</ele>
        <time>2021-12-27T16:21:02Z</time>
      </trkpt>
      <trkpt lat="49.38377" lon="-1.59351">
        <ele>50.8</ele>
        <time>2021-12-27T16:21:05Z</time>
      </trkpt>
      <trkpt lat="49.38371" lon="-1.59351">
        <ele>50.8</ele>
        <time>2021-12-27T16:21:07Z</time>
      </trkpt>
      <trkpt lat="49.38365" lon="-1.59351">
        <ele>50.8</ele>
        <time>2021-12-27T16:21:09Z</time>
      </trkpt>
      <trkpt lat="49.3836" lon="-1.59351">
        <ele>50.9</ele>
        <time>2021-12-27T16:21:12Z</time>
      </trkpt>
      <trkpt lat="49.38355" lon="-1.5935">
        <ele>51</ele>
        <time>2021-12-27T16:21:15Z</time>
      </trkpt>
      <trkpt lat="49.38348" lon="-1.5935">
        <ele>51.4</ele>
        <time>2021-12-27T16:21:21Z</time>
      </trkpt>
      <trkpt lat="49.38342" lon="-1.5935">
        <ele>52</ele>
        <time>2021-12-27T16:21:25Z</time>
      </trkpt>
      <trkpt lat="49.38337" lon="-1.5935">
        <ele>54.5</ele>
        <time>2021-12-27T16:21:31Z</time>
      </trkpt>
      <trkpt lat="49.38331" lon="-1.59349">
        <ele>56.2</ele>
        <time>2021-12-27T16:21:41Z</time>
      </trkpt>
      <trkpt lat="49.38323" lon="-1.5935">
        <ele>56</ele>
        <time>2021-12-27T16:21:43Z</time>
      </trkpt>
      <trkpt lat="49.38318" lon="-1.59349">
        <ele>55.8</ele>
        <time>2021-12-27T16:21:46Z</time>
      </trkpt>
      <trkpt lat="49.38311" lon="-1.59348">
        <ele>55.5</ele>
        <time>2021-12-27T16:21:48Z</time>
      </trkpt>
      <trkpt lat="49.38305" lon="-1.59348">
        <ele>55.1</ele>
        <time>2021-12-27T16:21:51Z</time>
      </trkpt>
      <trkpt lat="49.383" lon="-1.59348">
        <ele>54.6</ele>
        <time>2021-12-27T16:21:54Z</time>
      </trkpt>
      <trkpt lat="49.38294" lon="-1.59348">
        <ele>54.4</ele>
        <time>2021-12-27T16:21:59Z</time>
      </trkpt>
      <trkpt lat="49.38288" lon="-1.59347">
        <ele>54.1</ele>
        <time>2021-12-27T16:22:04Z</time>
      </trkpt>
      <trkpt lat="49.38283" lon="-1.59346">
        <ele>53.6</ele>
        <time>2021-12-27T16:22:08Z</time>
      </trkpt>
      <trkpt lat="49.38276" lon="-1.59346">
        <ele>53.5</ele>
        <time>2021-12-27T16:22:12Z</time>
      </trkpt>
      <trkpt lat="49.38271" lon="-1.59346">
        <ele>53.7</ele>
        <time>2021-12-27T16:22:16Z</time>
      </trkpt>
      <trkpt lat="49.38265" lon="-1.59346">
        <ele>54.2</ele>
        <time>2021-12-27T16:22:20Z</time>
      </trkpt>
      <trkpt lat="49.3826" lon="-1.59347">
        <ele>54.3</ele>
        <time>2021-12-27T16:22:24Z</time>
      </trkpt>
      <trkpt lat="49.38254" lon="-1.59347">
        <ele>54.4</ele>
        <time>2021-12-27T16:22:28Z</time>
      </trkpt>
      <trkpt lat="49.38249" lon="-1.59347">
        <ele>55.6</ele>
        <time>2021-12-27T16:22:33Z</time>
      </trkpt>
      <trkpt lat="49.38245" lon="-1.59348">
        <ele>57.5</ele>
        <time>2021-12-27T16:22:38Z</time>
      </trkpt>
      <trkpt lat="49.3824" lon="-1.59348">
        <ele>58.1</ele>
        <time>2021-12-27T16:22:57Z</time>
      </trkpt>
      <trkpt lat="49.38235" lon="-1.59349">
        <ele>59.2</ele>
        <time>2021-12-27T16:23:09Z</time>
      </trkpt>
      <trkpt lat="49.3823" lon="-1.59347">
        <ele>59.6</ele>
        <time>2021-12-27T16:23:14Z</time>
      </trkpt>
      <trkpt lat="49.38225" lon="-1.59346">
        <ele>59.7</ele>
        <time>2021-12-27T16:23:19Z</time>
      </trkpt>
      <trkpt lat="49.3822" lon="-1.59344">
        <ele>59.7</ele>
        <time>2021-12-27T16:23:23Z</time>
      </trkpt>
      <trkpt lat="49.38215" lon="-1.59344">
        <ele>59.7</ele>
        <time>2021-12-27T16:23:26Z</time>
      </trkpt>
      <trkpt lat="49.38209" lon="-1.59343">
        <ele>59.6</ele>
        <time>2021-12-27T16:23:30Z</time>
      </trkpt>
      <trkpt lat="49.38204" lon="-1.59343">
        <ele>59.6</ele>
        <time>2021-12-27T16:23:33Z</time>
      </trkpt>
      <trkpt lat="49.38199" lon="-1.59344">
        <ele>59.3</ele>
        <time>2021-12-27T16:23:38Z</time>
      </trkpt>
      <trkpt lat="49.38193" lon="-1.59345">
        <ele>58.7</ele>
        <time>2021-12-27T16:23:42Z</time>
      </trkpt>
      <trkpt lat="49.38188" lon="-1.59346">
        <ele>58.3</ele>
        <time>2021-12-27T16:23:48Z</time>
      </trkpt>
      <trkpt lat="49.38183" lon="-1.59348">
        <ele>58.3</ele>
        <time>2021-12-27T16:23:52Z</time>
      </trkpt>
      <trkpt lat="49.38176" lon="-1.59348">
        <ele>57.7</ele>
        <time>2021-12-27T16:23:57Z</time>
      </trkpt>
      <trkpt lat="49.38171" lon="-1.59348">
        <ele>57.2</ele>
        <time>2021-12-27T16:24:02Z</time>
      </trkpt>
      <trkpt lat="49.38165" lon="-1.59348">
        <ele>57</ele>
        <time>2021-12-27T16:24:06Z</time>
      </trkpt>
      <trkpt lat="49.38161" lon="-1.59347">
        <ele>57</ele>
        <time>2021-12-27T16:24:10Z</time>
      </trkpt>
      <trkpt lat="49.38156" lon="-1.59348">
        <ele>57</ele>
        <time>2021-12-27T16:24:14Z</time>
      </trkpt>
      <trkpt lat="49.3815" lon="-1.5935">
        <ele>56.8</ele>
        <time>2021-12-27T16:24:19Z</time>
      </trkpt>
      <trkpt lat="49.38145" lon="-1.59351">
        <ele>56.5</ele>
        <time>2021-12-27T16:24:25Z</time>
      </trkpt>
      <trkpt lat="49.3814" lon="-1.59351">
        <ele>55.3</ele>
        <time>2021-12-27T16:24:32Z</time>
      </trkpt>
      <trkpt lat="49.38134" lon="-1.5935">
        <ele>54.2</ele>
        <time>2021-12-27T16:24:37Z</time>
      </trkpt>
      <trkpt lat="49.38129" lon="-1.59349">
        <ele>54.1</ele>
        <time>2021-12-27T16:24:41Z</time>
      </trkpt>
      <trkpt lat="49.38124" lon="-1.59347">
        <ele>54.5</ele>
        <time>2021-12-27T16:24:49Z</time>
      </trkpt>
      <trkpt lat="49.38118" lon="-1.59346">
        <ele>55.1</ele>
        <time>2021-12-27T16:24:54Z</time>
      </trkpt>
      <trkpt lat="49.38113" lon="-1.59346">
        <ele>55.6</ele>
        <time>2021-12-27T16:24:58Z</time>
      </trkpt>
      <trkpt lat="49.38108" lon="-1.59346">
        <ele>55.8</ele>
        <time>2021-12-27T16:25:03Z</time>
      </trkpt>
      <trkpt lat="49.38102" lon="-1.59346">
        <ele>55.7</ele>
        <time>2021-12-27T16:25:08Z</time>
      </trkpt>
      <trkpt lat="49.38096" lon="-1.59347">
        <ele>55.5</ele>
        <time>2021-12-27T16:25:13Z</time>
      </trkpt>
      <trkpt lat="49.38091" lon="-1.59348">
        <ele>55.4</ele>
        <time>2021-12-27T16:25:19Z</time>
      </trkpt>
      <trkpt lat="49.38085" lon="-1.59348">
        <ele>55.3</ele>
        <time>2021-12-27T16:25:23Z</time>
      </trkpt>
      <trkpt lat="49.3808" lon="-1.59349">
        <ele>55</ele>
        <time>2021-12-27T16:25:27Z</time>
      </trkpt>
      <trkpt lat="49.38075" lon="-1.59349">
        <ele>54.4</ele>
        <time>2021-12-27T16:25:32Z</time>
      </trkpt>
      <trkpt lat="49.38069" lon="-1.59349">
        <ele>53.2</ele>
        <time>2021-12-27T16:25:37Z</time>
      </trkpt>
      <trkpt lat="49.38064" lon="-1.59349">
        <ele>52.3</ele>
        <time>2021-12-27T16:25:42Z</time>
      </trkpt>
      <trkpt lat="49.3806" lon="-1.59349">
        <ele>52.1</ele>
        <time>2021-12-27T16:25:50Z</time>
      </trkpt>
      <trkpt lat="49.38055" lon="-1.59348">
        <ele>51.3</ele>
        <time>2021-12-27T16:25:59Z</time>
      </trkpt>
      <trkpt lat="49.38051" lon="-1.59347">
        <ele>51.3</ele>
        <time>2021-12-27T16:26:04Z</time>
      </trkpt>
      <trkpt lat="49.38043" lon="-1.59347">
        <ele>51.2</ele>
        <time>2021-12-27T16:26:09Z</time>
      </trkpt>
      <trkpt lat="49.38037" lon="-1.59347">
        <ele>51.1</ele>
        <time>2021-12-27T16:26:14Z</time>
      </trkpt>
      <trkpt lat="49.38031" lon="-1.59348">
        <ele>52.3</ele>
        <time>2021-12-27T16:26:33Z</time>
      </trkpt>
      <trkpt lat="49.38025" lon="-1.59349">
        <ele>51.6</ele>
        <time>2021-12-27T16:26:36Z</time>
      </trkpt>
      <trkpt lat="49.37988" lon="-1.59346">
        <ele>51.4</ele>
        <time>2021-12-27T16:26:55Z</time>
      </trkpt>
      <trkpt lat="49.37983" lon="-1.59346">
        <ele>52</ele>
        <time>2021-12-27T16:26:59Z</time>
      </trkpt>
      <trkpt lat="49.37978" lon="-1.59347">
        <ele>52.3</ele>
        <time>2021-12-27T16:27:03Z</time>
      </trkpt>
      <trkpt lat="49.37974" lon="-1.59349">
        <ele>52.2</ele>
        <time>2021-12-27T16:27:06Z</time>
      </trkpt>
      <trkpt lat="49.37969" lon="-1.5935">
        <ele>52</ele>
        <time>2021-12-27T16:27:10Z</time>
      </trkpt>
      <trkpt lat="49.37964" lon="-1.59353">
        <ele>51.8</ele>
        <time>2021-12-27T16:27:14Z</time>
      </trkpt>
      <trkpt lat="49.37959" lon="-1.59355">
        <ele>51.5</ele>
        <time>2021-12-27T16:27:19Z</time>
      </trkpt>
      <trkpt lat="49.37953" lon="-1.59356">
        <ele>51.2</ele>
        <time>2021-12-27T16:27:24Z</time>
      </trkpt>
      <trkpt lat="49.37948" lon="-1.59354">
        <ele>51.4</ele>
        <time>2021-12-27T16:27:29Z</time>
      </trkpt>
      <trkpt lat="49.37942" lon="-1.59353">
        <ele>51.9</ele>
        <time>2021-12-27T16:27:34Z</time>
      </trkpt>
      <trkpt lat="49.37937" lon="-1.59353">
        <ele>52</ele>
        <time>2021-12-27T16:27:38Z</time>
      </trkpt>
      <trkpt lat="49.37932" lon="-1.59351">
        <ele>51.7</ele>
        <time>2021-12-27T16:27:41Z</time>
      </trkpt>
      <trkpt lat="49.37928" lon="-1.59348">
        <ele>51.2</ele>
        <time>2021-12-27T16:27:45Z</time>
      </trkpt>
      <trkpt lat="49.37923" lon="-1.59346">
        <ele>50.4</ele>
        <time>2021-12-27T16:27:48Z</time>
      </trkpt>
      <trkpt lat="49.37918" lon="-1.59345">
        <ele>49.8</ele>
        <time>2021-12-27T16:27:52Z</time>
      </trkpt>
      <trkpt lat="49.37913" lon="-1.59344">
        <ele>49.3</ele>
        <time>2021-12-27T16:27:56Z</time>
      </trkpt>
      <trkpt lat="49.37908" lon="-1.59343">
        <ele>49</ele>
        <time>2021-12-27T16:28:01Z</time>
      </trkpt>
      <trkpt lat="49.37902" lon="-1.59342">
        <ele>49.2</ele>
        <time>2021-12-27T16:28:06Z</time>
      </trkpt>
      <trkpt lat="49.37897" lon="-1.59343">
        <ele>49.3</ele>
        <time>2021-12-27T16:28:10Z</time>
      </trkpt>
      <trkpt lat="49.37892" lon="-1.59346">
        <ele>49</ele>
        <time>2021-12-27T16:28:14Z</time>
      </trkpt>
      <trkpt lat="49.37887" lon="-1.59348">
        <ele>48.7</ele>
        <time>2021-12-27T16:28:18Z</time>
      </trkpt>
      <trkpt lat="49.37882" lon="-1.59347">
        <ele>48.7</ele>
        <time>2021-12-27T16:28:24Z</time>
      </trkpt>
      <trkpt lat="49.37876" lon="-1.59345">
        <ele>48.8</ele>
        <time>2021-12-27T16:28:31Z</time>
      </trkpt>
      <trkpt lat="49.3787" lon="-1.59344">
        <ele>49.6</ele>
        <time>2021-12-27T16:28:35Z</time>
      </trkpt>
      <trkpt lat="49.37866" lon="-1.59347">
        <ele>50.2</ele>
        <time>2021-12-27T16:28:39Z</time>
      </trkpt>
      <trkpt lat="49.37861" lon="-1.59349">
        <ele>50.3</ele>
        <time>2021-12-27T16:28:43Z</time>
      </trkpt>
      <trkpt lat="49.37856" lon="-1.59349">
        <ele>50.1</ele>
        <time>2021-12-27T16:28:47Z</time>
      </trkpt>
      <trkpt lat="49.37851" lon="-1.59345">
        <ele>48.6</ele>
        <time>2021-12-27T16:28:53Z</time>
      </trkpt>
      <trkpt lat="49.37847" lon="-1.59347">
        <ele>47.1</ele>
        <time>2021-12-27T16:29:00Z</time>
      </trkpt>
      <trkpt lat="49.37842" lon="-1.59347">
        <ele>48.2</ele>
        <time>2021-12-27T16:29:10Z</time>
      </trkpt>
      <trkpt lat="49.37837" lon="-1.59348">
        <ele>48.2</ele>
        <time>2021-12-27T16:29:12Z</time>
      </trkpt>
      <trkpt lat="49.3783" lon="-1.59349">
        <ele>48.3</ele>
        <time>2021-12-27T16:29:16Z</time>
      </trkpt>
      <trkpt lat="49.37824" lon="-1.59347">
        <ele>48.1</ele>
        <time>2021-12-27T16:29:18Z</time>
      </trkpt>
      <trkpt lat="49.37812" lon="-1.59346">
        <ele>47.8</ele>
        <time>2021-12-27T16:29:25Z</time>
      </trkpt>
      <trkpt lat="49.37807" lon="-1.59346">
        <ele>46.8</ele>
        <time>2021-12-27T16:29:33Z</time>
      </trkpt>
      <trkpt lat="49.37802" lon="-1.59343">
        <ele>46.4</ele>
        <time>2021-12-27T16:29:36Z</time>
      </trkpt>
      <trkpt lat="49.37797" lon="-1.59342">
        <ele>46.1</ele>
        <time>2021-12-27T16:29:39Z</time>
      </trkpt>
      <trkpt lat="49.37781" lon="-1.59339">
        <ele>45.4</ele>
        <time>2021-12-27T16:29:48Z</time>
      </trkpt>
      <trkpt lat="49.37775" lon="-1.59339">
        <ele>45.2</ele>
        <time>2021-12-27T16:29:52Z</time>
      </trkpt>
      <trkpt lat="49.37771" lon="-1.5934">
        <ele>44.9</ele>
        <time>2021-12-27T16:29:54Z</time>
      </trkpt>
      <trkpt lat="49.37764" lon="-1.59341">
        <ele>44</ele>
        <time>2021-12-27T16:29:59Z</time>
      </trkpt>
      <trkpt lat="49.37758" lon="-1.59342">
        <ele>43.5</ele>
        <time>2021-12-27T16:30:04Z</time>
      </trkpt>
      <trkpt lat="49.37752" lon="-1.59344">
        <ele>43.2</ele>
        <time>2021-12-27T16:30:09Z</time>
      </trkpt>
      <trkpt lat="49.37747" lon="-1.59346">
        <ele>42.7</ele>
        <time>2021-12-27T16:30:13Z</time>
      </trkpt>
      <trkpt lat="49.37741" lon="-1.59347">
        <ele>42.3</ele>
        <time>2021-12-27T16:30:17Z</time>
      </trkpt>
      <trkpt lat="49.37734" lon="-1.59347">
        <ele>42.5</ele>
        <time>2021-12-27T16:30:22Z</time>
      </trkpt>
      <trkpt lat="49.37729" lon="-1.59346">
        <ele>43.4</ele>
        <time>2021-12-27T16:30:26Z</time>
      </trkpt>
      <trkpt lat="49.37723" lon="-1.59346">
        <ele>44.3</ele>
        <time>2021-12-27T16:30:30Z</time>
      </trkpt>
      <trkpt lat="49.37717" lon="-1.59345">
        <ele>44.7</ele>
        <time>2021-12-27T16:30:35Z</time>
      </trkpt>
      <trkpt lat="49.3771" lon="-1.59345">
        <ele>45</ele>
        <time>2021-12-27T16:30:40Z</time>
      </trkpt>
      <trkpt lat="49.37705" lon="-1.59344">
        <ele>45.2</ele>
        <time>2021-12-27T16:30:43Z</time>
      </trkpt>
      <trkpt lat="49.377" lon="-1.59345">
        <ele>45.2</ele>
        <time>2021-12-27T16:30:47Z</time>
      </trkpt>
      <trkpt lat="49.37695" lon="-1.59346">
        <ele>44.9</ele>
        <time>2021-12-27T16:30:51Z</time>
      </trkpt>
      <trkpt lat="49.37689" lon="-1.59347">
        <ele>44.5</ele>
        <time>2021-12-27T16:30:56Z</time>
      </trkpt>
      <trkpt lat="49.37684" lon="-1.59346">
        <ele>43.6</ele>
        <time>2021-12-27T16:31:05Z</time>
      </trkpt>
      <trkpt lat="49.37678" lon="-1.59344">
        <ele>43</ele>
        <time>2021-12-27T16:31:08Z</time>
      </trkpt>
      <trkpt lat="49.37673" lon="-1.59344">
        <ele>42.6</ele>
        <time>2021-12-27T16:31:12Z</time>
      </trkpt>
      <trkpt lat="49.37668" lon="-1.59344">
        <ele>42.3</ele>
        <time>2021-12-27T16:31:15Z</time>
      </trkpt>
      <trkpt lat="49.37662" lon="-1.59345">
        <ele>42.2</ele>
        <time>2021-12-27T16:31:20Z</time>
      </trkpt>
      <trkpt lat="49.37655" lon="-1.59345">
        <ele>41.6</ele>
        <time>2021-12-27T16:31:28Z</time>
      </trkpt>
      <trkpt lat="49.37646" lon="-1.59347">
        <ele>40.8</ele>
        <time>2021-12-27T16:31:33Z</time>
      </trkpt>
      <trkpt lat="49.37641" lon="-1.59344">
        <ele>40.8</ele>
        <time>2021-12-27T16:31:37Z</time>
      </trkpt>
      <trkpt lat="49.37635" lon="-1.59345">
        <ele>41.2</ele>
        <time>2021-12-27T16:31:41Z</time>
      </trkpt>
      <trkpt lat="49.37625" lon="-1.59351">
        <ele>41.8</ele>
        <time>2021-12-27T16:31:46Z</time>
      </trkpt>
      <trkpt lat="49.37621" lon="-1.59357">
        <ele>42.5</ele>
        <time>2021-12-27T16:31:58Z</time>
      </trkpt>
      <trkpt lat="49.37616" lon="-1.59362">
        <ele>42.8</ele>
        <time>2021-12-27T16:32:03Z</time>
      </trkpt>
      <trkpt lat="49.37612" lon="-1.5937">
        <ele>43</ele>
        <time>2021-12-27T16:32:07Z</time>
      </trkpt>
      <trkpt lat="49.37611" lon="-1.59377">
        <ele>43.3</ele>
        <time>2021-12-27T16:32:10Z</time>
      </trkpt>
      <trkpt lat="49.37613" lon="-1.59371">
        <ele>47.3</ele>
        <time>2021-12-27T16:34:17Z</time>
      </trkpt>
      <trkpt lat="49.37609" lon="-1.59368">
        <ele>52.7</ele>
        <time>2021-12-27T16:35:13Z</time>
      </trkpt>
      <trkpt lat="49.37609" lon="-1.5936">
        <ele>53.5</ele>
        <time>2021-12-27T16:36:23Z</time>
      </trkpt>
      <trkpt lat="49.37609" lon="-1.59369">
        <ele>55</ele>
        <time>2021-12-27T16:37:07Z</time>
      </trkpt>
      <trkpt lat="49.3761" lon="-1.59375">
        <ele>54.9</ele>
        <time>2021-12-27T16:38:36Z</time>
      </trkpt>
      <trkpt lat="49.37609" lon="-1.59382">
        <ele>52.3</ele>
        <time>2021-12-27T16:39:27Z</time>
      </trkpt>
    </trkseg>
  </trk>
</gpx>